Provisional Data: Chest Creek near Patton, PA


Please select a monitoring station.
Please select start date.
Please select start date.

Toggle Unit: C/F Toggle Unit: C/F
Sample Time Temperature (C) Temperature (F) Specific Conductivity (mS/cm) pH   Turbidity (NTU+) DO (mg/L)
5/17/2022 12:00:00 AM 13.88 56.984 0.147 7.09 202.35 8.76
5/17/2022 12:15:00 AM 13.82 56.876 0.147 7.07 200.96 8.87
5/17/2022 12:30:00 AM 13.77 56.786 0.147 7.1 211.44 8.86
5/17/2022 12:45:00 AM 13.71 56.678 0.147 7.09 220.49 8.9
5/17/2022 1:00:00 AM 13.66 56.588 0.147 7.09 233.03 8.92
5/17/2022 1:15:00 AM 13.6 56.48 0.147 7.08 234.15 8.9
5/17/2022 1:30:00 AM 13.55 56.39 0.147 7.09 233.36 8.88
5/17/2022 1:45:00 AM 13.49 56.282 0.148 7.09 226.44 8.9
5/17/2022 2:00:00 AM 13.44 56.192 0.148 7.1 233.68 8.9
5/17/2022 2:15:00 AM 13.38 56.084 0.148 7.09 229.84 8.88
5/17/2022 2:30:00 AM 13.32 55.976 0.148 7.1 232.65 8.9
5/17/2022 2:45:00 AM 13.27 55.886 0.149 7.08 232.79 8.91
5/17/2022 3:00:00 AM 13.23 55.814 0.149 7.09 232.22 8.93
5/17/2022 3:15:00 AM 13.18 55.724 0.149 7.1 223.53 8.91
5/17/2022 3:30:00 AM 13.13 55.634 0.149 7.1 216.69 8.93
5/17/2022 3:45:00 AM 13.08 55.544 0.149 7.09 225.67 8.93
5/17/2022 4:00:00 AM 13.04 55.472 0.149 7.06 229.23 8.97
5/17/2022 4:15:00 AM 12.99 55.382 0.15 7.1 227.93 8.92
5/17/2022 4:30:00 AM 12.94 55.292 0.149 7.08 224.12 8.99
5/17/2022 4:45:00 AM 12.89 55.202 0.15 7.1 225.17 8.98
5/17/2022 5:00:00 AM 12.84 55.112 0.15 7.1 223.51 9.01
5/17/2022 5:15:00 AM 12.79 55.022 0.15 7.1 227.66 9.03
5/17/2022 5:30:00 AM 12.74 54.932 0.15 7.07 238.76 9.02
5/17/2022 5:45:00 AM 12.7 54.86 0.15 7.11 248.81 9.01
5/17/2022 6:00:00 AM 12.65 54.77 0.15 7.07 256.05 9.02
5/17/2022 6:15:00 AM 12.61 54.698 0.151 7.1 257.06 9.06
5/17/2022 6:30:00 AM 12.57 54.626 0.151 7.1 258.3 9.07
5/17/2022 6:45:00 AM 12.54 54.572 0.151 7.09 262.07 9.12
5/17/2022 7:00:00 AM 12.52 54.536 0.151 7.07 264.37 9.15
5/17/2022 7:15:00 AM 12.5 54.5 0.152 7.11 266.97 9.16
5/17/2022 7:30:00 AM 12.47 54.446 0.152 7.1 281.71 9.19
5/17/2022 7:45:00 AM 12.48 54.464 0.152 7.11 284.72 9.2
5/17/2022 8:00:00 AM 12.52 54.536 0.152 7.11 284.53 9.27
5/17/2022 8:15:00 AM 12.52 54.536 0.153 7.09 284.65 9.32
5/17/2022 8:30:00 AM 12.58 54.644 0.153 7.12 291.15 9.36
5/17/2022 8:45:00 AM 12.59 54.662 0.153 7.12 299.69 9.42
5/17/2022 9:00:00 AM 12.69 54.842 0.153 7.13 302.25 9.47
5/17/2022 9:15:00 AM 12.79 55.022 0.154 7.11 303.58 9.52
5/17/2022 9:30:00 AM 12.9 55.22 0.153 7.15 309.05 9.58
5/17/2022 9:45:00 AM 13.01 55.418 0.153 7.13 322.18 9.64
5/17/2022 10:00:00 AM 13.13 55.634 0.154 7.15 326.47 9.69
5/17/2022 10:15:00 AM 13.26 55.868 0.156 7.15 318.6 9.72
5/17/2022 10:30:00 AM 13.38 56.084 0.156 7.15 313.18 9.71
5/17/2022 10:45:00 AM 13.52 56.336 0.156 7.12 313.8 9.74
5/17/2022 11:00:00 AM 13.68 56.624 0.156 7.16 320.75 9.81
5/17/2022 11:15:00 AM 13.81 56.858 0.156 7.16 322.44 9.85
5/17/2022 11:30:00 AM 13.94 57.092 0.157 7.17 323.94 9.88
5/17/2022 11:45:00 AM 14.09 57.362 0.157 7.17 329.69 9.89
5/17/2022 12:00:00 PM 14.23 57.614 0.157 7.16 337.58 9.92
5/17/2022 12:15:00 PM 14.39 57.902 0.157 7.18 337.27 9.93
5/17/2022 12:30:00 PM 14.54 58.172 0.157 7.18 331.33 9.91
5/17/2022 12:45:00 PM 14.69 58.442 0.158 7.18 335.6 10.01
5/17/2022 1:00:00 PM 14.83 58.694 0.158 7.18 335.75 10.02
5/17/2022 1:15:00 PM 14.97 58.946 0.159 7.17 335.43 10.02
5/17/2022 1:30:00 PM 15.1 59.18 0.158 7.19 334.64 10.09
5/17/2022 1:45:00 PM 15.25 59.45 0.159 7.2 334.41 10.07
5/17/2022 2:00:00 PM 15.32 59.576 0.159 7.2 332.31 10.05
5/17/2022 2:15:00 PM 15.38 59.684 0.159 7.19 334.26 10.04
5/17/2022 2:30:00 PM 15.38 59.684 0.158 7.15 334.49 10.05
5/17/2022 2:45:00 PM 15.47 59.846 0.158 7.2 332.53 10.03
5/17/2022 3:00:00 PM 15.59 60.062 0.159 7.2 329.07 10.06
5/17/2022 3:15:00 PM 15.67 60.206 0.159 7.21 329.68 10
5/17/2022 3:30:00 PM 15.71 60.278 0.159 7.2 331.48 10.03
5/17/2022 3:45:00 PM 15.76 60.368 0.159 7.21 335.64 9.99
5/17/2022 4:00:00 PM 15.81 60.458 0.159 7.21 337.12 9.99
5/17/2022 4:15:00 PM 15.85 60.53 0.159 7.19 339.32 9.98
5/17/2022 4:30:00 PM 15.74 60.332 0.159 7.2 339.68 9.95
5/17/2022 4:45:00 PM 15.79 60.422 0.159 7.21 337.71 9.95
5/17/2022 5:00:00 PM 15.78 60.404 0.159 7.18 338.38 9.92
5/17/2022 5:15:00 PM 15.73 60.314 0.159 7.2 341.27 9.89
5/17/2022 5:30:00 PM 15.68 60.224 0.159 7.2 342.46 9.85
5/17/2022 5:45:00 PM 15.63 60.134 0.159 7.2 343.23 9.74
5/17/2022 6:00:00 PM 15.59 60.062 0.159 7.17 343.81 9.7
5/17/2022 6:15:00 PM 15.49 59.882 0.16 7.19 344.48 9.64
5/17/2022 6:30:00 PM 15.32 59.576 0.16 7.2 349.61 9.58
5/17/2022 6:45:00 PM 15.17 59.306 0.16 7.19 349.1 9.57
5/17/2022 7:00:00 PM 15.06 59.108 0.16 7.18 349.15 9.57
5/17/2022 7:15:00 PM 14.94 58.892 0.16 7.18 351.71 9.5
5/17/2022 7:30:00 PM 14.83 58.694 0.16 7.16 347.68 9.47
5/17/2022 7:45:00 PM 14.72 58.496 0.16 7.16 343.01 9.41
5/17/2022 8:00:00 PM 14.62 58.316 0.16 7.16 340.84 9.36
5/17/2022 8:15:00 PM 14.51 58.118 0.16 7.15 341.81 9.34
5/17/2022 8:30:00 PM 14.42 57.956 0.16 7.09 341.73 9.21
5/17/2022 8:45:00 PM 14.33 57.794 0.16 7.14 340.7 9.21
5/17/2022 9:00:00 PM 14.27 57.686 0.16 7.11 338.54 9.18
5/17/2022 9:15:00 PM 14.21 57.578 0.161 7.13 338.34 9.15
5/17/2022 9:30:00 PM 14.17 57.506 0.161 7.12 343.98 9.12
5/17/2022 9:45:00 PM 14.13 57.434 0.161 7.09 337.83 9.1
5/17/2022 10:00:00 PM 14.1 57.38 0.161 7.1 341.74 9.1
5/17/2022 10:15:00 PM 14.06 57.308 0.161 7.11 340.28 9.07
5/17/2022 10:30:00 PM 14.04 57.272 0.161 7.09 336.84 9.05
5/17/2022 10:45:00 PM 14.01 57.218 0.161 7.09 338.46 9.02
5/17/2022 11:00:00 PM 13.98 57.164 0.161 7.07 334.9 9.02
5/17/2022 11:15:00 PM 13.94 57.092 0.161 7.09 336.21 9.01
5/17/2022 11:30:00 PM 13.91 57.038 0.161 7.08 337.77 9.01
5/17/2022 11:45:00 PM 13.86 56.948 0.161 7.08 321.03 9.03
5/18/2022 12:00:00 AM 13.81 56.858 0.161 7.09 320.86 9
5/18/2022 12:15:00 AM 13.75 56.75 0.162 7.08 322.23 8.99
5/18/2022 12:30:00 AM 13.69 56.642 0.162 7.05 324.57 8.97
5/18/2022 12:45:00 AM 13.63 56.534 0.162 7.08 320.08 8.99
5/18/2022 1:00:00 AM 13.57 56.426 0.162 7.09 317.46 8.97
5/18/2022 1:15:00 AM 13.5 56.3 0.162 7.08 315.07 9
5/18/2022 1:30:00 AM 13.43 56.174 0.162 7.07 319.79 8.98
5/18/2022 1:45:00 AM 13.37 56.066 0.162 7.08 318.72 9
5/18/2022 2:00:00 AM 13.3 55.94 0.162 7.08 317.08 9.04
5/18/2022 2:15:00 AM 13.24 55.832 0.162 7.07 318.04 9
5/18/2022 2:30:00 AM 13.16 55.688 0.163 7.08 320.82 9.03
5/18/2022 2:45:00 AM 13.1 55.58 0.163 7.09 326.39 9
5/18/2022 3:00:00 AM 13.04 55.472 0.163 7.06 325.43 9.02
5/18/2022 3:15:00 AM 12.97 55.346 0.163 7.08 326.11 9.05
5/18/2022 3:30:00 AM 12.9 55.22 0.163 7.05 330.53 9.05
5/18/2022 3:45:00 AM 12.82 55.076 0.163 7.09 330.25 9.06
5/18/2022 4:00:00 AM 12.76 54.968 0.163 7.05 330.76 9.05
5/18/2022 4:15:00 AM 12.68 54.824 0.163 7.09 332.42 9.08
5/18/2022 4:30:00 AM 12.61 54.698 0.163 7.08 331.98 9.08
5/18/2022 4:45:00 AM 12.54 54.572 0.163 7.09 342.56 9.1
5/18/2022 5:00:00 AM 12.47 54.446 0.163 7.09 342.32 9.14
5/18/2022 5:15:00 AM 12.39 54.302 0.163 7.05 343.42 9.2
5/18/2022 5:30:00 AM 12.32 54.176 0.163 7.08 344.62 9.16
5/18/2022 5:45:00 AM 12.26 54.068 0.163 7.09 347.23 9.17
5/18/2022 6:00:00 AM 12.19 53.942 0.163 7.08 344.51 9.17
5/18/2022 6:15:00 AM 12.12 53.816 0.163 7.05 340.83 9.15
5/18/2022 6:30:00 AM 12.05 53.69 0.163 7.1 343.14 9.24
5/18/2022 6:45:00 AM 12 53.6 0.163 7.09 342.63 9.26
5/18/2022 7:00:00 AM 11.96 53.528 0.163 7.08 341.96 9.34
5/18/2022 7:15:00 AM 11.92 53.456 0.163 7.09 347.36 9.41
5/18/2022 7:30:00 AM 11.91 53.438 0.163 7.09 344.52 9.44
5/18/2022 7:45:00 AM 11.91 53.438 0.163 7.09 346.19 9.47
5/18/2022 8:00:00 AM 11.94 53.492 0.163 7.1 344.08 9.58
5/18/2022 8:15:00 AM 11.97 53.546 0.163 7.1 343.34 9.63
5/18/2022 8:30:00 AM 12.05 53.69 0.163 7.09 347.32 9.68
5/18/2022 8:45:00 AM 12.13 53.834 0.163 7.11 352.83 9.74
5/18/2022 9:00:00 AM 12.21 53.978 0.164 7.12 371.27 9.79
5/18/2022 9:15:00 AM 12.31 54.158 0.163 7.11 362.09 9.85
5/18/2022 9:30:00 AM 12.42 54.356 0.163 7.13 352 9.91
5/18/2022 9:45:00 AM 12.54 54.572 0.163 7.11 348.39 9.94
5/18/2022 10:00:00 AM 12.65 54.77 0.162 7.13 323.42 10
5/18/2022 10:15:00 AM 12.79 55.022 0.162 7.14 327.42 10.02
5/18/2022 10:30:00 AM 12.95 55.31 0.162 7.15 326.25 10.04
5/18/2022 10:45:00 AM 13.08 55.544 0.163 7.13 326.87 10.09
5/18/2022 11:00:00 AM 13.24 55.832 0.163 7.15 334.65 10.1
5/18/2022 11:15:00 AM 13.4 56.12 0.163 7.15 339.84 10.15
5/18/2022 11:30:00 AM 13.57 56.426 0.163 7.15 329.92 10.17
5/18/2022 11:45:00 AM 13.71 56.678 0.163 7.16 329.1 10.19
5/18/2022 12:00:00 PM 13.87 56.966 0.163 7.14 332.43 10.2
5/18/2022 12:15:00 PM 13.88 56.984 0.163 7.17 332.75 10.22
5/18/2022 12:30:00 PM 13.84 56.912 0.163 7.17 334.24 10.21
5/18/2022 12:45:00 PM 13.77 56.786 0.163 7.17 335.77 10.22
5/18/2022 1:00:00 PM 13.74 56.732 0.163 7.18 335.42 10.21
5/18/2022 1:15:00 PM 13.83 56.894 0.163 7.19 333.35 9.87
5/18/2022 1:30:00 PM 13.85 56.93 0.163 7.19 330 10.26
5/18/2022 1:45:00 PM 13.83 56.894 0.164 7.19 335.3 10.19
5/18/2022 2:00:00 PM 13.8 56.84 0.164 7.2 332.55 10.1
5/18/2022 2:15:00 PM 13.75 56.75 0.164 7.17 326.14 10.29
5/18/2022 2:30:00 PM 13.67 56.606 0.163 7.2 325.62 10.19
5/18/2022 2:45:00 PM 13.59 56.462 0.163 7.2 327.22 10.01
5/18/2022 3:00:00 PM 13.52 56.336 0.164 7.18 325.07 10.12
5/18/2022 3:15:00 PM 13.48 56.264 0.164 7.2 326.8 9.99
5/18/2022 3:30:00 PM 13.45 56.21 0.164 7.19 329.24 10.06
5/18/2022 3:45:00 PM 13.48 56.264 0.164 7.19 330.94 10.21
5/18/2022 4:00:00 PM 13.43 56.174 0.164 7.18 333.9 10.13
5/18/2022 4:15:00 PM 13.39 56.102 0.164 7.17 333.78 10.08
5/18/2022 4:30:00 PM 13.39 56.102 0.164 7.19 333.03 10.13
5/18/2022 4:45:00 PM 13.38 56.084 0.164 7.18 329.87 9.97
5/18/2022 5:00:00 PM 13.35 56.03 0.164 7.18 326.36 10.02
5/18/2022 5:15:00 PM 13.33 55.994 0.165 7.17 323.83 10.03
5/18/2022 5:30:00 PM 13.3 55.94 0.165 7.16 323.09 10.04
5/18/2022 5:45:00 PM 13.32 55.976 0.165 7.17 323.13 10.07
5/18/2022 6:00:00 PM 13.33 55.994 0.166 7.15 324.02 10.1
5/18/2022 6:15:00 PM 13.31 55.958 0.165 7.17 326.04 10.08
5/18/2022 6:30:00 PM 13.28 55.904 0.166 7.17 328.39 10.09
5/18/2022 6:45:00 PM 13.23 55.814 0.166 7.17 329.51 10.04
5/18/2022 7:00:00 PM 13.17 55.706 0.166 7.15 334.31 9.95
5/18/2022 7:15:00 PM 13.11 55.598 0.166 7.15 335.69 9.87
5/18/2022 7:30:00 PM 13.06 55.508 0.166 7.15 335.47 9.81
5/18/2022 7:45:00 PM 13.02 55.436 0.166 7.14 337.45 9.74
5/18/2022 8:00:00 PM 12.98 55.364 0.166 7.13 339.41 9.67
5/18/2022 8:15:00 PM 12.93 55.274 0.166 7.08 333.53 9.6
5/18/2022 8:30:00 PM 12.9 55.22 0.166 7.12 338.28 9.56
5/18/2022 8:45:00 PM 12.86 55.148 0.166 7.11 339.46 9.54
5/18/2022 9:00:00 PM 12.83 55.094 0.166 7.08 339.36 9.51
5/18/2022 9:15:00 PM 12.8 55.04 0.166 7.12 339.79 9.5
5/18/2022 9:30:00 PM 12.78 55.004 0.166 7.08 340.93 9.46
5/18/2022 9:45:00 PM 12.76 54.968 0.166 7.1 341.48 9.45
5/18/2022 10:00:00 PM 12.74 54.932 0.167 7.1 342.69 9.44
5/18/2022 10:15:00 PM 12.73 54.914 0.167 7.1 347.83 9.43
5/18/2022 10:30:00 PM 12.71 54.878 0.167 7.08 347.99 9.36
5/18/2022 10:45:00 PM 12.7 54.86 0.167 7.08 347.29 9.35
5/18/2022 11:00:00 PM 12.69 54.842 0.167 7.06 347.54 9.3
5/18/2022 11:15:00 PM 12.69 54.842 0.167 7.08 349.47 9.34
5/18/2022 11:30:00 PM 12.68 54.824 0.167 7.08 348.43 9.32
5/18/2022 11:45:00 PM 12.67 54.806 0.167 7.05 348.86 9.27
5/19/2022 12:00:00 AM 12.66 54.788 0.167 7.07 349.48 9.28
5/19/2022 12:15:00 AM 12.65 54.77 0.167 7.06 349.06 9.27
5/19/2022 12:30:00 AM 12.64 54.752 0.167 7.07 348.58 9.26
5/19/2022 12:45:00 AM 12.63 54.734 0.167 7.04 347.5 9.26
5/19/2022 1:00:00 AM 12.62 54.716 0.167 7.07 348.84 9.24
5/19/2022 1:15:00 AM 12.6 54.68 0.167 7.06 347.43 9.21
5/19/2022 1:30:00 AM 12.59 54.662 0.167 7.04 348.04 9.25
5/19/2022 1:45:00 AM 12.57 54.626 0.167 7.06 349.37 9.22
5/19/2022 2:00:00 AM 12.56 54.608 0.167 7.06 350.91 9.25
5/19/2022 2:15:00 AM 12.54 54.572 0.167 7.06 351.72 9.24
5/19/2022 2:30:00 AM 12.52 54.536 0.167 7.05 349.88 9.21
5/19/2022 2:45:00 AM 12.5 54.5 0.167 7.05 350.53 9.21
5/19/2022 3:00:00 AM 12.48 54.464 0.167 7.06 346.87 9.19
5/19/2022 3:15:00 AM 12.46 54.428 0.167 7.06 353.9 9.22
5/19/2022 3:30:00 AM 12.44 54.392 0.167 7.06 353.87 9.21
5/19/2022 3:45:00 AM 12.43 54.374 0.167 7.06 351.16 9.22
5/19/2022 4:00:00 AM 12.42 54.356 0.167 7.06 351.15 9.22
5/19/2022 4:15:00 AM 12.4 54.32 0.167 7.05 352.52 9.22
5/19/2022 4:30:00 AM 12.39 54.302 0.167 7.06 356.32 9.23
5/19/2022 4:45:00 AM 12.38 54.284 0.167 7.05 355.39 9.21
5/19/2022 5:00:00 AM 12.36 54.248 0.167 7.04 357.63 9.22
5/19/2022 5:15:00 AM 12.34 54.212 0.167 7.06 359.87 9.21
5/19/2022 5:30:00 AM 12.33 54.194 0.166 7.04 360.47 9.22
5/19/2022 5:45:00 AM 12.31 54.158 0.166 7.06 359.85 9.23
5/19/2022 6:00:00 AM 12.3 54.14 0.166 7.05 362.47 9.23
5/19/2022 6:15:00 AM 12.28 54.104 0.166 7.06 364.12 9.24
5/19/2022 6:30:00 AM 12.27 54.086 0.166 7.06 358.74 9.23
5/19/2022 6:45:00 AM 12.27 54.086 0.166 7.06 355.9 9.26
5/19/2022 7:00:00 AM 12.26 54.068 0.166 7.06 362.1 9.26
5/19/2022 7:15:00 AM 12.27 54.086 0.166 7.06 357.32 9.29
5/19/2022 7:30:00 AM 12.27 54.086 0.166 7.07 357.57 9.3
5/19/2022 7:45:00 AM 12.29 54.122 0.165 7.07 358 9.35
5/19/2022 8:00:00 AM 12.31 54.158 0.166 7.07 357.79 9.4
5/19/2022 8:15:00 AM 12.34 54.212 0.166 7.07 360.17 9.42
5/19/2022 8:30:00 AM 12.36 54.248 0.166 7.07 362.01 9.49
5/19/2022 8:45:00 AM 12.39 54.302 0.166 7.05 361.74 9.52
5/19/2022 9:00:00 AM 12.41 54.338 0.166 7.09 360.4 9.55
5/19/2022 9:15:00 AM 12.47 54.446 0.165 7.09 359.92 9.62
5/19/2022 9:30:00 AM 12.48 54.464 0.165 7.09 359.43 9.63
5/19/2022 9:45:00 AM 12.5 54.5 0.165 7.1 356.55 9.66
5/19/2022 10:00:00 AM 12.5 54.5 0.165 7.09 357.47 9.66
5/19/2022 10:15:00 AM 12.51 54.518 0.165 7.1 353.84 9.65
5/19/2022 10:30:00 AM 12.51 54.518 0.165 7.1 350.05 9.62
5/19/2022 10:45:00 AM 12.52 54.536 0.165 7.1 349.3 9.61
5/19/2022 11:00:00 AM 12.52 54.536 0.165 7.09 348.67 9.62
5/19/2022 11:15:00 AM 12.53 54.554 0.164 7.09 347.91 9.65
5/19/2022 11:30:00 AM 12.56 54.608 0.164 7.11 348.79 9.69
5/19/2022 11:45:00 AM 12.62 54.716 0.164 7.11 345.89 9.74
5/19/2022 12:00:00 PM 12.65 54.77 0.164 7.11 347.24 9.77
5/19/2022 12:15:00 PM 12.79 55.022 0.164 7.12 338.31 9.86
5/19/2022 12:30:00 PM 12.85 55.13 0.164 7.13 339.2 9.92
5/19/2022 12:45:00 PM 12.98 55.364 0.164 7.12 339.19 9.93
5/19/2022 1:00:00 PM 13.23 55.814 0.164 7.14 340.04 9.98
5/19/2022 1:15:00 PM 13.52 56.336 0.164 7.13 340.93 10.05
5/19/2022 1:30:00 PM 13.68 56.624 0.164 7.13 344.71 10.03
5/19/2022 1:45:00 PM 13.75 56.75 0.164 7.13 340.47 10.05
5/19/2022 2:00:00 PM 13.97 57.146 0.164 7.15 337.58 10.08
5/19/2022 2:15:00 PM 14.2 57.56 0.164 7.15 341.13 10.11
5/19/2022 2:30:00 PM 14.29 57.722 0.165 7.15 341.68 10.11
5/19/2022 2:45:00 PM 14.48 58.064 0.164 7.15 342.26 10.14
5/19/2022 3:00:00 PM 14.58 58.244 0.164 7.15 342.95 10.12
5/19/2022 3:15:00 PM 14.68 58.424 0.165 7.16 340.55 10.15
5/19/2022 3:30:00 PM 14.72 58.496 0.165 7.16 336.92 10.17
5/19/2022 3:45:00 PM 14.78 58.604 0.165 7.13 336.41 10.15
5/19/2022 4:00:00 PM 14.79 58.622 0.165 7.14 333.65 10.13
5/19/2022 4:15:00 PM 14.79 58.622 0.165 7.13 336.49 10.13
5/19/2022 4:30:00 PM 14.76 58.568 0.165 7.1 334.49 10.09
5/19/2022 4:45:00 PM 14.72 58.496 0.165 7.1 333.34 10.09
5/19/2022 5:00:00 PM 14.66 58.388 0.166 7.08 332.74 10.05
5/19/2022 5:15:00 PM 14.67 58.406 0.166 7.1 332.69 10.01
5/19/2022 5:30:00 PM 14.7 58.46 0.165 7.08 333.59 9.98
5/19/2022 5:45:00 PM 14.7 58.46 0.166 7.09 337.83 9.99
5/19/2022 6:00:00 PM 14.68 58.424 0.166 7.08 341.52 9.96
5/19/2022 6:15:00 PM 14.65 58.37 0.165 7.07 355.05 9.96
5/19/2022 6:30:00 PM 14.56 58.208 0.166 7.11 356.92 9.83
5/19/2022 6:45:00 PM 14.49 58.082 0.166 7.09 357.09 9.77
5/19/2022 7:00:00 PM 14.45 58.01 0.166 7.09 348.95 9.76
5/19/2022 7:15:00 PM 14.39 57.902 0.166 7.1 346.2 9.72
5/19/2022 7:30:00 PM 14.33 57.794 0.166 7.11 337.6 9.66
5/19/2022 7:45:00 PM 14.29 57.722 0.167 7.08 350.26 9.59
5/19/2022 8:00:00 PM 14.22 57.596 0.167 7.13 348.04 9.52
5/19/2022 8:15:00 PM 14.17 57.506 0.167 7.12 343.83 9.42
5/19/2022 8:30:00 PM 14.1 57.38 0.167 7.1 341.18 9.38
5/19/2022 8:45:00 PM 14.04 57.272 0.167 7.08 334.35 9.28
5/19/2022 9:00:00 PM 13.99 57.182 0.168 7.09 299.98 9.2
5/19/2022 9:15:00 PM 13.94 57.092 0.168 7.08 310.92 9.04
5/19/2022 9:30:00 PM 13.89 57.002 0.168 7.08 314.44 9.06
5/19/2022 9:45:00 PM 13.86 56.948 0.168 7.05 311.96 9.1
5/19/2022 10:00:00 PM 13.82 56.876 0.168 7.06 311.22 9.04
5/19/2022 10:15:00 PM 13.79 56.822 0.168 7.02 301.95 9.01
5/19/2022 10:30:00 PM 13.77 56.786 0.168 7.05 300.89 8.92
5/19/2022 10:45:00 PM 13.74 56.732 0.168 7.05 299.55 8.85
5/19/2022 11:00:00 PM 13.72 56.696 0.168 7.04 298.94 8.88
5/19/2022 11:15:00 PM 13.69 56.642 0.168 7.03 302.03 8.9
5/19/2022 11:30:00 PM 13.68 56.624 0.169 7 301.71 8.84
5/19/2022 11:45:00 PM 13.66 56.588 0.169 7.03 301.87 8.87
5/20/2022 12:00:00 AM 13.65 56.57 0.169 7.02 302.43 8.74
5/20/2022 12:15:00 AM 13.63 56.534 0.169 7.01 307.06 8.76
5/20/2022 12:30:00 AM 13.61 56.498 0.169 7.02 318.03 8.85
5/20/2022 12:45:00 AM 13.6 56.48 0.169 7.02 304.31 8.81
5/20/2022 1:00:00 AM 13.58 56.444 0.169 6.98 302.2 8.83
5/20/2022 1:15:00 AM 13.57 56.426 0.169 7.02 305.45 8.85
5/20/2022 1:30:00 AM 13.55 56.39 0.169 7.01 303.45 8.91
5/20/2022 1:45:00 AM 13.53 56.354 0.17 7.02 300.87 8.88
5/20/2022 2:00:00 AM 13.51 56.318 0.17 7.02 299.98 8.87
5/20/2022 2:15:00 AM 13.5 56.3 0.17 7.01 295.18 8.87
5/20/2022 2:30:00 AM 13.48 56.264 0.17 7.01 293.49 8.88
5/20/2022 2:45:00 AM 13.46 56.228 0.171 7.01 293.31 8.85
5/20/2022 3:00:00 AM 13.45 56.21 0.171 7 296.39 8.84
5/20/2022 3:15:00 AM 13.43 56.174 0.171 7 298.89 8.83
5/20/2022 3:30:00 AM 13.41 56.138 0.171 6.98 303.52 8.83
5/20/2022 3:45:00 AM 13.39 56.102 0.171 6.99 302.69 8.82
5/20/2022 4:00:00 AM 13.37 56.066 0.171 7 306.38 8.83
5/20/2022 4:15:00 AM 13.36 56.048 0.171 7 305.99 8.85
5/20/2022 4:30:00 AM 13.33 55.994 0.171 7 302.22 8.87
5/20/2022 4:45:00 AM 13.31 55.958 0.171 6.99 293.78 8.84
5/20/2022 5:00:00 AM 13.3 55.94 0.171 7 293.52 8.83
5/20/2022 5:15:00 AM 13.29 55.922 0.171 6.99 292.63 8.78
5/20/2022 5:30:00 AM 13.28 55.904 0.172 6.98 296.46 8.78
5/20/2022 5:45:00 AM 13.26 55.868 0.172 7 301.7 8.79
5/20/2022 6:00:00 AM 13.25 55.85 0.172 7.01 304.77 8.8
5/20/2022 6:15:00 AM 13.23 55.814 0.172 6.98 309.92 8.78
5/20/2022 6:30:00 AM 13.22 55.796 0.172 7 308.08 8.38
5/20/2022 6:45:00 AM 13.21 55.778 0.172 6.97 319.61 8.51
5/20/2022 7:00:00 AM 13.21 55.778 0.172 7.01 323.34 8.72
5/20/2022 7:15:00 AM 13.21 55.778 0.172 7.01 330.05 8.79
5/20/2022 7:30:00 AM 13.21 55.778 0.173 6.99 327.18 8.84
5/20/2022 7:45:00 AM 13.21 55.778 0.173 6.99 322.98 8.96
5/20/2022 8:00:00 AM 13.23 55.814 0.173 6.97 324.93 8.96
5/20/2022 8:15:00 AM 13.25 55.85 0.173 7 323.16 9.02
5/20/2022 8:30:00 AM 13.27 55.886 0.173 6.99 323.26 9.14
5/20/2022 8:45:00 AM 13.29 55.922 0.173 7 314.56 9.17
5/20/2022 9:00:00 AM 13.34 56.012 0.172 7.01 308.28 9.29
5/20/2022 9:15:00 AM 13.43 56.174 0.172 7.01 306.84 9.37
5/20/2022 9:30:00 AM 13.54 56.372 0.172 7 305.59 9.11
5/20/2022 9:45:00 AM 13.62 56.516 0.172 7.02 302.01 9.26
5/20/2022 10:00:00 AM 13.71 56.678 0.172 7.02 300.99 9.23
5/20/2022 10:15:00 AM 13.82 56.876 0.172 7.02 298.56 9.49
5/20/2022 10:30:00 AM 13.88 56.984 0.172 7.03 296.91 9.56
5/20/2022 10:45:00 AM 14.01 57.218 0.172 7.05 294.06 9.62
5/20/2022 11:00:00 AM 14.16 57.488 0.173 7.02 293.91 9.65
5/20/2022 11:15:00 AM 14.18 57.524 0.172 7.05 293.36 9.73
5/20/2022 11:30:00 AM 14.19 57.542 0.172 7.04 296.13 9.62
5/20/2022 11:45:00 AM 14.37 57.866 0.172 7.07 294.49 9.65
5/20/2022 12:00:00 PM 14.43 57.974 0.173 7.07 296.89 9.74
5/20/2022 12:15:00 PM 14.41 57.938 0.174 7.06 296.57 9.68
5/20/2022 12:30:00 PM 14.49 58.082 0.173 7.04 301.12 9.66
5/20/2022 12:45:00 PM 14.58 58.244 0.172 7.08 300.9 9.74
5/20/2022 1:00:00 PM 14.53 58.154 0.172 7.05 298.4 9.61
5/20/2022 1:15:00 PM 14.52 58.136 0.172 7.07 300.12 9.67
5/20/2022 1:30:00 PM 14.52 58.136 0.172 7.08 300.13 9.69
5/20/2022 1:45:00 PM 14.48 58.064 0.173 7.07 299.85 9.64
5/20/2022 2:00:00 PM 14.41 57.938 0.173 7.07 301.17 9.57
5/20/2022 2:15:00 PM 14.37 57.866 0.173 7.07 300.14 9.47
5/20/2022 2:30:00 PM 14.34 57.812 0.173 7.07 301.33 9.53
5/20/2022 2:45:00 PM 14.46 58.028 0.173 7.06 300.35 9.55
5/20/2022 3:00:00 PM 14.54 58.172 0.173 7.06 304.59 9.63
5/20/2022 3:15:00 PM 14.59 58.262 0.173 7.05 305.34 9.66
5/20/2022 3:30:00 PM 14.61 58.298 0.173 7.07 305.05 9.68
5/20/2022 3:45:00 PM 14.62 58.316 0.172 7.08 304.95 9.74
5/20/2022 4:00:00 PM 14.72 58.496 0.172 7.06 303.13 9.77
5/20/2022 4:15:00 PM 14.87 58.766 0.172 7.07 302.54 9.82
5/20/2022 4:30:00 PM 15.1 59.18 0.172 7.08 301.62 9.87
5/20/2022 4:45:00 PM 15.27 59.486 0.172 7.1 302.3 9.91
5/20/2022 5:00:00 PM 15.43 59.774 0.172 7.1 305.21 9.91
5/20/2022 5:15:00 PM 15.57 60.026 0.172 7.11 305.1 9.9
5/20/2022 5:30:00 PM 15.64 60.152 0.173 7.11 300.62 9.81
5/20/2022 5:45:00 PM 15.68 60.224 0.172 7.11 296.71 9.82
5/20/2022 6:00:00 PM 15.68 60.224 0.172 7.11 297.83 9.74
5/20/2022 6:15:00 PM 15.64 60.152 0.172 7.11 299.32 9.73
5/20/2022 6:30:00 PM 15.58 60.044 0.172 7.1 301.17 9.68
5/20/2022 6:45:00 PM 15.5 59.9 0.172 7.1 297.1 9.59
5/20/2022 7:00:00 PM 15.41 59.738 0.171 7.06 293.34 9.52
5/20/2022 7:15:00 PM 15.32 59.576 0.171 7.11 293.59 9.42
5/20/2022 7:30:00 PM 15.23 59.414 0.171 7.08 294.47 9.38
5/20/2022 7:45:00 PM 15.16 59.288 0.171 7.1 290.38 9.27
5/20/2022 8:00:00 PM 15.11 59.198 0.171 7.09 288.86 9.14
5/20/2022 8:15:00 PM 15.05 59.09 0.171 7.05 289.84 9.1
5/20/2022 8:30:00 PM 14.98 58.964 0.171 7.07 288.77 9.02
5/20/2022 8:45:00 PM 14.93 58.874 0.172 7.06 289.32 8.94
5/20/2022 9:00:00 PM 14.88 58.784 0.172 7.05 287.27 8.87
5/20/2022 9:15:00 PM 14.82 58.676 0.172 7.05 288.58 8.81
5/20/2022 9:30:00 PM 14.77 58.586 0.172 7.03 285.91 8.82
5/20/2022 9:45:00 PM 14.73 58.514 0.172 7.01 283.83 8.75
5/20/2022 10:00:00 PM 14.69 58.442 0.172 7.03 285.06 8.75
5/20/2022 10:15:00 PM 14.66 58.388 0.172 6.99 278.81 8.75
5/20/2022 10:30:00 PM 14.63 58.334 0.172 7.02 283.44 8.74
5/20/2022 10:45:00 PM 14.61 58.298 0.172 7 278.65 8.67
5/20/2022 11:00:00 PM 14.58 58.244 0.172 7.01 276.7 8.69
5/20/2022 11:15:00 PM 14.56 58.208 0.172 6.99 276.55 8.69
5/20/2022 11:30:00 PM 14.54 58.172 0.172 7 275.96 8.64
5/20/2022 11:45:00 PM 14.53 58.154 0.171 6.99 277.2 8.7
5/21/2022 12:00:00 AM 14.53 58.154 0.171 7 291.85 8.44
5/21/2022 12:15:00 AM 14.53 58.154 0.171 6.99 287.9 8.43
5/21/2022 12:30:00 AM 14.52 58.136 0.171 7.01 292.56 8.5
5/21/2022 12:45:00 AM 14.51 58.118 0.171 6.97 294.09 8.48
5/21/2022 1:00:00 AM 14.5 58.1 0.171 7 290.55 8.59
5/21/2022 1:15:00 AM 14.49 58.082 0.171 6.99 287.59 8.56
5/21/2022 1:30:00 AM 14.46 58.028 0.171 6.98 297.85 8.53
5/21/2022 1:45:00 AM 14.44 57.992 0.171 6.99 292.02 8.51
5/21/2022 2:00:00 AM 14.43 57.974 0.17 7 292.87 8.48
5/21/2022 2:15:00 AM 14.41 57.938 0.17 6.96 294.37 8.51
5/21/2022 2:30:00 AM 14.39 57.902 0.17 6.99 287.92 8.53
5/21/2022 2:45:00 AM 14.38 57.884 0.17 6.99 286.86 8.45
5/21/2022 3:00:00 AM 14.36 57.848 0.17 6.98 291.15 8.46
5/21/2022 3:15:00 AM 14.35 57.83 0.17 6.97 292.54 8.5
5/21/2022 3:30:00 AM 14.33 57.794 0.17 6.98 290.39 8.44
5/21/2022 3:45:00 AM 14.3 57.74 0.17 6.99 291.21 8.45
5/21/2022 4:00:00 AM 14.28 57.704 0.17 6.98 296.85 8.49
5/21/2022 4:15:00 AM 14.26 57.668 0.171 6.97 290.09 8.44
5/21/2022 4:30:00 AM 14.24 57.632 0.171 6.93 288.19 8.5
5/21/2022 4:45:00 AM 14.22 57.596 0.171 6.98 283.51 8.5
5/21/2022 5:00:00 AM 14.19 57.542 0.171 6.98 286.8 8.52
5/21/2022 5:15:00 AM 14.17 57.506 0.171 6.98 287.15 8.52
5/21/2022 5:30:00 AM 14.15 57.47 0.171 6.98 286.14 8.49
5/21/2022 5:45:00 AM 14.14 57.452 0.171 6.98 281.75 8.56
5/21/2022 6:00:00 AM 14.14 57.452 0.171 6.98 280.05 8.59
5/21/2022 6:15:00 AM 14.13 57.434 0.171 6.98 280.45 8.54
5/21/2022 6:30:00 AM 14.13 57.434 0.172 7 281.52 8.63
5/21/2022 6:45:00 AM 14.14 57.452 0.172 6.98 274.83 8.7
5/21/2022 7:00:00 AM 14.16 57.488 0.172 6.99 269.02 8.74
5/21/2022 7:15:00 AM 14.19 57.542 0.172 6.99 264.53 8.77
5/21/2022 7:30:00 AM 14.22 57.596 0.172 7 260.21 8.88
5/21/2022 7:45:00 AM 14.26 57.668 0.172 6.99 258.75 8.93
5/21/2022 8:00:00 AM 14.34 57.812 0.172 7.01 256.54 9.03
5/21/2022 8:15:00 AM 14.42 57.956 0.172 6.98 257.28 9.13
5/21/2022 8:30:00 AM 14.52 58.136 0.172 7.02 259.6 9.23
5/21/2022 8:45:00 AM 14.64 58.352 0.172 7 259.65 9.28
5/21/2022 9:00:00 AM 14.77 58.586 0.172 7.03 260.58 9.31
5/21/2022 9:15:00 AM 14.91 58.838 0.172 7.03 258.07 9.38
5/21/2022 9:30:00 AM 15.07 59.126 0.172 7.04 247.78 9.46
5/21/2022 9:45:00 AM 15.24 59.432 0.172 7.03 247.35 9.48
5/21/2022 10:00:00 AM 15.44 59.792 0.172 7.04 251.24 9.52
5/21/2022 10:15:00 AM 15.63 60.134 0.173 7.04 256.59 9.58
5/21/2022 10:30:00 AM 15.84 60.512 0.173 7.03 248.62 9.58
5/21/2022 10:45:00 AM 16.05 60.89 0.173 7.04 245.63 9.61
5/21/2022 11:00:00 AM 16.26 61.268 0.173 7.04 248.14 9.66
5/21/2022 11:15:00 AM 16.49 61.682 0.174 7.05 247.09 9.72
5/21/2022 11:30:00 AM 16.67 62.006 0.174 7.02 249.53 9.73
5/21/2022 11:45:00 AM 16.86 62.348 0.173 7.08 257.47 9.78
5/21/2022 12:00:00 PM 17.02 62.636 0.174 7.1 245.63 9.77
5/21/2022 12:15:00 PM 17.19 62.942 0.174 7.13 249.21 9.78
5/21/2022 12:30:00 PM 17.34 63.212 0.174 7.12 249.02 9.8
5/21/2022 12:45:00 PM 17.54 63.572 0.174 7.13 248.81 9.82
5/21/2022 1:00:00 PM 17.76 63.968 0.175 7.13 241.49 9.82
5/21/2022 1:15:00 PM 17.99 64.382 0.175 7.13 237.09 9.86
5/21/2022 1:30:00 PM 18.08 64.544 0.175 7.08 235.65 9.85
5/21/2022 1:45:00 PM 18.24 64.832 0.176 7.13 236.11 9.87
5/21/2022 2:00:00 PM 18.37 65.066 0.176 7.14 235.09 9.9
5/21/2022 2:15:00 PM 18.56 65.408 0.176 7.12 227.37 9.88
5/21/2022 2:30:00 PM 18.7 65.66 0.176 7.13 223.29 9.86
5/21/2022 2:45:00 PM 18.82 65.876 0.176 7.17 220.46 9.92
5/21/2022 3:00:00 PM 18.98 66.164 0.176 7.18 217.76 9.93
5/21/2022 3:15:00 PM 19.11 66.398 0.176 7.14 218.41 9.87
5/21/2022 3:30:00 PM 19.16 66.488 0.176 7.17 222.57 9.86
5/21/2022 3:45:00 PM 19.24 66.632 0.176 7.16 224.24 9.82
5/21/2022 4:00:00 PM 19.32 66.776 0.176 7.16 217.72 9.85
5/21/2022 4:15:00 PM 19.4 66.92 0.176 7.17 223.34 9.87
5/21/2022 4:30:00 PM 19.43 66.974 0.176 7.17 222.38 9.76
5/21/2022 4:45:00 PM 19.42 66.956 0.176 7.16 235.18 9.75
5/21/2022 5:00:00 PM 19.46 67.028 0.176 7.16 232.47 9.75
5/21/2022 5:15:00 PM 19.49 67.082 0.176 7.12 229.53 9.7
5/21/2022 5:30:00 PM 19.46 67.028 0.176 7.15 228.07 9.63
5/21/2022 5:45:00 PM 19.36 66.848 0.176 7.13 225.29 9.56
5/21/2022 6:00:00 PM 19.24 66.632 0.176 7.12 228.27 9.49
5/21/2022 6:15:00 PM 19.1 66.38 0.169 7.12 230.21 9.43
5/21/2022 6:30:00 PM 18.97 66.146 0.177 7.11 230.67 9.36
5/21/2022 6:45:00 PM 18.81 65.858 0.177 7.1 233.27 9.28
5/21/2022 7:00:00 PM 18.67 65.606 0.177 7.09 230.15 9.16
5/21/2022 7:15:00 PM 18.53 65.354 0.177 7.1 231.1 9.05
5/21/2022 7:30:00 PM 18.39 65.102 0.177 7.08 226.46 8.92
5/21/2022 7:45:00 PM 18.25 64.85 0.178 7.03 224.8 8.8
5/21/2022 8:00:00 PM 18.13 64.634 0.178 7.06 218.47 8.69
5/21/2022 8:15:00 PM 18.02 64.436 0.178 7.05 220.24 8.61
5/21/2022 8:30:00 PM 17.91 64.238 0.178 7.05 214.75 8.52
5/21/2022 8:45:00 PM 17.81 64.058 0.178 7.04 216.43 8.44
5/21/2022 9:00:00 PM 17.71 63.878 0.178 7.03 212.71 8.39
5/21/2022 9:15:00 PM 17.62 63.716 0.178 7.03 215.48 8.38
5/21/2022 9:30:00 PM 17.54 63.572 0.178 7.01 214.69 8.37
5/21/2022 9:45:00 PM 17.45 63.41 0.179 6.99 215.96 8.33
5/21/2022 10:00:00 PM 17.38 63.284 0.178 7 222.18 8.27
5/21/2022 10:15:00 PM 17.34 63.212 0.179 6.98 215.96 8.17
5/21/2022 10:30:00 PM 17.28 63.104 0.179 6.98 210.36 8.17
5/21/2022 10:45:00 PM 17.23 63.014 0.179 6.96 206.73 8.16
5/21/2022 11:00:00 PM 17.19 62.942 0.179 6.99 193.58 8.07
5/21/2022 11:15:00 PM 17.16 62.888 0.179 6.98 188.12 8.08
5/21/2022 11:30:00 PM 17.12 62.816 0.179 6.97 190.94 8.04
5/21/2022 11:45:00 PM 17.1 62.78 0.179 6.97 182.08 8.08
5/22/2022 12:00:00 AM 17.07 62.726 0.179 6.97 177.45 8.11
5/22/2022 12:15:00 AM 17.05 62.69 0.18 6.96 173.24 8.04
5/22/2022 12:30:00 AM 17.02 62.636 0.179 6.97 171.97 8.04
5/22/2022 12:45:00 AM 16.99 62.582 0.179 6.94 168.68 8.03
5/22/2022 1:00:00 AM 16.96 62.528 0.18 6.96 166.74 8.02
5/22/2022 1:15:00 AM 16.93 62.474 0.18 6.95 164.67 7.95
5/22/2022 1:30:00 AM 16.91 62.438 0.18 6.94 163.26 8
5/22/2022 1:45:00 AM 16.88 62.384 0.179 6.95 162.71 7.97
5/22/2022 2:00:00 AM 16.85 62.33 0.179 6.93 168.34 8.06
5/22/2022 2:15:00 AM 16.82 62.276 0.179 6.94 160.73 8.05
5/22/2022 2:30:00 AM 16.79 62.222 0.179 6.93 162.1 7.97
5/22/2022 2:45:00 AM 16.76 62.168 0.179 6.94 167.96 8
5/22/2022 3:00:00 AM 16.73 62.114 0.179 6.92 166.83 8.04
5/22/2022 3:15:00 AM 16.7 62.06 0.179 6.93 168.07 8.04
5/22/2022 3:30:00 AM 16.67 62.006 0.18 6.94 171.71 8
5/22/2022 3:45:00 AM 16.63 61.934 0.18 6.92 172.91 7.99
5/22/2022 4:00:00 AM 16.6 61.88 0.18 6.92 170.6 8
5/22/2022 4:15:00 AM 16.56 61.808 0.18 6.89 170.13 8.01
5/22/2022 4:30:00 AM 16.52 61.736 0.18 6.92 170.27 8.01
5/22/2022 4:45:00 AM 16.48 61.664 0.18 6.91 172.37 7.99
5/22/2022 5:00:00 AM 16.43 61.574 0.18 6.89 173.72 7.97
5/22/2022 5:15:00 AM 16.39 61.502 0.181 6.92 169.89 8.01
5/22/2022 5:30:00 AM 16.35 61.43 0.181 6.88 169.39 8.03
5/22/2022 5:45:00 AM 16.3 61.34 0.181 6.91 167.18 8.01
5/22/2022 6:00:00 AM 16.27 61.286 0.181 6.92 168.61 7.97
5/22/2022 6:15:00 AM 16.23 61.214 0.181 6.92 166.47 8.09
5/22/2022 6:30:00 AM 16.2 61.16 0.181 6.91 163.15 8.14
5/22/2022 6:45:00 AM 16.17 61.106 0.181 6.91 163.46 8.19
5/22/2022 7:00:00 AM 16.16 61.088 0.181 6.9 165.08 8.27
5/22/2022 7:15:00 AM 16.16 61.088 0.181 6.88 167.18 8.37
5/22/2022 7:30:00 AM 16.16 61.088 0.181 6.91 167.92 8.45
5/22/2022 7:45:00 AM 16.19 61.142 0.181 6.89 165.79 8.57
5/22/2022 8:00:00 AM 16.24 61.232 0.181 6.91 164.19 8.69
5/22/2022 8:15:00 AM 16.31 61.358 0.181 6.87 166.96 8.8
5/22/2022 8:30:00 AM 16.34 61.412 0.181 6.9 164.13 8.87
5/22/2022 8:45:00 AM 16.43 61.574 0.181 6.9 164 8.9
5/22/2022 9:00:00 AM 16.53 61.754 0.181 6.9 163.25 9.01
5/22/2022 9:15:00 AM 16.71 62.078 0.182 6.87 163.45 8.98
5/22/2022 9:30:00 AM 16.88 62.384 0.181 6.89 164.12 9.15
5/22/2022 9:45:00 AM 17.09 62.762 0.181 6.88 168.41 9.23
5/22/2022 10:00:00 AM 17.29 63.122 0.181 6.84 165.89 9.42
5/22/2022 10:15:00 AM 17.51 63.518 0.181 6.89 168.59 9.49
5/22/2022 10:30:00 AM 17.68 63.824 0.181 6.89 168.03 9.55
5/22/2022 10:45:00 AM 17.86 64.148 0.182 6.88 157.68 9.59
5/22/2022 11:00:00 AM 18.08 64.544 0.181 6.86 160.08 9.66
5/22/2022 11:15:00 AM 18.23 64.814 0.182 6.88 161.65 9.68
5/22/2022 11:30:00 AM 18.36 65.048 0.182 6.87 163.51 9.7
5/22/2022 11:45:00 AM 18.48 65.264 0.182 6.88 162.12 9.74
5/22/2022 12:00:00 PM 18.49 65.282 0.182 6.89 159.56 9.76
5/22/2022 12:15:00 PM 18.79 65.82201 0.181 6.88 158.39 9.81
5/22/2022 12:30:00 PM 18.94 66.092 0.181 6.89 160.03 9.85
5/22/2022 12:45:00 PM 19.17 66.506 0.181 6.89 156.17 9.86
5/22/2022 1:00:00 PM 19.18 66.524 0.182 6.9 155.78 9.83
5/22/2022 1:15:00 PM 19.21 66.578 0.181 6.88 157.97 9.8
5/22/2022 1:30:00 PM 19.13 66.434 0.182 6.9 156.65 9.74
5/22/2022 1:45:00 PM 19.06 66.308 0.182 6.89 155.19 9.7
5/22/2022 2:00:00 PM 19.16 66.488 0.181 6.89 153.06 9.63
5/22/2022 2:15:00 PM 19.39 66.902 0.182 6.9 156.46 9.75
5/22/2022 2:30:00 PM 19.42 66.956 0.182 6.91 155.82 9.69
5/22/2022 2:45:00 PM 19.71 67.478 0.182 6.91 153.95 9.78
5/22/2022 3:00:00 PM 19.8 67.64 0.182 6.91 153.84 9.82
5/22/2022 3:15:00 PM 19.99 67.982 0.182 6.85 154.96 9.86
5/22/2022 3:30:00 PM 20.16 68.288 0.182 6.91 156.06 9.89
5/22/2022 3:45:00 PM 20.09 68.162 0.182 6.92 155.81 9.8
5/22/2022 4:00:00 PM 20.2 68.36 0.182 6.87 155.42 9.84
5/22/2022 4:15:00 PM 20.21 68.378 0.181 6.92 155.81 9.85
5/22/2022 4:30:00 PM 20.04 68.07201 0.181 6.94 156.95 9.71
5/22/2022 4:45:00 PM 19.84 67.712 0.181 6.9 157.27 9.48
5/22/2022 5:00:00 PM 19.91 67.838 0.18 6.92 157.06 9.16
5/22/2022 5:15:00 PM 19.56 67.208 0.181 6.88 158.45 9
5/22/2022 5:30:00 PM 19.24 66.632 0.185 6.92 157.52 8.99
5/22/2022 5:45:00 PM 19.16 66.488 0.183 6.93 158.08 8.84
5/22/2022 6:00:00 PM 19.1 66.38 0.181 6.9 156.9 8.8
5/22/2022 6:15:00 PM 18.98 66.164 0.18 6.94 157.22 8.8
5/22/2022 6:30:00 PM 18.87 65.966 0.18 6.93 157.49 8.78
5/22/2022 6:45:00 PM 18.78 65.804 0.181 6.92 154.18 8.76
5/22/2022 7:00:00 PM 18.7 65.66 0.182 6.92 154.19 8.8
5/22/2022 7:15:00 PM 18.63 65.534 0.182 6.93 155.83 8.81
5/22/2022 7:30:00 PM 18.53 65.354 0.183 6.93 155.25 8.71
5/22/2022 7:45:00 PM 18.44 65.192 0.183 6.91 153.63 8.6
5/22/2022 8:00:00 PM 18.34 65.012 0.183 6.91 152.45 8.49
5/22/2022 8:15:00 PM 18.24 64.832 0.184 6.91 154.24 8.44
5/22/2022 8:30:00 PM 18.12 64.616 0.184 6.9 154.64 8.39
5/22/2022 8:45:00 PM 17.99 64.382 0.184 6.88 153.67 8.32
5/22/2022 9:00:00 PM 17.86 64.148 0.184 6.92 154.34 8.24
5/22/2022 9:15:00 PM 17.73 63.914 0.184 6.92 153.29 8.22
5/22/2022 9:30:00 PM 17.62 63.716 0.184 6.91 153.72 8.15
5/22/2022 9:45:00 PM 17.52 63.536 0.184 6.91 153.11 8.15
5/22/2022 10:00:00 PM 17.42 63.356 0.185 6.9 151.18 8.11
5/22/2022 10:15:00 PM 17.32 63.176 0.185 6.89 151.26 8.08
5/22/2022 10:30:00 PM 17.21 62.978 0.185 6.92 151.4 8.11
5/22/2022 10:45:00 PM 17.1 62.78 0.185 6.88 150.99 8.11
5/22/2022 11:00:00 PM 17 62.6 0.185 6.91 150.75 8.11
5/22/2022 11:15:00 PM 16.92 62.456 0.185 6.91 150.67 8.09
5/22/2022 11:30:00 PM 16.84 62.312 0.185 6.93 151.43 8.05
5/22/2022 11:45:00 PM 16.78 62.204 0.186 6.93 152.03 8.05
5/23/2022 12:00:00 AM 16.72 62.096 0.186 6.92 151.83 8.07
5/23/2022 12:15:00 AM 16.65 61.97 0.186 6.92 152.91 8.07
5/23/2022 12:30:00 AM 16.58 61.844 0.186 6.92 154.05 8.09
5/23/2022 12:45:00 AM 16.5 61.7 0.186 6.92 152.94 8.1
5/23/2022 1:00:00 AM 16.43 61.574 0.186 6.92 158.38 8.13
5/23/2022 1:15:00 AM 16.33 61.394 0.186 6.86 155.72 8.1
5/23/2022 1:30:00 AM 16.25 61.25 0.186 6.92 152.81 8.1
5/23/2022 1:45:00 AM 16.17 61.106 0.186 6.91 152.93 8.1
5/23/2022 2:00:00 AM 16.1 60.98 0.186 6.91 154.02 8.08
5/23/2022 2:15:00 AM 16.02 60.836 0.186 6.89 153.93 8.1
5/23/2022 2:30:00 AM 15.95 60.71 0.186 6.92 152.81 8.11
5/23/2022 2:45:00 AM 15.89 60.602 0.186 6.92 151.47 8.11
5/23/2022 3:00:00 AM 15.82 60.476 0.186 6.91 150.75 8.15
5/23/2022 3:15:00 AM 15.75 60.35 0.186 6.9 149.38 8.14
5/23/2022 3:30:00 AM 15.66 60.188 0.186 6.92 147.16 8.15
5/23/2022 3:45:00 AM 15.59 60.062 0.186 6.92 148.59 8.16
5/23/2022 4:00:00 AM 15.53 59.954 0.186 6.9 149.35 8.16
5/23/2022 4:15:00 AM 15.46 59.828 0.186 6.92 149.22 8.16
5/23/2022 4:30:00 AM 15.4 59.72 0.187 6.89 146.42 8.19
5/23/2022 4:45:00 AM 15.33 59.594 0.187 6.93 145.82 8.21
5/23/2022 5:00:00 AM 15.27 59.486 0.187 6.92 151.7 8.18
5/23/2022 5:15:00 AM 15.22 59.396 0.187 6.93 152.55 8.18
5/23/2022 5:30:00 AM 15.15 59.27 0.187 6.95 150.32 8.23
5/23/2022 5:45:00 AM 15.09 59.162 0.187 6.93 150.23 8.22
5/23/2022 6:00:00 AM 15.03 59.054 0.187 6.94 151.26 8.29
5/23/2022 6:15:00 AM 15.01 59.018 0.187 6.94 149.9 8.28
5/23/2022 6:30:00 AM 14.96 58.928 0.187 6.95 152.59 8.27
5/23/2022 6:45:00 AM 14.91 58.838 0.187 6.94 150.87 8.35
5/23/2022 7:00:00 AM 14.89 58.802 0.187 6.94 151.41 8.5
5/23/2022 7:15:00 AM 14.88 58.784 0.187 6.94 148.33 8.65
5/23/2022 7:30:00 AM 14.87 58.766 0.187 6.97 148.39 8.73
5/23/2022 7:45:00 AM 14.86 58.748 0.187 6.96 146.52 8.82
5/23/2022 8:00:00 AM 14.84 58.712 0.187 6.97 142.79 8.95
5/23/2022 8:15:00 AM 14.91 58.838 0.187 6.98 143.19 9.08
5/23/2022 8:30:00 AM 15.03 59.054 0.187 6.96 145.08 9.23
5/23/2022 8:45:00 AM 15.21 59.378 0.187 6.96 146.9 9.39
5/23/2022 9:00:00 AM 15.32 59.576 0.187 6.96 145.57 9.53
5/23/2022 9:15:00 AM 15.31 59.558 0.186 6.97 146.95 9.59
5/23/2022 9:30:00 AM 15.49 59.882 0.186 6.98 146.72 9.66
5/23/2022 9:45:00 AM 15.46 59.828 0.186 6.97 147.92 9.68
5/23/2022 10:00:00 AM 15.53 59.954 0.186 6.99 146.3 9.72
5/23/2022 10:15:00 AM 15.62 60.116 0.186 6.98 143.73 9.82
5/23/2022 10:30:00 AM 15.77 60.386 0.186 6.95 145.47 9.88
5/23/2022 10:45:00 AM 15.95 60.71 0.186 6.98 145.49 9.94
5/23/2022 11:00:00 AM 16.08 60.944 0.186 6.97 156.4 10.02
5/23/2022 11:15:00 AM 16.16 61.088 0.186 6.97 166.68 10.04
5/23/2022 11:30:00 AM 16.26 61.268 0.186 6.97 173.99 10.08
5/23/2022 11:45:00 AM 16.44 61.592 0.186 6.97 173.95 10.12
5/23/2022 12:00:00 PM 16.4 61.52 0.186 6.95 171.61 10.12
5/23/2022 12:15:00 PM 16.48 61.664 0.186 6.98 168.91 10.1
5/23/2022 12:30:00 PM 16.52 61.736 0.186 6.97 168.88 10.21
5/23/2022 12:45:00 PM 16.47 61.646 0.186 6.98 162.92 10.19
5/23/2022 1:00:00 PM 16.48 61.664 0.004 7.09 5.63 9.3
5/23/2022 1:15:00 PM 16.71 62.078 0.256 7.3 5.05 10.45
5/23/2022 1:30:00 PM 16.75 62.15 0.237 7.32 8.11 10.49
5/23/2022 1:45:00 PM 16.81 62.258 0.215 7.32 7.47 10.52
5/23/2022 2:00:00 PM 16.85 62.33 0.212 7.32 7.84 10.53
5/23/2022 2:15:00 PM 16.8 62.24 0.258 7.32 8.25 10.52
5/23/2022 2:30:00 PM 16.81 62.258 0.227 7.33 7.51 10.53
5/23/2022 2:45:00 PM 16.78 62.204 0.231 7.33 7.77 10.52
5/23/2022 3:00:00 PM 16.73 62.114 0.23 7.32 7.52 10.5
5/23/2022 3:15:00 PM 16.71 62.078 0.221 7.32 7.8 10.48
5/23/2022 3:30:00 PM 16.65 61.97 0.235 7.31 7.46 10.41
5/23/2022 3:45:00 PM 16.57 61.826 0.242 7.3 7.04 10.33
5/23/2022 4:00:00 PM 16.5 61.7 0.25 7.28 8.48 10.27
5/23/2022 4:15:00 PM 16.44 61.592 0.242 7.27 7.49 10.25
5/23/2022 4:30:00 PM 16.36 61.448 0.251 7.25 8.28 10.21
5/23/2022 4:45:00 PM 16.29 61.322 0.218 7.23 8.02 10.12
5/23/2022 5:00:00 PM 16.23 61.214 0.23 7.21 8.09 10.08
5/23/2022 5:15:00 PM 16.17 61.106 0.233 7.2 7.18 10.04
5/23/2022 5:30:00 PM 16.11 60.998 0.218 7.18 7.55 9.95
5/23/2022 5:45:00 PM 16.04 60.872 0.21 7.17 7.6 9.86
5/23/2022 6:00:00 PM 15.98 60.764 0.233 7.15 7.24 9.77
5/23/2022 6:15:00 PM 15.92 60.656 0.23 7.14 7.42 9.7
5/23/2022 6:30:00 PM 15.87 60.566 0.243 7.12 7.22 9.63
5/23/2022 6:45:00 PM 15.82 60.476 0.201 7.11 7.27 9.55
5/23/2022 7:00:00 PM 15.77 60.386 0.225 7.1 7.28 9.5
5/23/2022 7:15:00 PM 15.73 60.314 0.232 7.09 7.27 9.44
5/23/2022 7:30:00 PM 15.69 60.242 0.233 7.08 7.64 9.37
5/23/2022 7:45:00 PM 15.64 60.152 0.241 7.07 7.41 9.29
5/23/2022 8:00:00 PM 15.59 60.062 0.225 7.06 7.41 9.19
5/23/2022 8:15:00 PM 15.54 59.972 0.243 7.04 7.49 9.09
5/23/2022 8:30:00 PM 15.48 59.864 0.23 7.03 7.21 9.01
5/23/2022 8:45:00 PM 15.43 59.774 0.209 7.02 7.43 8.94
5/23/2022 9:00:00 PM 15.38 59.684 0.243 7.01 7.53 8.87
5/23/2022 9:15:00 PM 15.33 59.594 0.237 7 7.68 8.82
5/23/2022 9:30:00 PM 15.28 59.504 0.248 6.99 7.63 8.79
5/23/2022 9:45:00 PM 15.24 59.432 0.262 6.99 7.42 8.76
5/23/2022 10:00:00 PM 15.2 59.36 0.242 6.99 9.71 8.74
5/23/2022 10:15:00 PM 15.15 59.27 0.237 6.99 7.66 8.73
5/23/2022 10:30:00 PM 15.11 59.198 0.232 6.99 8.11 8.72
5/23/2022 10:45:00 PM 15.07 59.126 0.24 6.98 7.26 8.71
5/23/2022 11:00:00 PM 15.03 59.054 0.216 6.98 8.51 8.7
5/23/2022 11:15:00 PM 14.99 58.982 0.232 6.98 8.01 8.69
5/23/2022 11:30:00 PM 14.95 58.91 0.22 6.98 8.58 8.69
5/23/2022 11:45:00 PM 14.91 58.838 0.225 6.98 7.96 8.69
5/24/2022 12:00:00 AM 14.87 58.766 0.203 6.98 7.78 8.68
5/24/2022 12:15:00 AM 14.82 58.676 0.207 6.97 7.58 8.68
5/24/2022 12:30:00 AM 14.78 58.604 0.219 6.98 7.82 8.68
5/24/2022 12:45:00 AM 14.74 58.532 0.235 6.98 8.35 8.68
5/24/2022 1:00:00 AM 14.71 58.478 0.23 6.98 9.9 8.68
5/24/2022 1:15:00 AM 14.67 58.406 0.258 6.98 8.44 8.67
5/24/2022 1:30:00 AM 14.63 58.334 0.214 6.98 8.34 8.67
5/24/2022 1:45:00 AM 14.58 58.244 0.233 6.98 8.08 8.68
5/24/2022 2:00:00 AM 14.54 58.172 0.24 6.97 8.47 8.67
5/24/2022 2:15:00 AM 14.48 58.064 0.243 6.97 8.13 8.67
5/24/2022 2:30:00 AM 14.42 57.956 0.218 6.97 7.99 8.68
5/24/2022 2:45:00 AM 14.36 57.848 0.258 6.97 8.36 8.68
5/24/2022 3:00:00 AM 14.3 57.74 0.235 6.97 10.01 8.69
5/24/2022 3:15:00 AM 14.24 57.632 0.221 6.97 7.96 8.7
5/24/2022 3:30:00 AM 14.19 57.542 0.228 6.97 9.29 8.7
5/24/2022 3:45:00 AM 14.13 57.434 0.238 6.97 8.56 8.71
5/24/2022 4:00:00 AM 14.08 57.344 0.239 6.98 8.72 8.72
5/24/2022 4:15:00 AM 14.04 57.272 0.216 6.98 8.03 8.72
5/24/2022 4:30:00 AM 13.99 57.182 0.233 6.98 8.25 8.72
5/24/2022 4:45:00 AM 13.95 57.11 0.254 6.98 8.45 8.73
5/24/2022 5:00:00 AM 13.94 57.092 0.253 6.98 8.68 8.74
5/24/2022 5:15:00 AM 13.92 57.056 0.242 6.99 8.47 8.74
5/24/2022 5:30:00 AM 13.91 57.038 0.246 6.99 8.56 8.74
5/24/2022 5:45:00 AM 13.9 57.02 0.247 7 8.56 8.74
5/24/2022 6:00:00 AM 13.89 57.002 0.249 6.99 8.47 8.76
5/24/2022 6:15:00 AM 13.88 56.984 0.274 7 8.38 8.77
5/24/2022 6:30:00 AM 13.87 56.966 0.244 7.01 8.37 8.82
5/24/2022 6:45:00 AM 13.86 56.948 0.221 7.01 8.27 8.87
5/24/2022 7:00:00 AM 13.87 56.966 0.235 7.02 8.02 8.97
5/24/2022 7:15:00 AM 13.88 56.984 0.241 7.04 8.22 9.09
5/24/2022 7:30:00 AM 13.89 57.002 0.233 7.05 8.63 9.21
5/24/2022 7:45:00 AM 13.92 57.056 0.238 7.07 8.62 9.36
5/24/2022 8:00:00 AM 13.96 57.128 0.236 7.09 8.54 9.53
5/24/2022 8:15:00 AM 14.07 57.326 0.248 7.13 7.88 9.73
5/24/2022 8:30:00 AM 14.13 57.434 0.241 7.15 7.95 9.87
5/24/2022 8:45:00 AM 14.19 57.542 0.244 7.17 8.07 9.98
5/24/2022 9:00:00 AM 14.28 57.704 0.258 7.19 7.91 10.1
5/24/2022 9:15:00 AM 14.36 57.848 0.241 7.21 8.26 10.2
5/24/2022 9:30:00 AM 14.44 57.992 0.246 7.23 8.03 10.26
5/24/2022 9:45:00 AM 14.52 58.136 0.231 7.24 8.03 10.33
5/24/2022 10:00:00 AM 14.58 58.244 0.268 7.25 8.09 10.37
5/24/2022 10:15:00 AM 14.59 58.262 0.261 7.26 7.91 10.35
5/24/2022 10:30:00 AM 14.58 58.244 0.234 7.25 8.3 10.3
5/24/2022 10:45:00 AM 14.54 58.172 0.257 7.24 7.65 10.23
5/24/2022 11:00:00 AM 14.5 58.1 0.262 7.22 8.42 10.17
5/24/2022 11:15:00 AM 14.48 58.064 0.226 7.22 7.92 10.16
5/24/2022 11:30:00 AM 14.47 58.046 0.237 7.21 8.3 10.2
5/24/2022 11:45:00 AM 14.48 58.064 0.26 7.22 8.04 10.26
5/24/2022 12:00:00 PM 14.51 58.118 0.25 7.22 7.9 10.33
5/24/2022 12:15:00 PM 14.54 58.172 0.246 7.24 7.86 10.39
5/24/2022 12:30:00 PM 14.58 58.244 0.261 7.25 8.01 10.44
5/24/2022 12:45:00 PM 14.58 58.244 0.245 7.25 7.83 10.41
5/24/2022 1:00:00 PM 14.59 58.262 0.245 7.25 7.96 10.42
5/24/2022 1:15:00 PM 14.61 58.298 0.268 7.26 8.07 10.43
5/24/2022 1:30:00 PM 14.62 58.316 0.25 7.26 7.67 10.44
5/24/2022 1:45:00 PM 14.6 58.28 0.251 7.26 8.17 10.41
5/24/2022 2:00:00 PM 14.62 58.316 0.257 7.26 7.99 10.44
5/24/2022 2:15:00 PM 14.66 58.388 0.24 7.27 8.11 10.49
5/24/2022 2:30:00 PM 14.67 58.406 0.243 7.27 8.13 10.5
5/24/2022 2:45:00 PM 14.73 58.514 0.246 7.28 8.03 10.54
5/24/2022 3:00:00 PM 14.8 58.64 0.245 7.3 8.35 10.61
5/24/2022 3:15:00 PM 14.86 58.748 0.234 7.31 8.28 10.64
5/24/2022 3:30:00 PM 14.9 58.82 0.23 7.32 8.16 10.61
5/24/2022 3:45:00 PM 14.98 58.964 0.241 7.33 8.41 10.66
5/24/2022 4:00:00 PM 14.97 58.946 0.231 7.33 8.06 10.64
5/24/2022 4:15:00 PM 14.99 58.982 0.238 7.33 8.22 10.61
5/24/2022 4:30:00 PM 14.98 58.964 0.226 7.33 8 10.55
5/24/2022 4:45:00 PM 14.95 58.91 0.232 7.32 7.95 10.52
5/24/2022 5:00:00 PM 14.92 58.856 0.213 7.31 10.93 10.47
5/24/2022 5:15:00 PM 14.92 58.856 0.206 7.31 8.89 10.5
5/24/2022 5:30:00 PM 14.88 58.784 0.192 7.3 8.88 10.47
5/24/2022 5:45:00 PM 14.85 58.73 0.195 7.29 8.22 10.39
5/24/2022 6:00:00 PM 14.81 58.658 0.19 7.27 8.25 10.28
5/24/2022 6:15:00 PM 14.76 58.568 0.21 7.25 8.16 10.18
5/24/2022 6:30:00 PM 14.69 58.442 0.203 7.22 8.19 10.05
5/24/2022 6:45:00 PM 14.64 58.352 0.209 7.2 8.62 9.92
5/24/2022 7:00:00 PM 14.57 58.226 0.224 7.17 8.44 9.79
5/24/2022 7:15:00 PM 14.52 58.136 0.198 7.15 7.8 9.66
5/24/2022 7:30:00 PM 14.46 58.028 0.196 7.13 7.89 9.55
5/24/2022 7:45:00 PM 14.41 57.938 0.19 7.11 8.18 9.45
5/24/2022 8:00:00 PM 14.37 57.866 0.21 7.09 7.92 9.35
5/24/2022 8:15:00 PM 14.33 57.794 0.198 7.08 8.09 9.27
5/24/2022 8:30:00 PM 14.29 57.722 0.187 7.07 8.2 9.21
5/24/2022 8:45:00 PM 14.26 57.668 0.202 7.06 8.06 9.15
5/24/2022 9:00:00 PM 14.23 57.614 0.192 7.06 8.18 9.11
5/24/2022 9:15:00 PM 14.2 57.56 0.151 7.05 8.16 9.08
5/24/2022 9:30:00 PM 14.17 57.506 0.167 7.04 8.7 9.05
5/24/2022 9:45:00 PM 14.15 57.47 0.154 7.04 9.12 9.02
5/24/2022 10:00:00 PM 14.12 57.416 0.16 7.04 8.33 9.02
5/24/2022 10:15:00 PM 14.1 57.38 0.168 7.04 8.61 8.99
5/24/2022 10:30:00 PM 14.07 57.326 0.169 7.03 9.02 8.98
5/24/2022 10:45:00 PM 14.05 57.29 0.154 7.03 9.16 8.97
5/24/2022 11:00:00 PM 14.02 57.236 0.151 7.03 8.8 8.96
5/24/2022 11:15:00 PM 13.98 57.164 0.142 7.03 8.83 8.94
5/24/2022 11:30:00 PM 13.96 57.128 0.155 7.02 8.87 8.93
5/24/2022 11:45:00 PM 13.94 57.092 0.163 7.03 8.85 8.93
5/25/2022 12:00:00 AM 13.91 57.038 0.155 7.02 9.07 8.92
5/25/2022 12:15:00 AM 13.89 57.002 0.171 7.02 9.13 8.9
5/25/2022 12:30:00 AM 13.86 56.948 0.145 7.01 8.91 8.89
5/25/2022 12:45:00 AM 13.84 56.912 0.149 7.01 9.03 8.89
5/25/2022 1:00:00 AM 13.8 56.84 0.164 7.01 9.46 8.89
5/25/2022 1:15:00 AM 13.77 56.786 0.146 7.01 9.67 8.89
5/25/2022 1:30:00 AM 13.73 56.714 0.143 7.01 9.34 8.9
5/25/2022 1:45:00 AM 13.69 56.642 0.152 7.01 9.47 8.9
5/25/2022 2:00:00 AM 13.65 56.57 0.144 7.01 9.57 8.9
5/25/2022 2:15:00 AM 13.6 56.48 0.136 7.01 9.35 8.91
5/25/2022 2:30:00 AM 13.56 56.408 0.121 7.01 8.98 8.9
5/25/2022 2:45:00 AM 13.52 56.336 0.124 7.01 9.77 8.91
5/25/2022 3:00:00 AM 13.48 56.264 0.126 7.01 9.37 8.91
5/25/2022 3:15:00 AM 13.44 56.192 0.118 7.01 9.49 8.92
5/25/2022 3:30:00 AM 13.39 56.102 0.135 7.01 9.05 8.93
5/25/2022 3:45:00 AM 13.35 56.03 0.133 7.01 9.16 8.93
5/25/2022 4:00:00 AM 13.31 55.958 0.122 7.01 9.78 8.93
5/25/2022 4:15:00 AM 13.27 55.886 0.131 7.01 10.17 8.94
5/25/2022 4:30:00 AM 13.23 55.814 0.121 7.01 8.32 8.95
5/25/2022 4:45:00 AM 13.18 55.724 0.127 7.01 9.35 8.96
5/25/2022 5:00:00 AM 13.14 55.652 0.129 7.01 9.56 8.96
5/25/2022 5:15:00 AM 13.1 55.58 0.123 7.01 9.02 8.97
5/25/2022 5:30:00 AM 13.05 55.49 0.118 7.01 9.83 8.97
5/25/2022 5:45:00 AM 13.01 55.418 0.122 7.01 9.19 8.99
5/25/2022 6:00:00 AM 12.97 55.346 0.124 7.02 9.3 9.01
5/25/2022 6:15:00 AM 12.95 55.31 0.118 7.02 9.22 9.07
5/25/2022 6:30:00 AM 12.93 55.274 0.118 7.03 9.11 9.17
5/25/2022 6:45:00 AM 12.93 55.274 0.116 7.05 8.94 9.3
5/25/2022 7:00:00 AM 12.94 55.292 0.117 7.07 8.84 9.44
5/25/2022 7:15:00 AM 12.94 55.292 0.112 7.09 9.12 9.56
5/25/2022 7:30:00 AM 12.96 55.328 0.116 7.1 9.47 9.69
5/25/2022 7:45:00 AM 13.03 55.454 0.118 7.13 9.65 9.84
5/25/2022 8:00:00 AM 13.09 55.562 0.118 7.15 9.45 9.97
5/25/2022 8:15:00 AM 13.17 55.706 0.121 7.18 9.01 10.09
5/25/2022 8:30:00 AM 13.22 55.796 0.107 7.19 9 10.17
5/25/2022 8:45:00 AM 13.34 56.012 0.116 7.21 9.3 10.27
5/25/2022 9:00:00 AM 13.45 56.21 0.123 7.24 9.66 10.37
5/25/2022 9:15:00 AM 13.58 56.444 0.118 7.26 10.25 10.45
5/25/2022 9:30:00 AM 13.71 56.678 0.119 7.27 9.79 10.52
5/25/2022 9:45:00 AM 13.91 57.038 0.118 7.3 9.53 10.6
5/25/2022 10:00:00 AM 14.05 57.29 0.13 7.31 9.95 10.68
5/25/2022 10:15:00 AM 14.24 57.632 0.114 7.33 9.76 10.74
5/25/2022 10:30:00 AM 14.44 57.992 0.122 7.35 9.56 10.81
5/25/2022 10:45:00 AM 14.58 58.244 0.119 7.37 9.59 10.86
5/25/2022 11:00:00 AM 14.78 58.604 0.12 7.39 9.48 10.91
5/25/2022 11:15:00 AM 14.96 58.928 0.119 7.41 9.99 10.96
5/25/2022 11:30:00 AM 15.14 59.252 0.122 7.43 9.31 10.99
5/25/2022 11:45:00 AM 15.36 59.648 0.121 7.45 9.36 11.03
5/25/2022 12:00:00 PM 15.54 59.972 0.122 7.46 9.68 11.05
5/25/2022 12:15:00 PM 15.76 60.368 0.126 7.48 9.64 11.09
5/25/2022 12:30:00 PM 15.93 60.674 0.123 7.5 10.26 11.1
5/25/2022 12:45:00 PM 16.12 61.016 0.095 7.51 9.68 11.11
5/25/2022 1:00:00 PM 16.29 61.322 0.121 7.53 9.17 11.12
5/25/2022 1:15:00 PM 16.38 61.484 0.118 7.54 9.98 11.11
5/25/2022 1:30:00 PM 16.45 61.61 0.118 7.55 9.42 11.11
5/25/2022 1:45:00 PM 16.56 61.808 0.121 7.56 9.09 11.12
5/25/2022 2:00:00 PM 16.77 62.186 0.123 7.57 9.24 11.13
5/25/2022 2:15:00 PM 16.78 62.204 0.123 7.58 9.68 11.09
5/25/2022 2:30:00 PM 16.88 62.384 0.122 7.58 10.27 11.07
5/25/2022 2:45:00 PM 17.14 62.852 0.123 7.59 9.73 11.09
5/25/2022 3:00:00 PM 17.19 62.942 0.117 7.6 9.65 11.09
5/25/2022 3:15:00 PM 17.3 63.14 0.125 7.6 9.86 11.09
5/25/2022 3:30:00 PM 17.25 63.05 0.125 7.6 9.81 11.02
5/25/2022 3:45:00 PM 17.22 62.996 0.123 7.6 9.61 10.99
5/25/2022 4:00:00 PM 17.11 62.798 0.117 7.59 9.32 10.94
5/25/2022 4:15:00 PM 17.02 62.636 0.117 7.58 9.53 10.91
5/25/2022 4:30:00 PM 16.97 62.546 0.117 7.57 10.01 10.87
5/25/2022 4:45:00 PM 16.93 62.474 0.117 7.56 9.23 10.84
5/25/2022 5:00:00 PM 17.01 62.618 0.117 7.55 9.5 10.83
5/25/2022 5:15:00 PM 16.95 62.51 0.118 7.54 9.42 10.76
5/25/2022 5:30:00 PM 16.92 62.456 0.118 7.53 9.42 10.75
5/25/2022 5:45:00 PM 16.78 62.204 0.115 7.51 10.33 10.68
5/25/2022 6:00:00 PM 16.7 62.06 0.112 7.48 9.47 10.61
5/25/2022 6:15:00 PM 16.55 61.79 0.119 7.45 10.46 10.45
5/25/2022 6:30:00 PM 16.41 61.538 0.108 7.42 9.13 10.3
5/25/2022 6:45:00 PM 16.26 61.268 0.117 7.38 10.33 10.09
5/25/2022 7:00:00 PM 16.16 61.088 0.117 7.35 8.74 9.9
5/25/2022 7:15:00 PM 16.04 60.872 0.096 7.32 11.07 9.77
5/25/2022 7:30:00 PM 15.92 60.656 0.114 7.28 10.11 9.64
5/25/2022 7:45:00 PM 15.84 60.512 0.114 7.24 10.44 9.5
5/25/2022 8:00:00 PM 15.74 60.332 0.11 7.21 9.64 9.38
5/25/2022 8:15:00 PM 15.66 60.188 0.115 7.18 11.13 9.25
5/25/2022 8:30:00 PM 15.57 60.026 0.114 7.16 11.08 9.16
5/25/2022 8:45:00 PM 15.5 59.9 0.091 7.13 11.68 9.07
5/25/2022 9:00:00 PM 15.42 59.756 0.107 7.09 9.94 9
5/25/2022 9:15:00 PM 15.36 59.648 0.109 7.07 10.06 8.95
5/25/2022 9:30:00 PM 15.3 59.54 0.113 7.05 9.97 8.9
5/25/2022 9:45:00 PM 15.25 59.45 0.107 7.04 9.78 8.86
5/25/2022 10:00:00 PM 15.17 59.306 0.104 7.03 10.44 8.83
5/25/2022 10:15:00 PM 15.1 59.18 0.106 7.03 10.35 8.81
5/25/2022 10:30:00 PM 15.04 59.072 0.108 7.02 10.14 8.79
5/25/2022 10:45:00 PM 15 59 0.105 7.01 9.52 8.76
5/25/2022 11:00:00 PM 14.96 58.928 0.11 7 10.55 8.74
5/25/2022 11:15:00 PM 14.92 58.856 0.101 7 9.34 8.72
5/25/2022 11:30:00 PM 14.89 58.802 0.107 7 9.92 8.71
5/25/2022 11:45:00 PM 14.85 58.73 0.107 7 9.54 8.68
5/26/2022 12:00:00 AM 14.82 58.676 0.105 7 10.95 8.67
5/26/2022 12:15:00 AM 14.79 58.622 0.106 7.01 10.78 8.67
5/26/2022 12:30:00 AM 14.76 58.568 0.104 7.01 10.15 8.67
5/26/2022 12:45:00 AM 14.73 58.514 0.104 7.01 13.33 8.66
5/26/2022 1:00:00 AM 14.7 58.46 0.107 7.01 10.35 8.65
5/26/2022 1:15:00 AM 14.67 58.406 0.104 7.01 10.33 8.64
5/26/2022 1:30:00 AM 14.64 58.352 0.106 7.01 8.22 8.64
5/26/2022 1:45:00 AM 14.62 58.316 0.103 7.01 10.1 8.64
5/26/2022 2:00:00 AM 14.59 58.262 0.105 7.01 10.18 8.63
5/26/2022 2:15:00 AM 14.56 58.208 0.108 7.02 10.18 8.63
5/26/2022 2:30:00 AM 14.53 58.154 0.104 7.01 10.51 8.63
5/26/2022 2:45:00 AM 14.5 58.1 0.108 7.02 9.53 8.63
5/26/2022 3:00:00 AM 14.46 58.028 0.107 7.01 10.37 8.63
5/26/2022 3:15:00 AM 14.44 57.992 0.107 7.02 10.05 8.62
5/26/2022 3:30:00 AM 14.4 57.92 0.108 7.01 8.6 8.62
5/26/2022 3:45:00 AM 14.38 57.884 0.105 7.01 10.75 8.62
5/26/2022 4:00:00 AM 14.34 57.812 0.111 7.01 120.71 8.62
5/26/2022 4:15:00 AM 14.31 57.758 0.108 7.02 11.33 8.62
5/26/2022 4:30:00 AM 14.27 57.686 0.11 7.01 10.87 8.62
5/26/2022 4:45:00 AM 14.23 57.614 0.11 7.02 8.56 8.62
5/26/2022 5:00:00 AM 14.21 57.578 0.109 7.01 10.61 8.63
5/26/2022 5:15:00 AM 14.2 57.56 0.112 7.01 8.36 8.62
5/26/2022 5:30:00 AM 14.16 57.488 0.114 7.01 11 8.62
5/26/2022 5:45:00 AM 14.13 57.434 0.096 7.02 10.6 8.63
5/26/2022 6:00:00 AM 14.09 57.362 0.11 7.01 10.49 8.65
5/26/2022 6:15:00 AM 14.07 57.326 0.107 7.02 10.33 8.68
5/26/2022 6:30:00 AM 14.04 57.272 0.113 7.02 10.69 8.74
5/26/2022 6:45:00 AM 14.03 57.254 0.109 7.04 10.37 8.83
5/26/2022 7:00:00 AM 14.03 57.254 0.112 7.05 10.1 8.95
5/26/2022 7:15:00 AM 14.05 57.29 0.097 7.06 10.32 9.09
5/26/2022 7:30:00 AM 14.09 57.362 0.113 7.08 7.97 9.24
5/26/2022 7:45:00 AM 14.14 57.452 0.112 7.1 10.17 9.37
5/26/2022 8:00:00 AM 14.21 57.578 0.104 7.12 10.54 9.51
5/26/2022 8:15:00 AM 14.31 57.758 0.109 7.15 10.65 9.65
5/26/2022 8:30:00 AM 14.42 57.956 0.111 7.17 10.18 9.77
5/26/2022 8:45:00 AM 14.57 58.226 0.107 7.2 10.33 9.89
5/26/2022 9:00:00 AM 14.74 58.532 0.093 7.22 10.19 10
5/26/2022 9:15:00 AM 14.92 58.856 0.113 7.24 11.04 10.1
5/26/2022 9:30:00 AM 15.14 59.252 0.113 7.27 10.15 10.18
5/26/2022 9:45:00 AM 15.22 59.396 0.112 7.29 10.52 10.23
5/26/2022 10:00:00 AM 15.5 59.9 0.102 7.31 9.92 10.32
5/26/2022 10:15:00 AM 15.75 60.35 0.111 7.33 10.59 10.41
5/26/2022 10:30:00 AM 15.99 60.782 0.104 7.35 10.89 10.48
5/26/2022 10:45:00 AM 16.26 61.268 0.113 7.37 10.25 10.54
5/26/2022 11:00:00 AM 16.55 61.79 0.115 7.4 10.22 10.59
5/26/2022 11:15:00 AM 16.81 62.258 0.111 7.42 10.56 10.62
5/26/2022 11:30:00 AM 17.1 62.78 0.112 7.44 10.05 10.67
5/26/2022 11:45:00 AM 17.36 63.248 0.113 7.46 10.34 10.68
5/26/2022 12:00:00 PM 17.63 63.734 0.116 7.47 10.12 10.7
5/26/2022 12:15:00 PM 17.88 64.184 0.116 7.5 10.67 10.72
5/26/2022 12:30:00 PM 17.96 64.328 0.118 7.51 10.26 10.69
5/26/2022 12:45:00 PM 18.17 64.706 0.121 7.52 10.24 10.7
5/26/2022 1:00:00 PM 18.06 64.508 0.121 7.52 10.2 10.62
5/26/2022 1:15:00 PM 18.13 64.634 0.118 7.53 11.1 10.65
5/26/2022 1:30:00 PM 18.13 64.634 0.118 7.53 10.55 10.64
5/26/2022 1:45:00 PM 18.47 65.246 0.115 7.55 11.28 10.71
5/26/2022 2:00:00 PM 18.48 65.264 0.115 7.56 9.28 10.68
5/26/2022 2:15:00 PM 18.63 65.534 0.118 7.57 10.88 10.7
5/26/2022 2:30:00 PM 18.74 65.732 0.114 7.57 10.74 10.66
5/26/2022 2:45:00 PM 18.87 65.966 0.113 7.58 11.03 10.68
5/26/2022 3:00:00 PM 19.1 66.38 0.116 7.59 10.75 10.69
5/26/2022 3:15:00 PM 19.05 66.29 0.115 7.59 10.01 10.62
5/26/2022 3:30:00 PM 19.24 66.632 0.115 7.59 10.09 10.63
5/26/2022 3:45:00 PM 19.26 66.668 0.114 7.6 11.03 10.61
5/26/2022 4:00:00 PM 19.38 66.884 0.116 7.6 9.57 10.61
5/26/2022 4:15:00 PM 19.39 66.902 0.113 7.6 10.95 10.58
5/26/2022 4:30:00 PM 19.46 67.028 0.112 7.6 10.26 10.54
5/26/2022 4:45:00 PM 19.38 66.884 0.113 7.58 10.27 10.43
5/26/2022 5:00:00 PM 19.25 66.65 0.112 7.55 10.66 10.27
5/26/2022 5:15:00 PM 19.14 66.452 0.108 7.53 10.71 10.2
5/26/2022 5:30:00 PM 19.21 66.578 0.114 7.53 10.13 10.26
5/26/2022 5:45:00 PM 19.2 66.56 0.105 7.53 10.28 10.25
5/26/2022 6:00:00 PM 19.15 66.47 0.113 7.51 7.7 10.2
5/26/2022 6:15:00 PM 19.01 66.218 0.11 7.49 10.82 10.07
5/26/2022 6:30:00 PM 18.78 65.804 0.106 7.45 10.77 9.82
5/26/2022 6:45:00 PM 18.57 65.426 0.103 7.41 10.52 9.67
5/26/2022 7:00:00 PM 18.38 65.084 0.102 7.38 10.17 9.55
5/26/2022 7:15:00 PM 18.22 64.796 0.106 7.34 10.88 9.4
5/26/2022 7:30:00 PM 18.08 64.544 0.102 7.3 11.03 9.24
5/26/2022 7:45:00 PM 17.93 64.274 0.104 7.26 10.71 9.13
5/26/2022 8:00:00 PM 17.79 64.022 0.1 7.23 10.63 9
5/26/2022 8:15:00 PM 17.67 63.806 0.098 7.27 10.24 8.86
5/26/2022 8:30:00 PM 17.56 63.608 0.095 7.16 10.52 8.74
5/26/2022 8:45:00 PM 17.46 63.428 0.098 7.13 10.22 8.64
5/26/2022 9:00:00 PM 17.37 63.266 0.091 7.09 11.16 8.55
5/26/2022 9:15:00 PM 17.28 63.104 0.095 7.06 11.15 8.48
5/26/2022 9:30:00 PM 17.21 62.978 0.094 7.04 8.05 8.42
5/26/2022 9:45:00 PM 17.14 62.852 0.1 7.03 9.49 8.37
5/26/2022 10:00:00 PM 17.08 62.744 0.099 7.02 11.12 8.33
5/26/2022 10:15:00 PM 17.03 62.654 0.096 7.02 11.28 8.3
5/26/2022 10:30:00 PM 16.98 62.564 0.098 7.01 10.86 8.27
5/26/2022 10:45:00 PM 16.93 62.474 0.097 7.01 8.91 8.25
5/26/2022 11:00:00 PM 16.88 62.384 0.103 7 11.3 8.23
5/26/2022 11:15:00 PM 16.83 62.294 0.096 7 8.98 8.21
5/26/2022 11:30:00 PM 16.78 62.204 0.096 7 11.46 8.2
5/26/2022 11:45:00 PM 16.73 62.114 0.096 7 13.72 8.19
5/27/2022 12:00:00 AM 16.69 62.042 0.1 7 12.14 8.18
5/27/2022 12:15:00 AM 16.65 61.97 0.098 7 9.81 8.17
5/27/2022 12:30:00 AM 16.61 61.898 0.091 7 9.31 8.15
5/27/2022 12:45:00 AM 16.58 61.844 0.096 7 11.25 8.15
5/27/2022 1:00:00 AM 16.56 61.808 0.093 7 26.62 8.14
5/27/2022 1:15:00 AM 16.52 61.736 0.101 7.01 20.55 8.13
5/27/2022 1:30:00 AM 16.49 61.682 0.102 7.01 15.26 8.12
5/27/2022 1:45:00 AM 16.46 61.628 0.1 7.01 10.5 8.12
5/27/2022 2:00:00 AM 16.44 61.592 0.1 7.01 11.49 8.11
5/27/2022 2:15:00 AM 16.41 61.538 0.099 7.01 11.13 8.11
5/27/2022 2:30:00 AM 16.39 61.502 0.098 7.01 10.19 8.1
5/27/2022 2:45:00 AM 16.37 61.466 0.092 7.01 11.28 8.1
5/27/2022 3:00:00 AM 16.35 61.43 0.097 7.02 9.53 8.1
5/27/2022 3:15:00 AM 16.33 61.394 0.099 7.01 12.38 8.09
5/27/2022 3:30:00 AM 16.31 61.358 0.097 7.01 10.24 8.09
5/27/2022 3:45:00 AM 16.3 61.34 0.098 7.01 12.12 8.08
5/27/2022 4:00:00 AM 16.28 61.304 0.097 7.01 11.85 8.08
5/27/2022 4:15:00 AM 16.26 61.268 0.096 7.01 11.3 8.07
5/27/2022 4:30:00 AM 16.25 61.25 0.098 7.01 13.73 8.06
5/27/2022 4:45:00 AM 16.23 61.214 0.098 7.03 15.66 8.05
5/27/2022 5:00:00 AM 16.22 61.196 0.098 7.03 11.23 8.04
5/27/2022 5:15:00 AM 16.2 61.16 0.094 7.03 13.59 8.04
5/27/2022 5:30:00 AM 16.17 61.106 0.098 7.02 12.05 8.02
5/27/2022 5:45:00 AM 16.15 61.07 0.097 7.01 14.72 8
5/27/2022 6:00:00 AM 16.14 61.052 0.099 7.01 12.63 7.99
5/27/2022 6:15:00 AM 16.13 61.034 0.096 7.01 13.03 7.99
5/27/2022 6:30:00 AM 16.13 61.034 0.099 7.02 13.12 8.02
5/27/2022 6:45:00 AM 16.13 61.034 0.096 7.02 10.85 8.06
5/27/2022 7:00:00 AM 16.12 61.016 0.093 7.03 11.29 8.09
5/27/2022 7:15:00 AM 16.12 61.016 0.098 7.03 10.33 8.16
5/27/2022 7:30:00 AM 16.13 61.034 0.099 7.04 11.29 8.22
5/27/2022 7:45:00 AM 16.15 61.07 0.093 7.05 11.22 8.28
5/27/2022 8:00:00 AM 16.18 61.124 0.096 7.06 11.03 8.42
5/27/2022 8:15:00 AM 16.21 61.178 0.096 7.08 12.66 8.54
5/27/2022 8:30:00 AM 16.24 61.232 0.098 7.09 10.34 8.61
5/27/2022 8:45:00 AM 16.26 61.268 0.099 7.09 10.79 8.67
5/27/2022 9:00:00 AM 16.29 61.322 0.1 7.1 12.01 8.74
5/27/2022 9:15:00 AM 16.33 61.394 0.075 7.11 12.12 8.79
5/27/2022 9:30:00 AM 16.35 61.43 0.1 7.11 11.93 8.72
5/27/2022 9:45:00 AM 16.37 61.466 0.098 7.13 14.8 8.72
5/27/2022 10:00:00 AM 16.82 62.276 0.093 7.22 46.16 8.65
5/27/2022 10:15:00 AM 16.43 61.574 0.097 7.2 22.51 8.89
5/27/2022 10:30:00 AM 16.49 61.682 0.098 7.18 28.06 8.83
5/27/2022 10:45:00 AM 16.69 62.042 0.097 7.19 85.87 8.83
5/27/2022 11:00:00 AM 16.79 62.222 0.096 7.2 40.8 8.89
5/27/2022 11:15:00 AM 16.93 62.474 0.095 7.21 33.02 9.02
5/27/2022 11:30:00 AM 17.11 62.798 0.097 7.23 27.99 9.2
5/27/2022 11:45:00 AM 17.2 62.96 0.1 7.25 24.86 9.32
5/27/2022 12:00:00 PM 17.27 63.086 0.1 7.26 17.42 9.42
5/27/2022 12:15:00 PM 17.37 63.266 0.102 7.29 17.54 9.53
5/27/2022 12:30:00 PM 17.36 63.248 0.106 7.31 17.77 9.58
5/27/2022 12:45:00 PM 17.38 63.284 0.119 7.33 18.43 9.66
5/27/2022 1:00:00 PM 17.48 63.464 0.105 7.34 20.14 9.7
5/27/2022 1:15:00 PM 17.62 63.716 0.103 7.34 211.03 9.78
5/27/2022 1:30:00 PM 17.62 63.716 0.104 7.35 18.04 9.76
5/27/2022 1:45:00 PM 17.41 63.338 0.106 7.4 20.04 9.84
5/27/2022 2:00:00 PM 17.45 63.41 0.106 7.39 25.11 9.8
5/27/2022 2:15:00 PM 17.49 63.482 0.103 7.37 22.78 9.7
5/27/2022 2:30:00 PM 17.62 63.716 0.106 7.37 23.48 9.71
5/27/2022 2:45:00 PM 17.69 63.842 0.103 7.38 19.71 9.68
5/27/2022 3:00:00 PM 17.74 63.932 0.099 7.38 20.82 9.66
5/27/2022 3:15:00 PM 17.84 64.112 0.1 7.39 22.13 9.68
5/27/2022 3:30:00 PM 17.94 64.292 0.088 7.4 22.67 9.69
5/27/2022 3:45:00 PM 17.99 64.382 0.098 7.4 24.21 9.64
5/27/2022 4:00:00 PM 18.06 64.508 0.1 7.41 23.98 9.63
5/27/2022 4:15:00 PM 18.17 64.706 0.099 7.41 22.18 9.63
5/27/2022 4:30:00 PM 18.25 64.85 0.097 7.41 25.64 9.59
5/27/2022 4:45:00 PM 18.37 65.066 0.104 7.41 24.54 9.61
5/27/2022 5:00:00 PM 18.56 65.408 0.103 7.43 23.17 9.65
5/27/2022 5:15:00 PM 18.6 65.48 0.101 7.45 24.83 9.61
5/27/2022 5:30:00 PM 18.65 65.57 0.105 7.45 24.74 9.56
5/27/2022 5:45:00 PM 18.65 65.57 0.102 7.44 20.24 9.49
5/27/2022 6:00:00 PM 18.56 65.408 0.097 7.43 21.15 9.38
5/27/2022 6:15:00 PM 18.48 65.264 0.094 7.42 21.63 9.29
5/27/2022 6:30:00 PM 18.38 65.084 0.089 7.42 22.6 9.22
5/27/2022 6:45:00 PM 18.3 64.94 0.091 7.41 20.75 9.16
5/27/2022 7:00:00 PM 18.19 64.742 0.093 7.39 22.16 9.08
5/27/2022 7:15:00 PM 18.1 64.58 0.092 7.37 22.23 8.99
5/27/2022 7:30:00 PM 18.01 64.418 0.089 7.35 24.97 8.89
5/27/2022 7:45:00 PM 17.92 64.256 0.094 7.33 21.52 8.76
5/27/2022 8:00:00 PM 17.81 64.058 0.09 7.3 23.04 8.64
5/27/2022 8:15:00 PM 17.71 63.878 0.088 7.28 35.15 8.54
5/27/2022 8:30:00 PM 17.62 63.716 0.088 7.25 26.06 8.44
5/27/2022 8:45:00 PM 17.54 63.572 0.083 7.23 31.58 8.36
5/27/2022 9:00:00 PM 17.48 63.464 0.088 7.2 29.82 8.29
5/27/2022 9:15:00 PM 17.41 63.338 0.09 7.18 33.19 8.23
5/27/2022 9:30:00 PM 17.35 63.23 0.089 7.16 34 8.19
5/27/2022 9:45:00 PM 17.28 63.104 0.089 7.15 38.02 8.16
5/27/2022 10:00:00 PM 17.22 62.996 0.087 7.13 30.39 8.14
5/27/2022 10:15:00 PM 17.17 62.906 0.088 7.13 25.12 8.14
5/27/2022 10:30:00 PM 17.13 62.834 0.084 7.13 27.11 8.14
5/27/2022 10:45:00 PM 17.1 62.78 0.084 7.13 29.92 8.14
5/27/2022 11:00:00 PM 17.06 62.708 0.083 7.12 34.24 8.12
5/27/2022 11:15:00 PM 17.01 62.618 0.081 7.12 30.03 8.12
5/27/2022 11:30:00 PM 16.98 62.564 0.08 7.11 27.18 8.11
5/27/2022 11:45:00 PM 16.96 62.528 0.08 7.1 24.95 8.09
5/28/2022 12:00:00 AM 16.94 62.492 0.083 7.1 31.33 8.07
5/28/2022 12:15:00 AM 16.9 62.42 0.084 7.1 27.3 8.07
5/28/2022 12:30:00 AM 16.85 62.33 0.083 7.1 32.23 8.07
5/28/2022 12:45:00 AM 16.79 62.222 0.083 7.1 28.04 8.06
5/28/2022 1:00:00 AM 16.74 62.132 0.082 7.09 27.09 8.07
5/28/2022 1:15:00 AM 16.69 62.042 0.084 7.09 29.79 8.07
5/28/2022 1:30:00 AM 16.65 61.97 0.083 7.09 24.03 8.06
5/28/2022 1:45:00 AM 16.63 61.934 0.084 7.09 29.67 8.06
5/28/2022 2:00:00 AM 16.6 61.88 0.084 7.09 31.35 8.05
5/28/2022 2:15:00 AM 16.58 61.844 0.086 7.1 29.85 8.07
5/28/2022 2:30:00 AM 16.55 61.79 0.084 7.1 31.1 8.05
5/28/2022 2:45:00 AM 16.52 61.736 0.082 7.1 39.55 8.04
5/28/2022 3:00:00 AM 16.49 61.682 0.083 7.1 32.83 8.05
5/28/2022 3:15:00 AM 16.47 61.646 0.081 7.11 31.85 8.05
5/28/2022 3:30:00 AM 16.44 61.592 0.08 7.11 34.52 8.04
5/28/2022 3:45:00 AM 16.41 61.538 0.079 7.11 41.53 8.04
5/28/2022 4:00:00 AM 16.39 61.502 0.084 7.11 35.54 8.03
5/28/2022 4:15:00 AM 16.35 61.43 0.081 7.1 31.53 8.02
5/28/2022 4:30:00 AM 16.32 61.376 0.077 7.1 33.82 8.03
5/28/2022 4:45:00 AM 16.29 61.322 0.08 7.1 31.46 8.04
5/28/2022 5:00:00 AM 16.24 61.232 0.081 7.1 36.78 8.04
5/28/2022 5:15:00 AM 16.21 61.178 0.086 7.09 38.13 8.04
5/28/2022 5:30:00 AM 16.17 61.106 0.085 7.09 33.16 8.03
5/28/2022 5:45:00 AM 16.12 61.016 0.087 7.09 29.65 8.04
5/28/2022 6:00:00 AM 16.07 60.926 0.081 7.09 33.54 8.04
5/28/2022 6:15:00 AM 16.04 60.872 0.081 7.09 32.41 8.06
5/28/2022 6:30:00 AM 16.01 60.818 0.084 7.08 33 8.07
5/28/2022 6:45:00 AM 15.99 60.782 0.084 7.09 30.43 8.07
5/28/2022 7:00:00 AM 15.97 60.746 0.082 7.08 32.25 8.1
5/28/2022 7:15:00 AM 15.95 60.71 0.084 7.09 26.36 8.14
5/28/2022 7:30:00 AM 15.93 60.674 0.086 7.09 31.09 8.15
5/28/2022 7:45:00 AM 15.91 60.638 0.091 7.1 31.64 8.18
5/28/2022 8:00:00 AM 15.91 60.638 0.09 7.1 31.32 8.26
5/28/2022 8:15:00 AM 15.96 60.728 0.089 7.12 30.83 8.38
5/28/2022 8:30:00 AM 15.96 60.728 0.091 7.13 32.9 8.42
5/28/2022 8:45:00 AM 15.94 60.692 0.089 7.13 29.37 8.43
5/28/2022 9:00:00 AM 15.94 60.692 0.089 7.14 30.52 8.46
5/28/2022 9:15:00 AM 15.96 60.728 0.089 7.15 26.48 8.54
5/28/2022 9:30:00 AM 16 60.8 0.084 7.16 27.59 8.64
5/28/2022 9:45:00 AM 16.05 60.89 0.088 7.18 29.93 8.74
5/28/2022 10:00:00 AM 16.07 60.926 0.09 7.19 27.91 8.76
5/28/2022 10:15:00 AM 16.1 60.98 0.09 7.2 35.62 8.84
5/28/2022 10:30:00 AM 16.14 61.052 0.088 7.21 29.77 8.95
5/28/2022 10:45:00 AM 16.15 61.07 0.089 7.22 31.35 8.94
5/28/2022 11:00:00 AM 16.2 61.16 0.089 7.23 35.56 9.02
5/28/2022 11:15:00 AM 16.26 61.268 0.086 7.25 74.53 9.11
5/28/2022 11:30:00 AM 16.29 61.322 0.087 7.26 33.6 9.14
5/28/2022 11:45:00 AM 16.25 61.25 0.085 7.26 36.81 9.07
5/28/2022 12:00:00 PM 16.37 61.466 0.088 7.27 33.52 9.2
5/28/2022 12:15:00 PM 16.49 61.682 0.087 7.29 28.68 9.3
5/28/2022 12:30:00 PM 16.7 62.06 0.088 7.31 141.5 9.4
5/28/2022 12:45:00 PM 16.79 62.222 0.089 7.33 33.47 9.45
5/28/2022 1:00:00 PM 16.96 62.528 0.094 7.35 37.46 9.51
5/28/2022 1:15:00 PM 16.95 62.51 0.091 7.35 52.46 9.5
5/28/2022 1:30:00 PM 17.25 63.05 0.097 7.36 29.69 9.58
5/28/2022 1:45:00 PM 17.3 63.14 0.094 7.36 32.09 9.55
5/28/2022 2:00:00 PM 17.48 63.464 0.095 7.36 33.77 9.57
5/28/2022 2:15:00 PM 17.5 63.5 0.093 7.37 30.6 9.58
5/28/2022 2:30:00 PM 17.53 63.554 0.094 7.38 36.77 9.59
5/28/2022 2:45:00 PM 17.74 63.932 0.095 7.39 36.03 9.68
5/28/2022 3:00:00 PM 17.62 63.716 0.095 7.39 35.15 9.55
5/28/2022 3:15:00 PM 17.73 63.914 0.095 7.38 30.66 9.59
5/28/2022 3:30:00 PM 17.86 64.148 0.1 7.39 38.62 9.67
5/28/2022 3:45:00 PM 17.96 64.328 0.098 7.39 30.05 9.71
5/28/2022 4:00:00 PM 18.21 64.778 0.099 7.4 33.66 9.72
5/28/2022 4:15:00 PM 18.3 64.94 0.097 7.42 37.64 9.69
5/28/2022 4:30:00 PM 18.32 64.976 0.098 7.44 34.25 9.69
5/28/2022 4:45:00 PM 18.35 65.03 0.104 7.45 60.97 9.69
5/28/2022 5:00:00 PM 18.43 65.174 0.101 7.45 37.94 9.72
5/28/2022 5:15:00 PM 18.3 64.94 0.101 7.44 35.25 9.62
5/28/2022 5:30:00 PM 18.15 64.67 0.105 7.42 53.1 9.52
5/28/2022 5:45:00 PM 17.97 64.346 0.1 7.4 38.21 9.41
5/28/2022 6:00:00 PM 17.8 64.04 0.097 7.38 42.71 9.35
5/28/2022 6:15:00 PM 17.63 63.734 0.098 7.36 45.65 9.25
5/28/2022 6:30:00 PM 17.5 63.5 0.098 7.33 35.95 9.17
5/28/2022 6:45:00 PM 17.38 63.284 0.1 7.31 44.86 9.07
5/28/2022 7:00:00 PM 17.27 63.086 0.102 7.28 37.73 8.99
5/28/2022 7:15:00 PM 17.18 62.924 0.1 7.26 41.99 8.9
5/28/2022 7:30:00 PM 17.09 62.762 0.103 7.23 42.37 8.82
5/28/2022 7:45:00 PM 17.02 62.636 0.099 7.2 47.13 8.74
5/28/2022 8:00:00 PM 16.95 62.51 0.096 7.17 59.22 8.68
5/28/2022 8:15:00 PM 16.88 62.384 0.1 7.15 48.48 8.62
5/28/2022 8:30:00 PM 16.81 62.258 0.106 7.13 111.8 8.55
5/28/2022 8:45:00 PM 16.72 62.096 0.105 7.11 50.76 8.49
5/28/2022 9:00:00 PM 16.61 61.898 0.105 7.09 40.07 8.44
5/28/2022 9:15:00 PM 16.51 61.718 0.104 7.07 48.25 8.4
5/28/2022 9:30:00 PM 16.41 61.538 0.105 7.06 43.27 8.37
5/28/2022 9:45:00 PM 16.31 61.358 0.104 7.05 43.21 8.35
5/28/2022 10:00:00 PM 16.22 61.196 0.104 7.03 97.3 8.33
5/28/2022 10:15:00 PM 16.13 61.034 0.101 7.02 45.55 8.29
5/28/2022 10:30:00 PM 16.05 60.89 0.098 7 56.74 8.3
5/28/2022 10:45:00 PM 15.96 60.728 0.099 7.01 39.83 8.29
5/28/2022 11:00:00 PM 15.88 60.584 0.102 7.01 50.66 8.3
5/28/2022 11:15:00 PM 15.79 60.422 0.101 7.01 88.94 8.3
5/28/2022 11:30:00 PM 15.71 60.278 0.098 7 34.88 8.3
5/28/2022 11:45:00 PM 15.64 60.152 0.099 7.01 31.71 8.31
5/29/2022 12:00:00 AM 15.57 60.026 0.096 7.01 32.65 8.31
5/29/2022 12:15:00 AM 15.5 59.9 0.095 7.02 43.25 8.3
5/29/2022 12:30:00 AM 15.43 59.774 0.095 7.01 66.01 8.31
5/29/2022 12:45:00 AM 15.37 59.666 0.097 7.02 57.38 8.32
5/29/2022 1:00:00 AM 15.31 59.558 0.098 7.01 82.59 8.31
5/29/2022 1:15:00 AM 15.25 59.45 0.098 7.02 31.12 8.32
5/29/2022 1:30:00 AM 15.19 59.342 0.096 7.02 31.96 8.32
5/29/2022 1:45:00 AM 15.14 59.252 0.094 7.02 33.94 8.32
5/29/2022 2:00:00 AM 15.08 59.144 0.092 7.02 89.6 8.33
5/29/2022 2:15:00 AM 15.03 59.054 0.093 7.02 48 8.33
5/29/2022 2:30:00 AM 14.98 58.964 0.093 7.02 42.95 8.34
5/29/2022 2:45:00 AM 14.93 58.874 0.089 7.02 32.81 8.33
5/29/2022 3:00:00 AM 14.87 58.766 0.094 7.03 36.97 8.35
5/29/2022 3:15:00 AM 14.82 58.676 0.093 7.03 44.37 8.35
5/29/2022 3:30:00 AM 14.76 58.568 0.087 7.03 38.8 8.36
5/29/2022 3:45:00 AM 14.71 58.478 0.088 7.03 32.56 8.38
5/29/2022 4:00:00 AM 14.66 58.388 0.089 7.03 31.3 8.39
5/29/2022 4:15:00 AM 14.6 58.28 0.089 7.04 40.89 8.39
5/29/2022 4:30:00 AM 14.55 58.19 0.089 7.04 37.38 8.39
5/29/2022 4:45:00 AM 14.5 58.1 0.088 7.03 36.02 8.41
5/29/2022 5:00:00 AM 14.45 58.01 0.089 7.04 46.19 8.41
5/29/2022 5:15:00 AM 14.4 57.92 0.09 7.03 34.49 8.41
5/29/2022 5:30:00 AM 14.35 57.83 0.086 7.04 42.44 8.43
5/29/2022 5:45:00 AM 14.3 57.74 0.089 7.04 86.72 8.43
5/29/2022 6:00:00 AM 14.25 57.65 0.089 7.04 57.37 8.44
5/29/2022 6:15:00 AM 14.21 57.578 0.09 7.04 42.71 8.45
5/29/2022 6:30:00 AM 14.17 57.506 0.089 7.05 44.14 8.52
5/29/2022 6:45:00 AM 14.15 57.47 0.09 7.05 48.06 8.56
5/29/2022 7:00:00 AM 14.15 57.47 0.083 7.06 32.06 8.66
5/29/2022 7:15:00 AM 14.15 57.47 0.088 7.08 32.64 8.74
5/29/2022 7:30:00 AM 14.17 57.506 0.088 7.09 35.34 8.83
5/29/2022 7:45:00 AM 14.22 57.596 0.093 7.12 42.85 8.94
5/29/2022 8:00:00 AM 14.29 57.722 0.094 7.13 38.4 9.04
5/29/2022 8:15:00 AM 14.38 57.884 0.095 7.16 43.85 9.15
5/29/2022 8:30:00 AM 14.52 58.136 0.094 7.18 44.74 9.26
5/29/2022 8:45:00 AM 14.62 58.316 0.094 7.21 40.01 9.33
5/29/2022 9:00:00 AM 14.63 58.334 0.093 7.21 31.78 9.33
5/29/2022 9:15:00 AM 14.86 58.748 0.093 7.23 37.39 9.45
5/29/2022 9:30:00 AM 15.08 59.144 0.091 7.25 72.46 9.54
5/29/2022 9:45:00 AM 15.29 59.522 0.092 7.27 48.67 9.63
5/29/2022 10:00:00 AM 15.53 59.954 0.091 7.29 32.7 9.69
5/29/2022 10:15:00 AM 15.81 60.458 0.091 7.3 40.06 9.76
5/29/2022 10:30:00 AM 16.01 60.818 0.093 7.31 36.34 9.76
5/29/2022 10:45:00 AM 16.26 61.268 0.09 7.32 44.62 9.8
5/29/2022 11:00:00 AM 16.6 61.88 0.094 7.33 35.29 9.87
5/29/2022 11:15:00 AM 16.82 62.276 0.091 7.35 36.19 9.89
5/29/2022 11:30:00 AM 17.1 62.78 0.089 7.36 34 9.91
5/29/2022 11:45:00 AM 17.07 62.726 0.09 7.37 38.79 9.86
5/29/2022 12:00:00 PM 17.24 63.032 0.089 7.37 35.76 9.89
5/29/2022 12:15:00 PM 17.47 63.446 0.091 7.37 32 9.92
5/29/2022 12:30:00 PM 17.52 63.536 0.09 7.37 42.76 9.86
5/29/2022 12:45:00 PM 17.82 64.076 0.089 7.38 55.78 9.92
5/29/2022 1:00:00 PM 18 64.4 0.089 7.39 43.79 9.96
5/29/2022 1:15:00 PM 18.29 64.922 0.091 7.41 35.18 9.96
5/29/2022 1:30:00 PM 18.64 65.552 0.093 7.42 33.69 9.99
5/29/2022 1:45:00 PM 18.88 65.984 0.091 7.45 37.62 10.02
5/29/2022 2:00:00 PM 19.3 66.74 0.091 7.46 50.05 10.08
5/29/2022 2:15:00 PM 19.52 67.136 0.091 7.47 42.84 10.07
5/29/2022 2:30:00 PM 19.71 67.478 0.087 7.47 55.61 10.07
5/29/2022 2:45:00 PM 19.8 67.64 0.091 7.48 48.85 10.04
5/29/2022 3:00:00 PM 19.92 67.856 0.089 7.49 53.88 10.07
5/29/2022 3:15:00 PM 19.91 67.838 0.09 7.49 48.55 10.03
5/29/2022 3:30:00 PM 20.04 68.07201 0.089 7.5 111.24 10.06
5/29/2022 3:45:00 PM 20.16 68.288 0.092 7.49 44.8 10.03
5/29/2022 4:00:00 PM 20.27 68.486 0.092 7.5 38.13 10.03
5/29/2022 4:15:00 PM 20.36 68.648 0.086 7.51 99.35 10.01
5/29/2022 4:30:00 PM 20.43 68.774 0.085 7.51 63.56 9.98
5/29/2022 4:45:00 PM 20.36 68.648 0.087 7.49 37.79 9.9
5/29/2022 5:00:00 PM 20.24 68.432 0.086 7.49 45.3 9.84
5/29/2022 5:15:00 PM 20 68 0.082 7.47 32.06 9.71
5/29/2022 5:30:00 PM 19.89 67.802 0.084 7.46 34.16 9.66
5/29/2022 5:45:00 PM 19.72 67.496 0.08 7.44 66.47 9.64
5/29/2022 6:00:00 PM 19.59 67.262 0.081 7.43 38.9 9.61
5/29/2022 6:15:00 PM 19.44 66.992 0.081 7.41 38.89 9.54
5/29/2022 6:30:00 PM 19.26 66.668 0.081 7.39 55.49 9.46
5/29/2022 6:45:00 PM 19.04 66.272 0.08 7.37 32.83 9.37
5/29/2022 7:00:00 PM 18.83 65.894 0.076 7.35 33.7 9.26
5/29/2022 7:15:00 PM 18.63 65.534 0.079 7.32 48.79 9.15
5/29/2022 7:30:00 PM 18.44 65.192 0.079 7.28 42.06 9.03
5/29/2022 7:45:00 PM 18.26 64.868 0.074 7.25 45.39 8.91
5/29/2022 8:00:00 PM 18.13 64.634 0.079 7.22 55.34 8.81
5/29/2022 8:15:00 PM 18 64.4 0.077 7.17 93.39 8.71
5/29/2022 8:30:00 PM 17.89 64.202 0.075 7.13 64.37 8.61
5/29/2022 8:45:00 PM 17.78 64.004 0.074 7.1 33.36 8.52
5/29/2022 9:00:00 PM 17.66 63.788 0.072 7.08 63.89 8.44
5/29/2022 9:15:00 PM 17.55 63.59 0.071 7.06 132.54 8.37
5/29/2022 9:30:00 PM 17.45 63.41 0.073 7.05 38.77 8.31
5/29/2022 9:45:00 PM 17.36 63.248 0.074 7.03 38.51 8.27
5/29/2022 10:00:00 PM 17.27 63.086 0.075 7.02 45.54 8.22
5/29/2022 10:15:00 PM 17.18 62.924 0.077 7.01 56.27 8.2
5/29/2022 10:30:00 PM 17.09 62.762 0.07 7 44.84 8.19
5/29/2022 10:45:00 PM 17 62.6 0.07 7 50.49 8.18
5/29/2022 11:00:00 PM 16.9 62.42 0.069 6.99 52.91 8.17
5/29/2022 11:15:00 PM 16.81 62.258 0.07 6.98 32.54 8.16
5/29/2022 11:30:00 PM 16.72 62.096 0.071 6.98 52.55 8.16
5/29/2022 11:45:00 PM 16.62 61.916 0.071 6.97 48.21 8.16
5/30/2022 12:00:00 AM 16.54 61.772 0.071 6.97 96.32 8.15
5/30/2022 12:15:00 AM 16.45 61.61 0.073 6.96 46.68 8.15
5/30/2022 12:30:00 AM 16.36 61.448 0.074 6.96 30.7 8.15
5/30/2022 12:45:00 AM 16.28 61.304 0.074 6.96 34.8 8.15
5/30/2022 1:00:00 AM 16.2 61.16 0.07 6.96 35.05 8.17
5/30/2022 1:15:00 AM 16.13 61.034 0.074 6.96 55.29 8.16
5/30/2022 1:30:00 AM 16.05 60.89 0.073 6.96 79.7 8.16
5/30/2022 1:45:00 AM 15.98 60.764 0.073 6.95 45.98 8.14
5/30/2022 2:00:00 AM 15.91 60.638 0.074 6.95 39.03 8.16
5/30/2022 2:15:00 AM 15.84 60.512 0.076 6.95 40.27 8.14
5/30/2022 2:30:00 AM 15.76 60.368 0.073 6.95 41.56 8.17
5/30/2022 2:45:00 AM 15.69 60.242 0.076 6.95 44.91 8.18
5/30/2022 3:00:00 AM 15.62 60.116 0.078 6.95 40.38 8.19
5/30/2022 3:15:00 AM 15.55 59.99 0.074 6.95 27.82 8.21
5/30/2022 3:30:00 AM 15.48 59.864 0.074 6.95 42.35 8.21
5/30/2022 3:45:00 AM 15.41 59.738 0.075 6.96 38.92 8.23
5/30/2022 4:00:00 AM 15.35 59.63 0.071 6.97 31.34 8.24
5/30/2022 4:15:00 AM 15.28 59.504 0.074 6.97 30.21 8.26
5/30/2022 4:30:00 AM 15.22 59.396 0.076 6.97 36.46 8.26
5/30/2022 4:45:00 AM 15.16 59.288 0.073 6.97 33.54 8.28
5/30/2022 5:00:00 AM 15.1 59.18 0.071 6.97 31.64 8.28
5/30/2022 5:15:00 AM 15.04 59.072 0.076 6.98 31.84 8.29
5/30/2022 5:30:00 AM 14.99 58.982 0.076 6.98 32.52 8.3
5/30/2022 5:45:00 AM 14.93 58.874 0.075 6.98 30.14 8.3
5/30/2022 6:00:00 AM 14.89 58.802 0.075 6.98 37.17 8.32
5/30/2022 6:15:00 AM 14.85 58.73 0.073 6.99 39.84 8.34
5/30/2022 6:30:00 AM 14.82 58.676 0.072 7 31.7 8.38
5/30/2022 6:45:00 AM 14.81 58.658 0.074 7.01 35.44 8.47
5/30/2022 7:00:00 AM 14.81 58.658 0.074 7.02 34.77 8.53
5/30/2022 7:15:00 AM 14.82 58.676 0.074 7.03 30.49 8.59
5/30/2022 7:30:00 AM 14.86 58.748 0.075 7.05 46.32 8.7
5/30/2022 7:45:00 AM 14.92 58.856 0.075 7.07 26.48 8.82
5/30/2022 8:00:00 AM 15.01 59.018 0.073 7.09 42.94 8.93
5/30/2022 8:15:00 AM 15.11 59.198 0.073 7.1 25.73 9.03
5/30/2022 8:30:00 AM 15.25 59.45 0.072 7.12 33.79 9.13
5/30/2022 8:45:00 AM 15.41 59.738 0.075 7.15 33.87 9.21
5/30/2022 9:00:00 AM 15.6 60.08 0.073 7.18 64.37 9.29
5/30/2022 9:15:00 AM 15.81 60.458 0.076 7.2 29.61 9.36
5/30/2022 9:30:00 AM 16.03 60.854 0.073 7.21 25.99 9.41
5/30/2022 9:45:00 AM 16.29 61.322 0.076 7.23 28.27 9.5
5/30/2022 10:00:00 AM 16.57 61.826 0.077 7.25 23.93 9.54
5/30/2022 10:15:00 AM 16.86 62.348 0.075 7.27 30.77 9.57
5/30/2022 10:30:00 AM 17.16 62.888 0.079 7.28 29.01 9.65
5/30/2022 10:45:00 AM 17.47 63.446 0.079 7.3 29.13 9.68
5/30/2022 11:00:00 AM 17.77 63.986 0.077 7.31 32.72 9.71
5/30/2022 11:15:00 AM 18.09 64.562 0.075 7.33 29 9.77
5/30/2022 11:30:00 AM 18.39 65.102 0.078 7.35 33.59 9.8
5/30/2022 11:45:00 AM 18.7 65.66 0.076 7.35 31.8 9.82
5/30/2022 12:00:00 PM 18.99 66.182 0.079 7.36 26.98 9.85
5/30/2022 12:15:00 PM 19.28 66.704 0.081 7.38 30.15 9.86
5/30/2022 12:30:00 PM 19.55 67.19 0.076 7.39 27.81 9.89
5/30/2022 12:45:00 PM 19.81 67.658 0.081 7.4 28.81 9.9
5/30/2022 1:00:00 PM 20.06 68.108 0.08 7.42 27.83 9.9
5/30/2022 1:15:00 PM 20.31 68.558 0.079 7.44 26.44 9.9
5/30/2022 1:30:00 PM 20.54 68.972 0.08 7.45 31.02 9.89
5/30/2022 1:45:00 PM 20.78 69.404 0.082 7.46 52.25 9.9
5/30/2022 2:00:00 PM 20.99 69.782 0.08 7.47 25.16 9.9
5/30/2022 2:15:00 PM 21.16 70.088 0.081 7.48 36.51 9.88
5/30/2022 2:30:00 PM 21.34 70.412 0.081 7.49 35.11 9.88
5/30/2022 2:45:00 PM 21.46 70.628 0.081 7.5 34.81 9.85
5/30/2022 3:00:00 PM 21.63 70.934 0.08 7.5 26.59 9.83
5/30/2022 3:15:00 PM 21.68 71.024 0.083 7.49 29.28 9.78
5/30/2022 3:30:00 PM 21.85 71.33 0.079 7.51 39.76 9.8
5/30/2022 3:45:00 PM 21.97 71.546 0.084 7.51 31.8 9.79
5/30/2022 4:00:00 PM 22 71.6 0.081 7.51 26.71 9.76
5/30/2022 4:15:00 PM 22.03 71.654 0.079 7.5 28.28 9.71
5/30/2022 4:30:00 PM 21.97 71.546 0.08 7.49 31.08 9.65
5/30/2022 4:45:00 PM 21.9 71.42 0.079 7.49 32.46 9.61
5/30/2022 5:00:00 PM 21.83 71.294 0.08 7.47 49.37 9.53
5/30/2022 5:15:00 PM 21.78 71.204 0.077 7.47 29.83 9.49
5/30/2022 5:30:00 PM 21.69 71.042 0.078 7.45 34.32 9.43
5/30/2022 5:45:00 PM 21.58 70.844 0.08 7.44 28.34 9.35
5/30/2022 6:00:00 PM 21.44 70.592 0.079 7.42 27.07 9.27
5/30/2022 6:15:00 PM 21.28 70.304 0.077 7.4 32.46 9.2
5/30/2022 6:30:00 PM 21.1 69.98 0.08 7.38 32.33 9.11
5/30/2022 6:45:00 PM 20.87 69.566 0.075 7.36 40.15 9.01
5/30/2022 7:00:00 PM 20.63 69.134 0.077 7.33 36.13 8.89
5/30/2022 7:15:00 PM 20.4 68.72 0.077 7.3 39.86 8.74
5/30/2022 7:30:00 PM 20.19 68.342 0.075 7.27 30.08 8.63
5/30/2022 7:45:00 PM 20.01 68.018 0.078 7.25 30.86 8.53
5/30/2022 8:00:00 PM 19.85 67.73 0.073 7.21 36.37 8.42
5/30/2022 8:15:00 PM 19.71 67.478 0.075 7.18 38.54 8.34
5/30/2022 8:30:00 PM 19.57 67.226 0.073 7.15 97.64 8.25
5/30/2022 8:45:00 PM 19.43 66.974 0.076 7.11 56.19 8.17
5/30/2022 9:00:00 PM 19.29 66.722 0.075 7.08 47.83 8.1
5/30/2022 9:15:00 PM 19.15 66.47 0.076 7.06 47.07 8.03
5/30/2022 9:30:00 PM 19.04 66.272 0.074 7.04 44.86 7.98
5/30/2022 9:45:00 PM 18.93 66.074 0.073 7.02 33.26 7.94
5/30/2022 10:00:00 PM 18.82 65.876 0.073 7.01 48.7 7.9
5/30/2022 10:15:00 PM 18.74 65.732 0.072 7 50.53 7.87
5/30/2022 10:30:00 PM 18.64 65.552 0.072 7 35.06 7.85
5/30/2022 10:45:00 PM 18.55 65.39 0.073 6.99 44.15 7.83
5/30/2022 11:00:00 PM 18.46 65.228 0.072 6.98 47.47 7.8
5/30/2022 11:15:00 PM 18.37 65.066 0.076 6.97 36.37 7.77
5/30/2022 11:30:00 PM 18.27 64.886 0.073 6.96 34.53 7.76
5/30/2022 11:45:00 PM 18.18 64.724 0.072 6.96 43.19 7.76
5/31/2022 12:00:00 AM 18.09 64.562 0.074 6.96 29.74 7.77
5/31/2022 12:15:00 AM 18 64.4 0.075 6.96 45.72 7.78
5/31/2022 12:30:00 AM 17.91 64.238 0.07 6.96 66.62 7.78
5/31/2022 12:45:00 AM 17.83 64.094 0.076 6.95 44.35 7.78
5/31/2022 1:00:00 AM 17.75 63.95 0.073 6.95 54.78 7.78
5/31/2022 1:15:00 AM 17.68 63.824 0.073 6.95 89.94 7.77
5/31/2022 1:30:00 AM 17.61 63.698 0.075 6.95 61.19 7.77
5/31/2022 1:45:00 AM 17.54 63.572 0.072 6.95 48.99 7.76
5/31/2022 2:00:00 AM 17.48 63.464 0.075 6.95 31.13 7.78
5/31/2022 2:15:00 AM 17.41 63.338 0.074 6.96 37.36 7.79
5/31/2022 2:30:00 AM 17.36 63.248 0.076 6.96 33.94 7.8
5/31/2022 2:45:00 AM 17.3 63.14 0.074 6.97 40.15 7.8
5/31/2022 3:00:00 AM 17.24 63.032 0.072 6.97 27.34 7.82
5/31/2022 3:15:00 AM 17.18 62.924 0.073 6.97 31.43 7.82
5/31/2022 3:30:00 AM 17.12 62.816 0.08 6.98 33.67 7.83
5/31/2022 3:45:00 AM 17.07 62.726 0.077 6.98 37.58 7.83
5/31/2022 4:00:00 AM 17.01 62.618 0.081 6.98 33.81 7.84
5/31/2022 4:15:00 AM 16.96 62.528 0.083 6.99 32.1 7.85
5/31/2022 4:30:00 AM 16.91 62.438 0.081 6.99 62.2 7.85
5/31/2022 4:45:00 AM 16.85 62.33 0.082 6.99 34.85 7.86
5/31/2022 5:00:00 AM 16.8 62.24 0.078 6.99 34.3 7.87
5/31/2022 5:15:00 AM 16.75 62.15 0.08 6.99 30.39 7.88
5/31/2022 5:30:00 AM 16.71 62.078 0.078 7 48.58 7.89
5/31/2022 5:45:00 AM 16.67 62.006 0.078 7 29.92 7.89
5/31/2022 6:00:00 AM 16.62 61.916 0.076 7 26.69 7.9
5/31/2022 6:15:00 AM 16.58 61.844 0.075 7 37.9 7.93
5/31/2022 6:30:00 AM 16.55 61.79 0.077 7.01 25.72 7.98
5/31/2022 6:45:00 AM 16.55 61.79 0.077 7.02 32.05 8.05
5/31/2022 7:00:00 AM 16.55 61.79 0.076 7.03 27.41 8.13
5/31/2022 7:15:00 AM 16.57 61.826 0.078 7.04 34.42 8.21
5/31/2022 7:30:00 AM 16.61 61.898 0.076 7.06 26.47 8.31
5/31/2022 7:45:00 AM 16.68 62.024 0.079 7.07 24.16 8.41
5/31/2022 8:00:00 AM 16.77 62.186 0.079 7.09 28.98 8.52
5/31/2022 8:15:00 AM 16.89 62.402 0.079 7.11 26.83 8.63
5/31/2022 8:30:00 AM 17.03 62.654 0.079 7.14 31.03 8.73
5/31/2022 8:45:00 AM 17.2 62.96 0.077 7.16 26.54 8.83
5/31/2022 9:00:00 AM 17.39 63.302 0.079 7.19 33.33 8.91
5/31/2022 9:15:00 AM 17.59 63.662 0.077 7.2 26.36 9
5/31/2022 9:30:00 AM 17.81 64.058 0.082 7.23 25.99 9.07
5/31/2022 9:45:00 AM 18.05 64.49 0.079 7.25 26.63 9.15
5/31/2022 10:00:00 AM 18.31 64.958 0.075 7.27 25.09 9.21
5/31/2022 10:15:00 AM 18.58 65.444 0.078 7.28 27.16 9.27
5/31/2022 10:30:00 AM 18.87 65.966 0.077 7.3 25.05 9.33
5/31/2022 10:45:00 AM 19.17 66.506 0.073 7.31 26.33 9.39
5/31/2022 11:00:00 AM 19.47 67.046 0.076 7.33 23.73 9.44
5/31/2022 11:15:00 AM 19.79 67.622 0.079 7.35 27.51 9.48
5/31/2022 11:30:00 AM 20.1 68.18 0.077 7.36 28.09 9.52
5/31/2022 11:45:00 AM 20.42 68.756 0.079 7.38 25.24 9.56
5/31/2022 12:00:00 PM 20.69 69.242 0.074 7.38 25.52 9.57
5/31/2022 12:15:00 PM 20.92 69.656 0.075 7.39 25.12 9.59
5/31/2022 12:30:00 PM 21.11 69.998 0.075 7.41 26.03 9.56
5/31/2022 12:45:00 PM 21.42 70.556 0.078 7.42 27.04 9.58
5/31/2022 1:00:00 PM 21.55 70.79 0.074 7.44 30.69 9.55
5/31/2022 1:15:00 PM 21.88 71.384 0.074 7.45 24.24 9.61
5/31/2022 1:30:00 PM 21.66 70.988 0.078 7.45 25.1 9.43
5/31/2022 1:45:00 PM 21.64 70.952 0.076 7.45 30.59 9.39
5/31/2022 2:00:00 PM 21.82 71.276 0.074 7.45 26.36 9.43
5/31/2022 2:15:00 PM 22.03 71.654 0.073 7.45 25.48 9.53
5/31/2022 2:30:00 PM 22.12 71.816 0.074 7.46 27.29 9.54
5/31/2022 2:45:00 PM 22.33 72.194 0.074 7.47 27.42 9.55
5/31/2022 3:00:00 PM 22.34 72.212 0.075 7.47 25.67 9.49
5/31/2022 3:15:00 PM 22.29 72.122 0.072 7.47 30.53 9.4
5/31/2022 3:30:00 PM 22.38 72.284 0.073 7.46 26.3 9.39
5/31/2022 3:45:00 PM 22.43 72.374 0.075 7.47 53.35 9.42
5/31/2022 4:00:00 PM 22.43 72.374 0.075 7.47 58.63 9.4
5/31/2022 4:15:00 PM 22.49 72.482 0.072 7.47 25.48 9.41
5/31/2022 4:30:00 PM 22.55 72.59 0.072 7.47 32.61 9.39
5/31/2022 4:45:00 PM 22.58 72.644 0.072 7.46 27.73 9.35
5/31/2022 5:00:00 PM 22.4 72.32 0.074 7.44 27.01 9.24
5/31/2022 5:15:00 PM 22.4 72.32 0.073 7.44 28.65 9.22
5/31/2022 5:30:00 PM 22.28 72.104 0.075 7.44 34.51 9.18
5/31/2022 5:45:00 PM 22.2 71.96 0.074 7.42 31.45 9.15
5/31/2022 6:00:00 PM 22.09 71.762 0.073 7.41 27.11 9.06
5/31/2022 6:15:00 PM 22 71.6 0.073 7.4 26.63 9.01
5/31/2022 6:30:00 PM 21.84 71.312 0.073 7.39 23.51 8.92
5/31/2022 6:45:00 PM 21.67 71.006 0.073 7.37 27.7 8.83
5/31/2022 7:00:00 PM 21.46 70.628 0.071 7.34 27.49 8.71
5/31/2022 7:15:00 PM 21.22 70.196 0.071 7.32 27.88 8.58
5/31/2022 7:30:00 PM 21.01 69.818 0.07 7.29 25.88 8.46
5/31/2022 7:45:00 PM 20.83 69.494 0.068 7.26 33.07 8.35
5/31/2022 8:00:00 PM 20.67 69.206 0.071 7.23 26.39 8.26
5/31/2022 8:15:00 PM 20.52 68.936 0.071 7.2 30.21 8.16
5/31/2022 8:30:00 PM 20.38 68.684 0.07 7.16 27.63 8.07
5/31/2022 8:45:00 PM 20.24 68.432 0.066 7.12 26.59 7.97
5/31/2022 9:00:00 PM 20.11 68.198 0.064 7.09 31.82 7.89
5/31/2022 9:15:00 PM 19.99 67.982 0.066 7.07 27.77 7.81
5/31/2022 9:30:00 PM 19.87 67.766 0.068 7.05 41.35 7.75
5/31/2022 9:45:00 PM 19.75 67.55 0.068 7.03 67.58 7.7
5/31/2022 10:00:00 PM 19.64 67.352 0.069 7.02 34.52 7.66
5/31/2022 10:15:00 PM 19.55 67.19 0.066 7.01 29.79 7.64
5/31/2022 10:30:00 PM 19.46 67.028 0.071 7 40.35 7.61
5/31/2022 10:45:00 PM 19.36 66.848 0.068 7 29.9 7.6
5/31/2022 11:00:00 PM 19.28 66.704 0.068 6.99 31.71 7.58
5/31/2022 11:15:00 PM 19.19 66.542 0.065 6.99 29.34 7.57
5/31/2022 11:30:00 PM 19.1 66.38 0.068 6.99 26.3 7.57
5/31/2022 11:45:00 PM 19.02 66.236 0.066 6.98 44.53 7.56
6/1/2022 12:00:00 AM 18.94 66.092 0.064 6.98 81.48 7.55
6/1/2022 12:15:00 AM 18.86 65.948 0.065 6.98 69.76 7.55
6/1/2022 12:30:00 AM 18.78 65.804 0.065 6.97 33.87 7.54
6/1/2022 12:45:00 AM 18.71 65.67799 0.066 6.97 39.37 7.54
6/1/2022 1:00:00 AM 18.64 65.552 0.067 6.97 56.06 7.55
6/1/2022 1:15:00 AM 18.57 65.426 0.067 6.97 39.55 7.54
6/1/2022 1:30:00 AM 18.5 65.3 0.068 6.97 56.08 7.54
6/1/2022 1:45:00 AM 18.44 65.192 0.065 6.97 36.34 7.54
6/1/2022 2:00:00 AM 18.38 65.084 0.065 6.97 31.83 7.55
6/1/2022 2:15:00 AM 18.32 64.976 0.064 6.98 40.67 7.56
6/1/2022 2:30:00 AM 18.26 64.868 0.065 6.98 38.3 7.57
6/1/2022 2:45:00 AM 18.22 64.796 0.067 6.98 44.57 7.57
6/1/2022 3:00:00 AM 18.17 64.706 0.067 6.99 39.45 7.57
6/1/2022 3:15:00 AM 18.14 64.652 0.064 6.99 38.41 7.58
6/1/2022 3:30:00 AM 18.09 64.562 0.067 6.99 37.72 7.57
6/1/2022 3:45:00 AM 18.06 64.508 0.065 7 50.05 7.58
6/1/2022 4:00:00 AM 18.03 64.454 0.065 7 44.81 7.58
6/1/2022 4:15:00 AM 17.99 64.382 0.065 7 33.79 7.58
6/1/2022 4:30:00 AM 17.96 64.328 0.067 7 30.24 7.58
6/1/2022 4:45:00 AM 17.94 64.292 0.067 7.01 37.62 7.59
6/1/2022 5:00:00 AM 17.9 64.22 0.067 7.01 30.42 7.59
6/1/2022 5:15:00 AM 17.87 64.166 0.07 7.01 33.98 7.59
6/1/2022 5:30:00 AM 17.84 64.112 0.066 7.01 43.6 7.59
6/1/2022 5:45:00 AM 17.8 64.04 0.066 7.01 46.65 7.6
6/1/2022 6:00:00 AM 17.77 63.986 0.065 7.02 54.16 7.61
6/1/2022 6:15:00 AM 17.74 63.932 0.067 7.02 43.47 7.64
6/1/2022 6:30:00 AM 17.73 63.914 0.067 7.03 44.03 7.68
6/1/2022 6:45:00 AM 17.74 63.932 0.067 7.04 43.45 7.75
6/1/2022 7:00:00 AM 17.76 63.968 0.064 7.05 24.92 7.83
6/1/2022 7:15:00 AM 17.8 64.04 0.067 7.06 38.13 7.91
6/1/2022 7:30:00 AM 17.85 64.13 0.067 7.08 41.87 8
6/1/2022 7:45:00 AM 17.92 64.256 0.066 7.09 28.68 8.09
6/1/2022 8:00:00 AM 18.01 64.418 0.066 7.11 29.52 8.19
6/1/2022 8:15:00 AM 18.13 64.634 0.067 7.13 25.11 8.3
6/1/2022 8:30:00 AM 18.27 64.886 0.066 7.15 30.72 8.41
6/1/2022 8:45:00 AM 18.42 65.156 0.066 7.17 30.76 8.51
6/1/2022 9:00:00 AM 18.6 65.48 0.071 7.19 30.72 8.6
6/1/2022 9:15:00 AM 18.8 65.84 0.07 7.22 30.6 8.7
6/1/2022 9:30:00 AM 18.99 66.182 0.071 7.23 31.78 8.77
6/1/2022 9:45:00 AM 19.24 66.632 0.074 7.25 24.78 8.85
6/1/2022 10:00:00 AM 19.42 66.956 0.073 7.27 31.12 8.91
6/1/2022 10:15:00 AM 19.63 67.334 0.07 7.28 33.05 8.96
6/1/2022 10:30:00 AM 19.93 67.874 0.073 7.3 30.41 9.05
6/1/2022 10:45:00 AM 20.21 68.378 0.072 7.32 31.76 9.12
6/1/2022 11:00:00 AM 20.4 68.72 0.073 7.33 34.22 9.14
6/1/2022 11:15:00 AM 20.66 69.188 0.071 7.35 30.67 9.18
6/1/2022 11:30:00 AM 20.75 69.35 0.073 7.36 31.64 9.14
6/1/2022 11:45:00 AM 20.92 69.656 0.072 7.37 33.57 9.14
6/1/2022 12:00:00 PM 21.2 70.16 0.074 7.38 25.58 9.19
6/1/2022 12:15:00 PM 21.52 70.736 0.074 7.39 25.89 9.27
6/1/2022 12:30:00 PM 21.6 70.88 0.075 7.4 28.11 9.25
6/1/2022 12:45:00 PM 21.72 71.096 0.074 7.41 30.85 9.23
6/1/2022 1:00:00 PM 22.07 71.726 0.075 7.41 32.13 9.29
6/1/2022 1:15:00 PM 22.26 72.068 0.075 7.43 24.86 9.32
6/1/2022 1:30:00 PM 22.37 72.266 0.075 7.44 29.95 9.32
6/1/2022 1:45:00 PM 22.53 72.554 0.076 7.44 25.69 9.36
6/1/2022 2:00:00 PM 22.77 72.986 0.077 7.45 27.14 9.39
6/1/2022 2:15:00 PM 23.03 73.454 0.076 7.46 36.04 9.41
6/1/2022 2:30:00 PM 23.09 73.562 0.075 7.47 28.65 9.36
6/1/2022 2:45:00 PM 23.32 73.976 0.073 7.47 25.37 9.38
6/1/2022 3:00:00 PM 23.28 73.904 0.073 7.48 32 9.32
6/1/2022 3:15:00 PM 23.18 73.724 0.073 7.48 26.44 9.25
6/1/2022 3:30:00 PM 23.18 73.724 0.074 7.47 26.02 9.21
6/1/2022 3:45:00 PM 23.1 73.58 0.073 7.47 33.48 9.16
6/1/2022 4:00:00 PM 23.15 73.67 0.072 7.47 26.22 9.17
6/1/2022 4:15:00 PM 23.13 73.634 0.07 7.47 30 9.16
6/1/2022 4:30:00 PM 22.99 73.382 0.071 7.46 28.87 9.11
6/1/2022 4:45:00 PM 22.94 73.292 0.071 7.45 27.84 9.06
6/1/2022 5:00:00 PM 22.72 72.896 0.071 7.43 28.79 8.94
6/1/2022 5:15:00 PM 22.67 72.806 0.067 7.42 27.12 8.91
6/1/2022 5:30:00 PM 22.54 72.57201 0.07 7.41 39.86 8.89
6/1/2022 5:45:00 PM 22.47 72.446 0.07 7.4 27.52 8.86
6/1/2022 6:00:00 PM 22.39 72.302 0.068 7.39 69.82 8.81
6/1/2022 6:15:00 PM 22.28 72.104 0.07 7.37 119.8 8.75
6/1/2022 6:30:00 PM 22.18 71.924 0.07 7.36 44.7 8.69
6/1/2022 6:45:00 PM 21.97 71.546 0.068 7.33 36.83 8.64
6/1/2022 7:00:00 PM 21.81 71.258 0.07 7.32 76.11 8.55
6/1/2022 7:15:00 PM 21.59 70.862 0.067 7.3 35.14 8.42
6/1/2022 7:30:00 PM 21.42 70.556 0.068 7.27 33.67 8.26
6/1/2022 7:45:00 PM 21.24 70.232 0.067 7.26 29.91 8.13
6/1/2022 8:00:00 PM 21.28 70.304 0.069 7.22 53.32 7.95
6/1/2022 8:15:00 PM 21.06 69.908 0.068 7.19 37.85 7.86
6/1/2022 8:30:00 PM 20.85 69.53 0.069 7.16 52.98 7.79
6/1/2022 8:45:00 PM 20.67 69.206 0.066 7.12 33.01 7.72
6/1/2022 9:00:00 PM 20.54 68.972 0.068 7.07 31.98 7.59
6/1/2022 9:15:00 PM 20.49 68.882 0.065 7.04 32.26 7.48
6/1/2022 9:30:00 PM 20.43 68.774 0.067 7.03 35.83 7.41
6/1/2022 9:45:00 PM 20.31 68.558 0.063 7.02 66.98 7.39
6/1/2022 10:00:00 PM 20.23 68.414 0.064 7.01 118.63 7.34
6/1/2022 10:15:00 PM 20.14 68.252 0.066 7.01 61.34 7.33
6/1/2022 10:30:00 PM 20.03 68.054 0.068 7 243.05 7.32
6/1/2022 10:45:00 PM 19.91 67.838 0.063 6.99 67.6 7.3
6/1/2022 11:00:00 PM 19.83 67.694 0.067 6.98 36.7 7.27
6/1/2022 11:15:00 PM 19.79 67.622 0.066 6.97 46.11 7.24
6/1/2022 11:30:00 PM 19.74 67.532 0.066 6.97 48.32 7.22
6/1/2022 11:45:00 PM 19.68 67.424 0.063 6.97 60.69 7.21
6/2/2022 12:00:00 AM 19.6 67.28 0.063 6.97 92.78 7.22
6/2/2022 12:15:00 AM 19.53 67.154 0.066 6.97 41.11 7.22
6/2/2022 12:30:00 AM 19.46 67.028 0.063 6.97 47.29 7.23
6/2/2022 12:45:00 AM 19.39 66.902 0.064 6.98 47.66 7.26
6/2/2022 1:00:00 AM 19.32 66.776 0.064 6.98 34.38 7.27
6/2/2022 1:15:00 AM 19.26 66.668 0.062 6.99 40.65 7.28
6/2/2022 1:30:00 AM 19.19 66.542 0.067 6.99 55.5 7.27
6/2/2022 1:45:00 AM 19.12 66.416 0.065 6.99 43.4 7.29
6/2/2022 2:00:00 AM 19.07 66.326 0.062 6.99 49.25 7.3
6/2/2022 2:15:00 AM 19.01 66.218 0.065 7 26.55 7.31
6/2/2022 2:30:00 AM 18.97 66.146 0.061 7 35.97 7.31
6/2/2022 2:45:00 AM 18.92 66.056 0.062 7 83.27 7.32
6/2/2022 3:00:00 AM 18.88 65.984 0.063 7 35.81 7.3
6/2/2022 3:15:00 AM 18.84 65.912 0.062 7.01 29.99 7.32
6/2/2022 3:30:00 AM 18.8 65.84 0.064 7.01 59 7.33
6/2/2022 3:45:00 AM 18.76 65.768 0.063 7.02 35.28 7.33
6/2/2022 4:00:00 AM 18.74 65.732 0.066 7.02 42.51 7.31
6/2/2022 4:15:00 AM 18.71 65.67799 0.065 7.02 35.68 7.32
6/2/2022 4:30:00 AM 18.67 65.606 0.066 7.01 40.85 7.31
6/2/2022 4:45:00 AM 18.63 65.534 0.067 7 48.24 7.26
6/2/2022 5:00:00 AM 18.63 65.534 0.066 7.01 38.17 7.28
6/2/2022 5:15:00 AM 18.64 65.552 0.067 7.01 34.63 7.26
6/2/2022 5:30:00 AM 18.63 65.534 0.068 7.02 34.53 7.26
6/2/2022 5:45:00 AM 18.6 65.48 0.066 7.02 45.35 7.27
6/2/2022 6:00:00 AM 18.59 65.462 0.068 7.03 34.83 7.3
6/2/2022 6:15:00 AM 18.58 65.444 0.066 7.03 29.97 7.31
6/2/2022 6:30:00 AM 18.56 65.408 0.066 7.04 41.37 7.32
6/2/2022 6:45:00 AM 18.54 65.372 0.069 7.04 47.53 7.33
6/2/2022 7:00:00 AM 18.51 65.318 0.07 7.04 39.75 7.34
6/2/2022 7:15:00 AM 18.49 65.282 0.066 7.05 33.25 7.37
6/2/2022 7:30:00 AM 18.47 65.246 0.065 7.05 47.94 7.39
6/2/2022 7:45:00 AM 18.47 65.246 0.065 7.05 32.88 7.42
6/2/2022 8:00:00 AM 18.48 65.264 0.066 7.06 83.41 7.45
6/2/2022 8:15:00 AM 18.52 65.336 0.065 7.07 138.96 7.55
6/2/2022 8:30:00 AM 18.56 65.408 0.067 7.08 156.59 7.62
6/2/2022 8:45:00 AM 18.61 65.498 0.068 7.1 74.03 7.72
6/2/2022 9:00:00 AM 18.63 65.534 0.068 7.11 120.28 7.78
6/2/2022 9:15:00 AM 18.72 65.696 0.068 7.12 76.39 7.9
6/2/2022 9:30:00 AM 18.91 66.038 0.073 7.14 58.68 8.02
6/2/2022 9:45:00 AM 19.05 66.29 0.071 7.17 56.7 8.18
6/2/2022 10:00:00 AM 19.21 66.578 0.072 7.19 47.75 8.3
6/2/2022 10:15:00 AM 19.36 66.848 0.072 7.21 46.74 8.4
6/2/2022 10:30:00 AM 19.69 67.442 0.069 7.24 136.09 8.54
6/2/2022 10:45:00 AM 19.62 67.316 0.069 7.25 45.09 8.53
6/2/2022 11:00:00 AM 19.67 67.406 0.07 7.25 46.7 8.55
6/2/2022 11:15:00 AM 19.75 67.55 0.069 7.26 43.59 8.6
6/2/2022 11:30:00 AM 19.83 67.694 0.066 7.28 60.55 8.68
6/2/2022 11:45:00 AM 20.01 68.018 0.071 7.3 42.49 8.76
6/2/2022 12:00:00 PM 20.14 68.252 0.066 7.32 41.29 8.83
6/2/2022 12:15:00 PM 20.04 68.07201 0.067 7.32 41.2 8.74
6/2/2022 12:30:00 PM 20.03 68.054 0.068 7.31 40.46 8.7
6/2/2022 12:45:00 PM 20.06 68.108 0.068 7.32 40.22 8.72
6/2/2022 1:00:00 PM 20 68 0.067 7.31 29.36 8.72
6/2/2022 1:15:00 PM 19.94 67.892 0.067 7.32 34.86 8.68
6/2/2022 1:30:00 PM 19.89 67.802 0.063 7.31 57.43 8.64
6/2/2022 1:45:00 PM 19.87 67.766 0.063 7.31 29.02 8.63
6/2/2022 2:00:00 PM 19.91 67.838 0.065 7.31 31.98 8.69
6/2/2022 2:15:00 PM 19.9 67.82 0.065 7.31 35.62 8.71
6/2/2022 2:30:00 PM 19.97 67.946 0.064 7.31 30.27 8.77
6/2/2022 2:45:00 PM 20.04 68.07201 0.065 7.31 39.57 8.8
6/2/2022 3:00:00 PM 20.12 68.216 0.065 7.31 39.89 8.83
6/2/2022 3:15:00 PM 20.13 68.234 0.065 7.31 35.78 8.79
6/2/2022 3:30:00 PM 20.07 68.126 0.065 7.31 32.05 8.69
6/2/2022 3:45:00 PM 20.03 68.054 0.063 7.31 42.61 8.65
6/2/2022 4:00:00 PM 19.97 67.946 0.062 7.3 32.13 8.58
6/2/2022 4:15:00 PM 19.93 67.874 0.064 7.31 37.38 8.55
6/2/2022 4:30:00 PM 19.93 67.874 0.062 7.3 70.33 8.55
6/2/2022 4:45:00 PM 19.92 67.856 0.062 7.29 36.7 8.55
6/2/2022 5:00:00 PM 19.89 67.802 0.06 7.29 30.26 8.52
6/2/2022 5:15:00 PM 19.88 67.784 0.062 7.29 48.04 8.51
6/2/2022 5:30:00 PM 19.92 67.856 0.063 7.29 82.62 8.52
6/2/2022 5:45:00 PM 19.9 67.82 0.062 7.29 28.26 8.52
6/2/2022 6:00:00 PM 19.9 67.82 0.062 7.29 36.51 8.52
6/2/2022 6:15:00 PM 19.87 67.766 0.064 7.29 38.63 8.5
6/2/2022 6:30:00 PM 19.82 67.676 0.06 7.29 42.1 8.45
6/2/2022 6:45:00 PM 19.75 67.55 0.063 7.28 28.65 8.38
6/2/2022 7:00:00 PM 19.67 67.406 0.06 7.26 41.8 8.29
6/2/2022 7:15:00 PM 19.6 67.28 0.058 7.25 30.42 8.23
6/2/2022 7:30:00 PM 19.52 67.136 0.054 7.23 47.24 8.16
6/2/2022 7:45:00 PM 19.44 66.992 0.058 7.22 34.63 8.08
6/2/2022 8:00:00 PM 19.36 66.848 0.057 7.2 40.72 8.01
6/2/2022 8:15:00 PM 19.29 66.722 0.06 7.18 39.17 7.94
6/2/2022 8:30:00 PM 19.22 66.596 0.059 7.17 50.46 7.88
6/2/2022 8:45:00 PM 19.15 66.47 0.061 7.16 43.34 7.83
6/2/2022 9:00:00 PM 19.09 66.362 0.058 7.15 41.48 7.79
6/2/2022 9:15:00 PM 19.01 66.218 0.057 7.14 32.07 7.74
6/2/2022 9:30:00 PM 18.94 66.092 0.058 7.12 85.15 7.7
6/2/2022 9:45:00 PM 18.85 65.93 0.059 7.11 31.98 7.66
6/2/2022 10:00:00 PM 18.75 65.75 0.059 7.1 48.33 7.61
6/2/2022 10:15:00 PM 18.66 65.588 0.057 7.08 65.51 7.58
6/2/2022 10:30:00 PM 18.59 65.462 0.059 7.07 38.42 7.58
6/2/2022 10:45:00 PM 18.53 65.354 0.058 7.07 64.1 7.58
6/2/2022 11:00:00 PM 18.49 65.282 0.057 7.08 44.97 7.59
6/2/2022 11:15:00 PM 18.44 65.192 0.056 7.08 35.65 7.59
6/2/2022 11:30:00 PM 18.4 65.12 0.056 7.09 41.85 7.6
6/2/2022 11:45:00 PM 18.35 65.03 0.055 7.08 53.25 7.57
6/3/2022 12:00:00 AM 18.3 64.94 0.058 7.08 38.12 7.58
6/3/2022 12:15:00 AM 18.26 64.868 0.057 7.09 31.87 7.6
6/3/2022 12:30:00 AM 18.2 64.76 0.058 7.1 43.24 7.61
6/3/2022 12:45:00 AM 18.14 64.652 0.055 7.1 34.08 7.63
6/3/2022 1:00:00 AM 18.08 64.544 0.058 7.1 51 7.64
6/3/2022 1:15:00 AM 18 64.4 0.055 7.1 46.46 7.65
6/3/2022 1:30:00 AM 17.94 64.292 0.056 7.1 32.61 7.66
6/3/2022 1:45:00 AM 17.87 64.166 0.058 7.1 59.56 7.66
6/3/2022 2:00:00 AM 17.81 64.058 0.056 7.1 47.59 7.66
6/3/2022 2:15:00 AM 17.77 63.986 0.055 7.1 33.5 7.67
6/3/2022 2:30:00 AM 17.7 63.86 0.057 7.1 33.7 7.69
6/3/2022 2:45:00 AM 17.6 63.68 0.053 7.1 35.36 7.7
6/3/2022 3:00:00 AM 17.51 63.518 0.055 7.1 43.3 7.7
6/3/2022 3:15:00 AM 17.41 63.338 0.054 7.09 44.2 7.72
6/3/2022 3:30:00 AM 17.32 63.176 0.053 7.09 48.44 7.73
6/3/2022 3:45:00 AM 17.22 62.996 0.055 7.1 54.92 7.76
6/3/2022 4:00:00 AM 17.13 62.834 0.052 7.1 44.66 7.77
6/3/2022 4:15:00 AM 17.04 62.672 0.054 7.1 37.13 7.78
6/3/2022 4:30:00 AM 16.96 62.528 0.053 7.1 43.97 7.8
6/3/2022 4:45:00 AM 16.88 62.384 0.055 7.1 58.65 7.81
6/3/2022 5:00:00 AM 16.79 62.222 0.055 7.1 52.17 7.83
6/3/2022 5:15:00 AM 16.71 62.078 0.052 7.1 60.65 7.85
6/3/2022 5:30:00 AM 16.62 61.916 0.051 7.1 29.44 7.86
6/3/2022 5:45:00 AM 16.53 61.754 0.051 7.1 31.21 7.86
6/3/2022 6:00:00 AM 16.46 61.628 0.052 7.11 39.8 7.9
6/3/2022 6:15:00 AM 16.4 61.52 0.052 7.11 34.68 7.95
6/3/2022 6:30:00 AM 16.35 61.43 0.053 7.12 33.87 8
6/3/2022 6:45:00 AM 16.33 61.394 0.051 7.14 43.7 8.05
6/3/2022 7:00:00 AM 16.31 61.358 0.053 7.14 37.55 8.1
6/3/2022 7:15:00 AM 16.31 61.358 0.053 7.16 40.26 8.18
6/3/2022 7:30:00 AM 16.32 61.376 0.052 7.18 37.37 8.25
6/3/2022 7:45:00 AM 16.35 61.43 0.052 7.19 31.92 8.33
6/3/2022 8:00:00 AM 16.41 61.538 0.051 7.21 41.33 8.41
6/3/2022 8:15:00 AM 16.48 61.664 0.054 7.22 33.77 8.49
6/3/2022 8:30:00 AM 16.57 61.826 0.054 7.24 31.45 8.56
6/3/2022 8:45:00 AM 16.67 62.006 0.054 7.26 23.81 8.62
6/3/2022 9:00:00 AM 16.81 62.258 0.055 7.28 32.71 8.68
6/3/2022 9:15:00 AM 16.96 62.528 0.052 7.29 28.77 8.75
6/3/2022 9:30:00 AM 17.13 62.834 0.053 7.31 29.1 8.81
6/3/2022 9:45:00 AM 17.32 63.176 0.053 7.32 28.39 8.87
6/3/2022 10:00:00 AM 17.54 63.572 0.052 7.34 33.92 8.92
6/3/2022 10:15:00 AM 17.78 64.004 0.053 7.35 30.36 8.97
6/3/2022 10:30:00 AM 18.02 64.436 0.058 7.37 28.88 9.02
6/3/2022 10:45:00 AM 18.29 64.922 0.056 7.38 24.12 9.06
6/3/2022 11:00:00 AM 18.56 65.408 0.056 7.37 30.06 9.1
6/3/2022 11:15:00 AM 18.82 65.876 0.057 7.4 38.33 9.14
6/3/2022 11:30:00 AM 19.09 66.362 0.054 7.41 36.64 9.17
6/3/2022 11:45:00 AM 19.35 66.83 0.056 7.42 28.58 9.2
6/3/2022 12:00:00 PM 19.61 67.298 0.055 7.42 28.68 9.22
6/3/2022 12:15:00 PM 19.89 67.802 0.057 7.43 25.97 9.25
6/3/2022 12:30:00 PM 20.13 68.234 0.058 7.44 24.8 9.26
6/3/2022 12:45:00 PM 20.24 68.432 0.056 7.45 25.38 9.23
6/3/2022 1:00:00 PM 20.38 68.684 0.057 7.46 21.86 9.21
6/3/2022 1:15:00 PM 20.55 68.99 0.056 7.46 24.48 9.19
6/3/2022 1:30:00 PM 20.41 68.738 0.057 7.46 26.63 9.15
6/3/2022 1:45:00 PM 20.51 68.918 0.054 7.47 23.26 9.14
6/3/2022 2:00:00 PM 20.42 68.756 0.056 7.46 27.8 9.11
6/3/2022 2:15:00 PM 20.29 68.522 0.056 7.46 23.95 9.11
6/3/2022 2:30:00 PM 20.66 69.188 0.056 7.46 24.18 9.18
6/3/2022 2:45:00 PM 20.67 69.206 0.057 7.47 25.42 9.19
6/3/2022 3:00:00 PM 20.49 68.882 0.055 7.46 24.18 9.14
6/3/2022 3:15:00 PM 20.4 68.72 0.056 7.45 32.5 9.09
6/3/2022 3:30:00 PM 20.25 68.45 0.055 7.44 32.06 9.05
6/3/2022 3:45:00 PM 20.02 68.036 0.056 7.43 25.65 8.95
6/3/2022 4:00:00 PM 19.8 67.64 0.056 7.41 24.66 8.88
6/3/2022 4:15:00 PM 19.64 67.352 0.053 7.39 35.02 8.84
6/3/2022 4:30:00 PM 19.53 67.154 0.054 7.38 25.13 8.84
6/3/2022 4:45:00 PM 19.4 66.92 0.055 7.37 26.99 8.84
6/3/2022 5:00:00 PM 19.38 66.884 0.056 7.36 26.79 8.88
6/3/2022 5:15:00 PM 19.27 66.686 0.056 7.35 26.38 8.89
6/3/2022 5:30:00 PM 19.31 66.758 0.054 7.34 30.81 8.91
6/3/2022 5:45:00 PM 19.34 66.812 0.054 7.34 25.44 8.92
6/3/2022 6:00:00 PM 19.3 66.74 0.054 7.33 28.89 8.9
6/3/2022 6:15:00 PM 19.3 66.74 0.055 7.33 27.47 8.89
6/3/2022 6:30:00 PM 19.25 66.65 0.057 7.32 25.55 8.86
6/3/2022 6:45:00 PM 19.12 66.416 0.055 7.31 32.92 8.79
6/3/2022 7:00:00 PM 18.96 66.128 0.052 7.29 32.6 8.73
6/3/2022 7:15:00 PM 18.83 65.894 0.052 7.27 24.3 8.67
6/3/2022 7:30:00 PM 18.7 65.66 0.055 7.24 27.14 8.6
6/3/2022 7:45:00 PM 18.59 65.462 0.058 7.22 36.58 8.52
6/3/2022 8:00:00 PM 18.48 65.264 0.054 7.2 36.02 8.44
6/3/2022 8:15:00 PM 18.37 65.066 0.054 7.18 25.31 8.38
6/3/2022 8:30:00 PM 18.25 64.85 0.056 7.16 24.69 8.31
6/3/2022 8:45:00 PM 18.12 64.616 0.055 7.14 30.58 8.25
6/3/2022 9:00:00 PM 17.97 64.346 0.055 7.12 31.14 8.18
6/3/2022 9:15:00 PM 17.83 64.094 0.054 7.11 28.47 8.12
6/3/2022 9:30:00 PM 17.7 63.86 0.055 7.09 31.41 8.07
6/3/2022 9:45:00 PM 17.57 63.626 0.053 7.08 28.03 8.04
6/3/2022 10:00:00 PM 17.45 63.41 0.054 7.08 45.31 8.01
6/3/2022 10:15:00 PM 17.32 63.176 0.054 7.07 35.86 7.99
6/3/2022 10:30:00 PM 17.21 62.978 0.051 7.06 44.24 7.96
6/3/2022 10:45:00 PM 17.09 62.762 0.054 7.06 57.43 7.96
6/3/2022 11:00:00 PM 16.98 62.564 0.051 7.06 36.94 7.96
6/3/2022 11:15:00 PM 16.88 62.384 0.053 7.06 32.74 7.95
6/3/2022 11:30:00 PM 16.77 62.186 0.055 7.06 35.26 7.96
6/3/2022 11:45:00 PM 16.67 62.006 0.052 7.06 36.58 7.96
6/4/2022 12:00:00 AM 16.57 61.826 0.053 7.06 29.46 7.98
6/4/2022 12:15:00 AM 16.48 61.664 0.053 7.06 32.16 7.98
6/4/2022 12:30:00 AM 16.4 61.52 0.054 7.07 31.3 7.99
6/4/2022 12:45:00 AM 16.32 61.376 0.054 7.07 27.13 7.99
6/4/2022 1:00:00 AM 16.25 61.25 0.052 7.07 29.71 7.98
6/4/2022 1:15:00 AM 16.16 61.088 0.05 7.07 26.12 8
6/4/2022 1:30:00 AM 16.1 60.98 0.054 7.08 24.86 8.01
6/4/2022 1:45:00 AM 16.05 60.89 0.053 7.08 26.56 8.02
6/4/2022 2:00:00 AM 15.98 60.764 0.053 7.08 44.02 8.02
6/4/2022 2:15:00 AM 15.91 60.638 0.055 7.09 38.12 8.03
6/4/2022 2:30:00 AM 15.85 60.53 0.055 7.09 34.27 8.04
6/4/2022 2:45:00 AM 15.79 60.422 0.053 7.09 40.76 8.04
6/4/2022 3:00:00 AM 15.73 60.314 0.054 7.09 26.77 8.05
6/4/2022 3:15:00 AM 15.67 60.206 0.055 7.09 29.58 8.06
6/4/2022 3:30:00 AM 15.6 60.08 0.053 7.1 39.48 8.08
6/4/2022 3:45:00 AM 15.54 59.972 0.051 7.09 28.93 8.08
6/4/2022 4:00:00 AM 15.47 59.846 0.052 7.1 32.69 8.1
6/4/2022 4:15:00 AM 15.4 59.72 0.053 7.1 33.13 8.1
6/4/2022 4:30:00 AM 15.34 59.612 0.054 7.1 35.35 8.12
6/4/2022 4:45:00 AM 15.27 59.486 0.054 7.1 35.43 8.13
6/4/2022 5:00:00 AM 15.22 59.396 0.055 7.1 40.26 8.14
6/4/2022 5:15:00 AM 15.16 59.288 0.054 7.1 29.88 8.15
6/4/2022 5:30:00 AM 15.1 59.18 0.056 7.1 36.58 8.15
6/4/2022 5:45:00 AM 15.04 59.072 0.056 7.1 37.09 8.17
6/4/2022 6:00:00 AM 14.98 58.964 0.053 7.1 26.6 8.19
6/4/2022 6:15:00 AM 14.93 58.874 0.054 7.1 31.13 8.22
6/4/2022 6:30:00 AM 14.89 58.802 0.056 7.11 35.44 8.26
6/4/2022 6:45:00 AM 14.87 58.766 0.053 7.12 27.11 8.31
6/4/2022 7:00:00 AM 14.86 58.748 0.055 7.13 34.47 8.37
6/4/2022 7:15:00 AM 14.87 58.766 0.055 7.14 26.01 8.44
6/4/2022 7:30:00 AM 14.91 58.838 0.054 7.15 24.26 8.51
6/4/2022 7:45:00 AM 14.98 58.964 0.051 7.17 24.89 8.59
6/4/2022 8:00:00 AM 15.07 59.126 0.053 7.19 25.93 8.68
6/4/2022 8:15:00 AM 15.16 59.288 0.056 7.21 31.16 8.76
6/4/2022 8:30:00 AM 15.28 59.504 0.054 7.22 31.21 8.84
6/4/2022 8:45:00 AM 15.43 59.774 0.056 7.24 39.29 8.91
6/4/2022 9:00:00 AM 15.6 60.08 0.055 7.26 33.1 8.98
6/4/2022 9:15:00 AM 15.79 60.422 0.059 7.28 26.52 9.04
6/4/2022 9:30:00 AM 16 60.8 0.056 7.29 29.5 9.09
6/4/2022 9:45:00 AM 16.23 61.214 0.054 7.31 28.32 9.14
6/4/2022 10:00:00 AM 16.47 61.646 0.058 7.31 25.93 9.18
6/4/2022 10:15:00 AM 16.73 62.114 0.057 7.32 30.44 9.23
6/4/2022 10:30:00 AM 17 62.6 0.054 7.34 34.93 9.28
6/4/2022 10:45:00 AM 17.27 63.086 0.058 7.35 28.02 9.32
6/4/2022 11:00:00 AM 17.56 63.608 0.058 7.36 23.41 9.36
6/4/2022 11:15:00 AM 17.85 64.13 0.059 7.37 23.76 9.41
6/4/2022 11:30:00 AM 18.15 64.67 0.061 7.39 27.12 9.43
6/4/2022 11:45:00 AM 18.46 65.228 0.058 7.4 23.54 9.45
6/4/2022 12:00:00 PM 18.74 65.732 0.06 7.41 24.95 9.48
6/4/2022 12:15:00 PM 19.03 66.254 0.061 7.41 24.87 9.52
6/4/2022 12:30:00 PM 19.31 66.758 0.063 7.42 31.83 9.52
6/4/2022 12:45:00 PM 19.58 67.244 0.061 7.43 28.12 9.53
6/4/2022 1:00:00 PM 19.84 67.712 0.061 7.44 24.88 9.55
6/4/2022 1:15:00 PM 20.06 68.108 0.062 7.45 27.9 9.54
6/4/2022 1:30:00 PM 20.31 68.558 0.061 7.46 26.91 9.54
6/4/2022 1:45:00 PM 20.54 68.972 0.061 7.47 25.96 9.54
6/4/2022 2:00:00 PM 20.71 69.278 0.064 7.47 26.7 9.55
6/4/2022 2:15:00 PM 20.89 69.602 0.064 7.48 28.6 9.54
6/4/2022 2:30:00 PM 21.05 69.89 0.064 7.48 32.04 9.53
6/4/2022 2:45:00 PM 21.17 70.106 0.064 7.48 33.16 9.52
6/4/2022 3:00:00 PM 21.28 70.304 0.066 7.48 45.74 9.51
6/4/2022 3:15:00 PM 21.39 70.502 0.065 7.48 26.57 9.52
6/4/2022 3:30:00 PM 21.46 70.628 0.063 7.49 25.65 9.47
6/4/2022 3:45:00 PM 21.48 70.664 0.064 7.49 24.05 9.44
6/4/2022 4:00:00 PM 21.51 70.718 0.066 7.48 26.71 9.42
6/4/2022 4:15:00 PM 21.5 70.7 0.069 7.48 23.74 9.38
6/4/2022 4:30:00 PM 21.46 70.628 0.065 7.48 26.1 9.35
6/4/2022 4:45:00 PM 21.42 70.556 0.066 7.47 24.43 9.3
6/4/2022 5:00:00 PM 21.31 70.358 0.065 7.46 23.78 9.25
6/4/2022 5:15:00 PM 21.21 70.17799 0.068 7.45 26.55 9.21
6/4/2022 5:30:00 PM 21.1 69.98 0.063 7.44 47.67 9.16
6/4/2022 5:45:00 PM 20.95 69.71 0.065 7.43 27.1 9.1
6/4/2022 6:00:00 PM 20.78 69.404 0.065 7.41 22.83 9.05
6/4/2022 6:15:00 PM 20.56 69.008 0.067 7.38 26.35 8.99
6/4/2022 6:30:00 PM 20.32 68.576 0.063 7.36 26.51 8.91
6/4/2022 6:45:00 PM 20.05 68.09 0.067 7.35 25.11 8.84
6/4/2022 7:00:00 PM 19.77 67.586 0.064 7.32 27.21 8.75
6/4/2022 7:15:00 PM 19.45 67.01 0.064 7.29 34.96 8.64
6/4/2022 7:30:00 PM 19.16 66.488 0.063 7.25 35.1 8.56
6/4/2022 7:45:00 PM 18.93 66.074 0.061 7.22 25.79 8.47
6/4/2022 8:00:00 PM 18.73 65.714 0.064 7.19 38.44 8.42
6/4/2022 8:15:00 PM 18.54 65.372 0.063 7.16 33.12 8.35
6/4/2022 8:30:00 PM 18.36 65.048 0.062 7.13 24.4 8.26
6/4/2022 8:45:00 PM 18.2 64.76 0.063 7.12 36.84 8.21
6/4/2022 9:00:00 PM 18.05 64.49 0.062 7.1 33.52 8.15
6/4/2022 9:15:00 PM 17.89 64.202 0.062 7.08 48.22 8.1
6/4/2022 9:30:00 PM 17.74 63.932 0.064 7.07 28.84 8.05
6/4/2022 9:45:00 PM 17.58 63.644 0.06 7.05 51.51 8.01
6/4/2022 10:00:00 PM 17.43 63.374 0.062 7.04 53.03 7.98
6/4/2022 10:15:00 PM 17.3 63.14 0.064 7.03 33.3 7.96
6/4/2022 10:30:00 PM 17.17 62.906 0.061 7.01 27.54 7.93
6/4/2022 10:45:00 PM 17.05 62.69 0.063 7.01 30.6 7.92
6/4/2022 11:00:00 PM 16.92 62.456 0.064 7 33.95 7.91
6/4/2022 11:15:00 PM 16.8 62.24 0.06 7 31.88 7.91
6/4/2022 11:30:00 PM 16.68 62.024 0.063 6.99 28.67 7.92
6/4/2022 11:45:00 PM 16.56 61.808 0.063 6.99 31.26 7.93
6/5/2022 12:00:00 AM 16.43 61.574 0.06 6.99 28.91 7.94
6/5/2022 12:15:00 AM 16.31 61.358 0.061 6.99 29.17 7.94
6/5/2022 12:30:00 AM 16.18 61.124 0.062 6.98 39.92 7.94
6/5/2022 12:45:00 AM 16.09 60.962 0.063 6.98 33.48 7.95
6/5/2022 1:00:00 AM 16.02 60.836 0.061 6.99 34.29 7.97
6/5/2022 1:15:00 AM 15.93 60.674 0.061 7 29.5 7.98
6/5/2022 1:30:00 AM 15.85 60.53 0.064 7.01 52.87 8
6/5/2022 1:45:00 AM 15.78 60.404 0.062 7.02 45.02 8.02
6/5/2022 2:00:00 AM 15.71 60.278 0.065 7.02 31.07 8.03
6/5/2022 2:15:00 AM 15.63 60.134 0.064 7.02 29.67 8
6/5/2022 2:30:00 AM 15.54 59.972 0.063 7.03 33.9 8.06
6/5/2022 2:45:00 AM 15.45 59.81 0.062 7.03 104.47 8.06
6/5/2022 3:00:00 AM 15.35 59.63 0.062 7.02 34.08 8.06
6/5/2022 3:15:00 AM 15.25 59.45 0.064 7.02 31.74 8.07
6/5/2022 3:30:00 AM 15.16 59.288 0.062 7.02 37.01 8.08
6/5/2022 3:45:00 AM 15.08 59.144 0.062 7.02 32.42 8.1
6/5/2022 4:00:00 AM 15.01 59.018 0.065 7.03 37.02 8.11
6/5/2022 4:15:00 AM 14.93 58.874 0.064 7.03 45.76 8.13
6/5/2022 4:30:00 AM 14.86 58.748 0.062 7.04 45.39 8.15
6/5/2022 4:45:00 AM 14.82 58.676 0.066 7.04 376.28 8.16
6/5/2022 5:00:00 AM 14.76 58.568 0.069 7.04 216.52 8.17
6/5/2022 5:15:00 AM 14.71 58.478 0.069 7.05 89.52 8.19
6/5/2022 5:30:00 AM 14.65 58.37 0.069 7.06 44.07 8.21
6/5/2022 5:45:00 AM 14.59 58.262 0.069 7.06 31.61 8.22
6/5/2022 6:00:00 AM 14.53 58.154 0.07 7.06 38.05 8.23
6/5/2022 6:15:00 AM 14.47 58.046 0.071 7.06 35.16 8.26
6/5/2022 6:30:00 AM 14.42 57.956 0.069 7.07 34.53 8.3
6/5/2022 6:45:00 AM 14.39 57.902 0.068 7.06 39.8 8.28
6/5/2022 7:00:00 AM 14.38 57.884 0.068 7.08 79.52 8.41
6/5/2022 7:15:00 AM 14.39 57.902 0.068 7.1 76.99 8.5
6/5/2022 7:30:00 AM 14.43 57.974 0.067 7.12 122.48 8.59
6/5/2022 7:45:00 AM 14.5 58.1 0.063 7.13 71 8.68
6/5/2022 8:00:00 AM 14.55 58.19 0.07 7.16 62.18 8.78
6/5/2022 8:15:00 AM 14.6 58.28 0.067 7.17 40.69 8.86
6/5/2022 8:30:00 AM 14.66 58.388 0.069 7.19 55.01 8.93
6/5/2022 8:45:00 AM 14.72 58.496 0.067 7.2 104.17 8.99
6/5/2022 9:00:00 AM 14.8 58.64 0.068 7.21 62.37 9.06
6/5/2022 9:15:00 AM 15.02 59.036 0.069 7.23 41.15 9.15
6/5/2022 9:30:00 AM 15.1 59.18 0.072 7.25 79.75 9.21
6/5/2022 9:45:00 AM 15.19 59.342 0.071 7.26 73.95 9.26
6/5/2022 10:00:00 AM 15.35 59.63 0.071 7.27 51.81 9.32
6/5/2022 10:15:00 AM 15.55 59.99 0.071 7.28 52.46 9.38
6/5/2022 10:30:00 AM 15.74 60.332 0.069 7.3 58.21 9.45
6/5/2022 10:45:00 AM 15.97 60.746 0.074 7.31 55.96 9.5
6/5/2022 11:00:00 AM 16.34 61.412 0.069 7.32 29.7 9.54
6/5/2022 11:15:00 AM 16.7 62.06 0.071 7.34 31.97 9.59
6/5/2022 11:30:00 AM 16.96 62.528 0.07 7.35 32.34 9.63
6/5/2022 11:45:00 AM 17.31 63.158 0.073 7.36 28.59 9.66
6/5/2022 12:00:00 PM 17.66 63.788 0.072 7.37 27.89 9.69
6/5/2022 12:15:00 PM 17.92 64.256 0.072 7.39 25.51 9.71
6/5/2022 12:30:00 PM 18.17 64.706 0.073 7.4 29.54 9.72
6/5/2022 12:45:00 PM 18.31 64.958 0.07 7.41 28.04 9.71
6/5/2022 1:00:00 PM 18.59 65.462 0.073 7.41 28.96 9.73
6/5/2022 1:15:00 PM 18.82 65.876 0.072 7.42 30.03 9.74
6/5/2022 1:30:00 PM 19.09 66.362 0.072 7.43 26.12 9.75
6/5/2022 1:45:00 PM 19.16 66.488 0.072 7.43 34.28 9.74
6/5/2022 2:00:00 PM 19.44 66.992 0.072 7.44 29.59 9.75
6/5/2022 2:15:00 PM 19.76 67.568 0.073 7.44 29.05 9.76
6/5/2022 2:30:00 PM 19.95 67.91 0.072 7.45 32.61 9.75
6/5/2022 2:45:00 PM 20.06 68.108 0.073 7.45 33.73 9.75
6/5/2022 3:00:00 PM 20.28 68.504 0.07 7.46 26.34 9.73
6/5/2022 3:15:00 PM 20.39 68.702 0.072 7.46 24.73 9.72
6/5/2022 3:30:00 PM 20.39 68.702 0.071 7.46 28.39 9.67
6/5/2022 3:45:00 PM 20.52 68.936 0.072 7.46 32.76 9.64
6/5/2022 4:00:00 PM 20.6 69.08 0.073 7.45 28.39 9.62
6/5/2022 4:15:00 PM 20.63 69.134 0.073 7.45 29.45 9.59
6/5/2022 4:30:00 PM 20.66 69.188 0.071 7.45 25.35 9.56
6/5/2022 4:45:00 PM 20.67 69.206 0.072 7.44 25.33 9.52
6/5/2022 5:00:00 PM 20.69 69.242 0.073 7.43 26.83 9.46
6/5/2022 5:15:00 PM 20.64 69.152 0.073 7.43 29.06 9.42
6/5/2022 5:30:00 PM 20.56 69.008 0.073 7.42 29.1 9.37
6/5/2022 5:45:00 PM 20.43 68.774 0.072 7.41 27.65 9.31
6/5/2022 6:00:00 PM 20.25 68.45 0.072 7.39 27.83 9.25
6/5/2022 6:15:00 PM 20.06 68.108 0.07 7.38 29.44 9.18
6/5/2022 6:30:00 PM 19.84 67.712 0.073 7.37 27.03 9.1
6/5/2022 6:45:00 PM 19.62 67.316 0.069 7.35 27.69 9.04
6/5/2022 7:00:00 PM 19.37 66.866 0.07 7.33 30.52 8.95
6/5/2022 7:15:00 PM 19.07 66.326 0.071 7.32 32.37 8.85
6/5/2022 7:30:00 PM 18.8 65.84 0.069 7.29 29.85 8.76
6/5/2022 7:45:00 PM 18.51 65.318 0.069 7.27 26.1 8.68
6/5/2022 8:00:00 PM 18.29 64.922 0.066 7.23 29.7 8.6
6/5/2022 8:15:00 PM 18.09 64.562 0.068 7.2 25.01 8.53
6/5/2022 8:30:00 PM 17.9 64.22 0.065 7.17 48.81 8.45
6/5/2022 8:45:00 PM 17.74 63.932 0.066 7.15 32.75 8.39
6/5/2022 9:00:00 PM 17.58 63.644 0.066 7.13 28.27 8.33
6/5/2022 9:15:00 PM 17.41 63.338 0.065 7.11 31.08 8.29
6/5/2022 9:30:00 PM 17.26 63.068 0.07 7.09 28.12 8.23
6/5/2022 9:45:00 PM 17.11 62.798 0.067 7.07 33.61 8.18
6/5/2022 10:00:00 PM 16.97 62.546 0.065 7.06 30.21 8.15
6/5/2022 10:15:00 PM 16.84 62.312 0.065 7.05 26.22 8.12
6/5/2022 10:30:00 PM 16.72 62.096 0.065 7.04 34.46 8.11
6/5/2022 10:45:00 PM 16.61 61.898 0.067 7.04 34.22 8.08
6/5/2022 11:00:00 PM 16.5 61.7 0.066 7.03 41.96 8.07
6/5/2022 11:15:00 PM 16.4 61.52 0.066 7.03 39.1 8.07
6/5/2022 11:30:00 PM 16.31 61.358 0.068 7.03 37.07 8.06
6/5/2022 11:45:00 PM 16.21 61.178 0.065 7.03 28.21 8.06
6/6/2022 12:00:00 AM 16.12 61.016 0.067 7.03 60.24 8.06
6/6/2022 12:15:00 AM 16.03 60.854 0.064 7.02 29.01 8.05
6/6/2022 12:30:00 AM 15.94 60.692 0.065 7.02 40.67 8.04
6/6/2022 12:45:00 AM 15.84 60.512 0.066 7.01 40.71 8.04
6/6/2022 1:00:00 AM 15.75 60.35 0.066 7.01 35.06 8.05
6/6/2022 1:15:00 AM 15.66 60.188 0.064 7.01 37.79 8.06
6/6/2022 1:30:00 AM 15.57 60.026 0.065 7.01 30.03 8.07
6/6/2022 1:45:00 AM 15.47 59.846 0.066 7.01 35.56 8.09
6/6/2022 2:00:00 AM 15.39 59.702 0.065 7 29.82 8.07
6/6/2022 2:15:00 AM 15.33 59.594 0.062 7.01 28.88 8.08
6/6/2022 2:30:00 AM 15.24 59.432 0.063 7.01 40.76 8.11
6/6/2022 2:45:00 AM 15.14 59.252 0.064 7.02 27.02 8.14
6/6/2022 3:00:00 AM 15.05 59.09 0.062 7.02 38.45 8.16
6/6/2022 3:15:00 AM 14.97 58.946 0.064 7.02 28.42 8.17
6/6/2022 3:30:00 AM 14.88 58.784 0.065 7.02 39.89 8.19
6/6/2022 3:45:00 AM 14.81 58.658 0.066 7.02 35.91 8.19
6/6/2022 4:00:00 AM 14.73 58.514 0.067 7.02 26.34 8.21
6/6/2022 4:15:00 AM 14.66 58.388 0.064 7.01 32.47 8.14
6/6/2022 4:30:00 AM 14.6 58.28 0.065 7.01 31.17 8.17
6/6/2022 4:45:00 AM 14.54 58.172 0.067 7.03 46.75 8.23
6/6/2022 5:00:00 AM 14.47 58.046 0.061 7.04 33.5 8.25
6/6/2022 5:15:00 AM 14.41 57.938 0.064 7.04 39.8 8.27
6/6/2022 5:30:00 AM 14.36 57.848 0.065 7.04 36.82 8.28
6/6/2022 5:45:00 AM 14.31 57.758 0.063 7.05 38.25 8.3
6/6/2022 6:00:00 AM 14.28 57.704 0.066 7.04 26.95 8.25
6/6/2022 6:15:00 AM 14.28 57.704 0.064 7.04 32.94 8.26
6/6/2022 6:30:00 AM 14.27 57.686 0.066 7.05 25.51 8.32
6/6/2022 6:45:00 AM 14.27 57.686 0.065 7.07 37.12 8.38
6/6/2022 7:00:00 AM 14.27 57.686 0.066 7.09 44.47 8.49
6/6/2022 7:15:00 AM 14.32 57.776 0.067 7.1 32.56 8.55
6/6/2022 7:30:00 AM 14.42 57.956 0.065 7.11 30.5 8.62
6/6/2022 7:45:00 AM 14.48 58.064 0.065 7.14 32.12 8.73
6/6/2022 8:00:00 AM 14.55 58.19 0.066 7.16 28.06 8.8
6/6/2022 8:15:00 AM 14.72 58.496 0.068 7.18 28.16 8.9
6/6/2022 8:30:00 AM 14.89 58.802 0.068 7.2 26.76 8.99
6/6/2022 8:45:00 AM 15.07 59.126 0.068 7.22 28.11 9.06
6/6/2022 9:00:00 AM 15.16 59.288 0.069 7.23 29.25 9.11
6/6/2022 9:15:00 AM 15.33 59.594 0.067 7.24 26.87 9.15
6/6/2022 9:30:00 AM 15.56 60.008 0.069 7.25 33.89 9.2
6/6/2022 9:45:00 AM 15.74 60.332 0.069 7.26 28.16 9.24
6/6/2022 10:00:00 AM 15.89 60.602 0.07 7.28 33.73 9.29
6/6/2022 10:15:00 AM 16.1 60.98 0.067 7.28 27.8 9.32
6/6/2022 10:30:00 AM 16.43 61.574 0.071 7.3 25.83 9.37
6/6/2022 10:45:00 AM 16.48 61.664 0.07 7.3 27.54 9.38
6/6/2022 11:00:00 AM 16.53 61.754 0.07 7.31 29.52 9.38
6/6/2022 11:15:00 AM 16.92 62.456 0.07 7.32 39.3 9.43
6/6/2022 11:30:00 AM 17.25 63.05 0.075 7.33 38 9.48
6/6/2022 11:45:00 AM 17.23 63.014 0.073 7.33 29.17 9.47
6/6/2022 12:00:00 PM 17.41 63.338 0.073 7.34 25.84 9.48
6/6/2022 12:15:00 PM 17.82 64.076 0.071 7.35 27.6 9.54
6/6/2022 12:30:00 PM 18.28 64.904 0.072 7.36 27.28 9.58
6/6/2022 12:45:00 PM 18.41 65.138 0.072 7.37 86.15 9.59
6/6/2022 1:00:00 PM 18.71 65.67799 0.074 7.38 26.63 9.61
6/6/2022 1:15:00 PM 19.29 66.722 0.077 7.39 24.94 9.66
6/6/2022 1:30:00 PM 19.53 67.154 0.075 7.4 27.27 9.64
6/6/2022 1:45:00 PM 19.92 67.856 0.076 7.4 29.18 9.67
6/6/2022 2:00:00 PM 20.23 68.414 0.075 7.41 27.61 9.67
6/6/2022 2:15:00 PM 20.52 68.936 0.076 7.42 25.36 9.65
6/6/2022 2:30:00 PM 20.8 69.44 0.076 7.43 26.9 9.63
6/6/2022 2:45:00 PM 21.06 69.908 0.078 7.44 35.14 9.63
6/6/2022 3:00:00 PM 21.2 70.16 0.08 7.45 30.55 9.59
6/6/2022 3:15:00 PM 21.36 70.448 0.076 7.45 38.97 9.59
6/6/2022 3:30:00 PM 21.55 70.79 0.076 7.46 27.44 9.57
6/6/2022 3:45:00 PM 21.56 70.808 0.079 7.46 27.7 9.53
6/6/2022 4:00:00 PM 21.46 70.628 0.076 7.46 84.1 9.46
6/6/2022 4:15:00 PM 21.53 70.754 0.076 7.45 28.81 9.46
6/6/2022 4:30:00 PM 21.42 70.556 0.076 7.45 30.52 9.42
6/6/2022 4:45:00 PM 21.23 70.214 0.079 7.44 27.6 9.38
6/6/2022 5:00:00 PM 21.17 70.106 0.079 7.44 25.35 9.33
6/6/2022 5:15:00 PM 21.05 69.89 0.076 7.43 27.12 9.3
6/6/2022 5:30:00 PM 20.91 69.638 0.075 7.42 27.01 9.25
6/6/2022 5:45:00 PM 20.72 69.296 0.074 7.41 28.69 9.19
6/6/2022 6:00:00 PM 20.52 68.936 0.075 7.4 29.61 9.13
6/6/2022 6:15:00 PM 20.33 68.594 0.074 7.38 26.02 9.04
6/6/2022 6:30:00 PM 20.17 68.306 0.073 7.36 78.94 8.99
6/6/2022 6:45:00 PM 19.94 67.892 0.071 7.34 30.35 8.92
6/6/2022 7:00:00 PM 19.73 67.514 0.07 7.33 33.75 8.84
6/6/2022 7:15:00 PM 19.52 67.136 0.07 7.3 30.93 8.76
6/6/2022 7:30:00 PM 19.32 66.776 0.068 7.28 28.53 8.66
6/6/2022 7:45:00 PM 19.13 66.434 0.07 7.25 28.93 8.57
6/6/2022 8:00:00 PM 18.95 66.11 0.067 7.23 31.16 8.48
6/6/2022 8:15:00 PM 18.77 65.786 0.071 7.19 36.09 8.39
6/6/2022 8:30:00 PM 18.57 65.426 0.067 7.17 39.31 8.31
6/6/2022 8:45:00 PM 18.38 65.084 0.067 7.16 33.06 8.23
6/6/2022 9:00:00 PM 18.23 64.814 0.067 7.15 29.57 8.15
6/6/2022 9:15:00 PM 18.09 64.562 0.068 7.13 34.52 8.09
6/6/2022 9:30:00 PM 17.98 64.364 0.069 7.11 32.26 8.05
6/6/2022 9:45:00 PM 17.9 64.22 0.068 7.09 29.71 8
6/6/2022 10:00:00 PM 17.8 64.04 0.067 7.07 32.18 7.95
6/6/2022 10:15:00 PM 17.7 63.86 0.069 7.07 32.85 7.94
6/6/2022 10:30:00 PM 17.61 63.698 0.065 7.06 42.57 7.91
6/6/2022 10:45:00 PM 17.54 63.572 0.066 7.05 31.4 7.89
6/6/2022 11:00:00 PM 17.46 63.428 0.066 7.05 38.26 7.86
6/6/2022 11:15:00 PM 17.37 63.266 0.065 7.05 33.64 7.86
6/6/2022 11:30:00 PM 17.31 63.158 0.068 7.04 33.81 7.85
6/6/2022 11:45:00 PM 17.24 63.032 0.067 7.04 32.8 7.83
6/7/2022 12:00:00 AM 17.17 62.906 0.069 7.04 34.9 7.83
6/7/2022 12:15:00 AM 17.1 62.78 0.065 7.04 29.35 7.83
6/7/2022 12:30:00 AM 17.03 62.654 0.068 7.04 31.56 7.81
6/7/2022 12:45:00 AM 16.96 62.528 0.069 7.04 32.77 7.8
6/7/2022 1:00:00 AM 16.9 62.42 0.064 7.04 43.66 7.82
6/7/2022 1:15:00 AM 16.84 62.312 0.069 7.04 29.9 7.82
6/7/2022 1:30:00 AM 16.78 62.204 0.068 7.04 46.34 7.82
6/7/2022 1:45:00 AM 16.73 62.114 0.066 7.05 58.24 7.82
6/7/2022 2:00:00 AM 16.66 61.988 0.067 7.05 41.53 7.82
6/7/2022 2:15:00 AM 16.6 61.88 0.069 7.04 34.18 7.82
6/7/2022 2:30:00 AM 16.53 61.754 0.07 7.05 129.18 7.84
6/7/2022 2:45:00 AM 16.46 61.628 0.068 7.05 37.27 7.85
6/7/2022 3:00:00 AM 16.39 61.502 0.07 7.05 35.7 7.86
6/7/2022 3:15:00 AM 16.33 61.394 0.069 7.05 37.69 7.87
6/7/2022 3:30:00 AM 16.26 61.268 0.067 7.05 35.82 7.88
6/7/2022 3:45:00 AM 16.19 61.142 0.065 7.05 28.84 7.89
6/7/2022 4:00:00 AM 16.14 61.052 0.067 7.05 33.13 7.9
6/7/2022 4:15:00 AM 16.08 60.944 0.07 7.05 29.88 7.9
6/7/2022 4:30:00 AM 16.03 60.854 0.067 7.05 68.3 7.91
6/7/2022 4:45:00 AM 15.98 60.764 0.067 7.05 30.49 7.92
6/7/2022 5:00:00 AM 15.92 60.656 0.07 7.05 48.31 7.9
6/7/2022 5:15:00 AM 15.88 60.584 0.07 7.05 34 7.91
6/7/2022 5:30:00 AM 15.86 60.548 0.07 7.05 35.73 7.92
6/7/2022 5:45:00 AM 15.83 60.494 0.068 7.06 31.58 7.93
6/7/2022 6:00:00 AM 15.81 60.458 0.07 7.06 67.07 7.95
6/7/2022 6:15:00 AM 15.8 60.44 0.068 7.06 36.74 7.97
6/7/2022 6:30:00 AM 15.79 60.422 0.069 7.07 33.66 8
6/7/2022 6:45:00 AM 15.81 60.458 0.069 7.08 32.53 8.02
6/7/2022 7:00:00 AM 15.82 60.476 0.068 7.09 45.34 8.06
6/7/2022 7:15:00 AM 15.84 60.512 0.067 7.09 110.27 8.1
6/7/2022 7:30:00 AM 15.88 60.584 0.071 7.1 40.19 8.18
6/7/2022 7:45:00 AM 15.91 60.638 0.071 7.11 32.93 8.23
6/7/2022 8:00:00 AM 15.93 60.674 0.07 7.12 36.56 8.25
6/7/2022 8:15:00 AM 15.91 60.638 0.069 7.13 38.41 8.27
6/7/2022 8:30:00 AM 15.91 60.638 0.069 7.13 45 8.25
6/7/2022 8:45:00 AM 15.94 60.692 0.069 7.13 30.16 8.32
6/7/2022 9:00:00 AM 15.97 60.746 0.069 7.15 34.71 8.4
6/7/2022 9:15:00 AM 16.01 60.818 0.069 7.15 30.01 8.43
6/7/2022 9:30:00 AM 16.09 60.962 0.071 7.17 32.63 8.52
6/7/2022 9:45:00 AM 16.13 61.034 0.07 7.17 28.5 8.58
6/7/2022 10:00:00 AM 16.15 61.07 0.068 7.18 29.67 8.6
6/7/2022 10:15:00 AM 16.2 61.16 0.07 7.19 37.34 8.64
6/7/2022 10:30:00 AM 16.21 61.178 0.067 7.2 76.68 8.65
6/7/2022 10:45:00 AM 16.2 61.16 0.069 7.2 33.47 8.62
6/7/2022 11:00:00 AM 16.21 61.178 0.069 7.19 36.83 8.54
6/7/2022 11:15:00 AM 16.27 61.286 0.068 7.19 36.14 8.55
6/7/2022 11:30:00 AM 16.26 61.268 0.066 7.19 62.56 8.56
6/7/2022 11:45:00 AM 16.18 61.124 0.068 7.19 30.07 8.54
6/7/2022 12:00:00 PM 16.24 61.232 0.068 7.18 39.92 8.49
6/7/2022 12:15:00 PM 16.32 61.376 0.066 7.17 38.47 8.47
6/7/2022 12:30:00 PM 16.41 61.538 0.065 7.18 63 8.53
6/7/2022 12:45:00 PM 16.39 61.502 0.065 7.18 40.45 8.57
6/7/2022 1:00:00 PM 16.45 61.61 0.066 7.18 38.42 8.55
6/7/2022 1:15:00 PM 16.5 61.7 0.066 7.17 35.15 8.57
6/7/2022 1:30:00 PM 16.46 61.628 0.069 7.18 32.99 8.58
6/7/2022 1:45:00 PM 16.48 61.664 0.069 7.17 32.74 8.61
6/7/2022 2:00:00 PM 16.56 61.808 0.071 7.18 53.36 8.67
6/7/2022 2:15:00 PM 16.69 62.042 0.072 7.19 32.3 8.73
6/7/2022 2:30:00 PM 16.72 62.096 0.067 7.2 45.81 8.75
6/7/2022 2:45:00 PM 16.69 62.042 0.067 7.2 53.55 8.72
6/7/2022 3:00:00 PM 16.69 62.042 0.07 7.2 35.3 8.72
6/7/2022 3:15:00 PM 16.74 62.132 0.066 7.2 28.08 8.77
6/7/2022 3:30:00 PM 16.79 62.222 0.067 7.21 40.55 8.81
6/7/2022 3:45:00 PM 16.76 62.168 0.067 7.21 29.72 8.81
6/7/2022 4:00:00 PM 16.75 62.15 0.068 7.21 51.09 8.79
6/7/2022 4:15:00 PM 16.73 62.114 0.068 7.21 28.83 8.77
6/7/2022 4:30:00 PM 16.72 62.096 0.064 7.21 29.34 8.76
6/7/2022 4:45:00 PM 16.78 62.204 0.068 7.21 26.24 8.81
6/7/2022 5:00:00 PM 16.81 62.258 0.067 7.22 34.9 8.83
6/7/2022 5:15:00 PM 17.09 62.762 0.068 7.23 66.9 8.9
6/7/2022 5:30:00 PM 17.07 62.726 0.069 7.23 74.06 8.91
6/7/2022 5:45:00 PM 17.17 62.906 0.067 7.24 54.22 8.95
6/7/2022 6:00:00 PM 17.24 63.032 0.066 7.26 53.22 8.97
6/7/2022 6:15:00 PM 17.18 62.924 0.068 7.25 31.68 8.87
6/7/2022 6:30:00 PM 17.19 62.942 0.067 7.25 54.77 8.83
6/7/2022 6:45:00 PM 17.17 62.906 0.066 7.25 47.03 8.83
6/7/2022 7:00:00 PM 17.04 62.672 0.066 7.25 48.34 8.77
6/7/2022 7:15:00 PM 16.93 62.474 0.065 7.25 41.89 8.74
6/7/2022 7:30:00 PM 16.87 62.366 0.069 7.25 41.24 8.68
6/7/2022 7:45:00 PM 16.8 62.24 0.067 7.24 53.21 8.61
6/7/2022 8:00:00 PM 16.74 62.132 0.064 7.23 32.42 8.53
6/7/2022 8:15:00 PM 16.68 62.024 0.066 7.21 31.88 8.45
6/7/2022 8:30:00 PM 16.65 61.97 0.066 7.2 35.23 8.39
6/7/2022 8:45:00 PM 16.62 61.916 0.065 7.19 56.67 8.34
6/7/2022 9:00:00 PM 16.6 61.88 0.065 7.19 98.14 8.28
6/7/2022 9:15:00 PM 16.59 61.862 0.067 7.18 40.41 8.26
6/7/2022 9:30:00 PM 16.61 61.898 0.064 7.2 54.47 8.29
6/7/2022 9:45:00 PM 17.22 62.996 0.062 7.27 95.88 8.26
6/7/2022 10:00:00 PM 16.81 62.258 0.065 7.22 72.65 8.16
6/7/2022 10:15:00 PM 16.49 61.682 0.065 7.2 82.1 8.19
6/7/2022 10:30:00 PM 16.54 61.772 0.063 7.16 98.96 8.12
6/7/2022 10:45:00 PM 16.65 61.97 0.065 7.16 89.04 8.08
6/7/2022 11:00:00 PM 16.66 61.988 0.062 7.17 63.46 8.05
6/7/2022 11:15:00 PM 16.61 61.898 0.063 7.16 93.18 8.03
6/7/2022 11:30:00 PM 16.57 61.826 0.064 7.16 64.5 8.02
6/7/2022 11:45:00 PM 16.51 61.718 0.063 7.15 76.9 8.01
6/8/2022 12:00:00 AM 16.44 61.592 0.062 7.15 57.61 8.02
6/8/2022 12:15:00 AM 16.38 61.484 0.062 7.14 62.15 8.02
6/8/2022 12:30:00 AM 16.32 61.376 0.063 7.14 45.46 8.03
6/8/2022 12:45:00 AM 16.24 61.232 0.062 7.13 71.72 8.04
6/8/2022 1:00:00 AM 16.21 61.178 0.06 7.14 89.63 8.04
6/8/2022 1:15:00 AM 16.17 61.106 0.061 7.13 67.01 8.06
6/8/2022 1:30:00 AM 16.1 60.98 0.062 7.14 68.79 8.08
6/8/2022 1:45:00 AM 16.07 60.926 0.063 7.14 115.31 8.1
6/8/2022 2:00:00 AM 16.07 60.926 0.065 7.15 59.08 8.1
6/8/2022 2:15:00 AM 16.06 60.908 0.062 7.14 56.51 8.08
6/8/2022 2:30:00 AM 16.02 60.836 0.061 7.16 39.65 8.12
6/8/2022 2:45:00 AM 15.9 60.62 0.063 7.16 66.66 8.19
6/8/2022 3:00:00 AM 15.87 60.566 0.062 7.17 40.46 8.21
6/8/2022 3:15:00 AM 15.87 60.566 0.063 7.17 52.45 8.21
6/8/2022 3:30:00 AM 15.86 60.548 0.063 7.18 77.77 8.21
6/8/2022 3:45:00 AM 15.83 60.494 0.061 7.19 197.76 8.2
6/8/2022 4:00:00 AM 15.81 60.458 0.063 7.19 108.7 8.19
6/8/2022 4:15:00 AM 15.79 60.422 0.061 7.19 66.93 8.19
6/8/2022 4:30:00 AM 15.77 60.386 0.06 7.2 48.29 8.18
6/8/2022 4:45:00 AM 15.74 60.332 0.062 7.19 42.81 8.17
6/8/2022 5:00:00 AM 15.72 60.296 0.061 7.2 59.18 8.18
6/8/2022 5:15:00 AM 15.7 60.26 0.063 7.19 54.14 8.16
6/8/2022 5:30:00 AM 15.69 60.242 0.06 7.19 40.98 8.14
6/8/2022 5:45:00 AM 15.67 60.206 0.06 7.19 47.72 8.14
6/8/2022 6:00:00 AM 15.67 60.206 0.06 7.2 44.18 8.15
6/8/2022 6:15:00 AM 15.69 60.242 0.06 7.21 56.88 8.18
6/8/2022 6:30:00 AM 15.71 60.278 0.06 7.23 240.42 8.21
6/8/2022 6:45:00 AM 15.77 60.386 0.06 7.24 87.77 8.26
6/8/2022 7:00:00 AM 15.81 60.458 0.058 7.25 44.99 8.3
6/8/2022 7:15:00 AM 15.84 60.512 0.06 7.26 75.01 8.34
6/8/2022 7:30:00 AM 15.91 60.638 0.059 7.27 75.11 8.41
6/8/2022 7:45:00 AM 15.99 60.782 0.063 7.29 55.3 8.47
6/8/2022 8:00:00 AM 16.06 60.908 0.061 7.3 93.03 8.52
6/8/2022 8:15:00 AM 16.13 61.034 0.06 7.31 42.48 8.59
6/8/2022 8:30:00 AM 16.21 61.178 0.059 7.33 34.67 8.64
6/8/2022 8:45:00 AM 16.28 61.304 0.059 7.33 80.39 8.68
6/8/2022 9:00:00 AM 16.37 61.466 0.059 7.35 92.56 8.72
6/8/2022 9:15:00 AM 16.49 61.682 0.063 7.35 49.04 8.76
6/8/2022 9:30:00 AM 16.59 61.862 0.063 7.36 42.47 8.8
6/8/2022 9:45:00 AM 16.71 62.078 0.06 7.38 49.9 8.82
6/8/2022 10:00:00 AM 16.86 62.348 0.063 7.39 43.66 8.86
6/8/2022 10:15:00 AM 16.93 62.474 0.06 7.4 50.47 8.86
6/8/2022 10:30:00 AM 17.06 62.708 0.06 7.4 52.43 8.87
6/8/2022 10:45:00 AM 17.24 63.032 0.062 7.41 47.14 8.88
6/8/2022 11:00:00 AM 17.46 63.428 0.061 7.43 62.46 8.9
6/8/2022 11:15:00 AM 17.62 63.716 0.063 7.43 53.47 8.9
6/8/2022 11:30:00 AM 17.76 63.968 0.061 7.44 44.34 8.92
6/8/2022 11:45:00 AM 17.98 64.364 0.061 7.45 80.86 8.93
6/8/2022 12:00:00 PM 18.2 64.76 0.063 7.46 47.74 8.96
6/8/2022 12:15:00 PM 18.38 65.084 0.061 7.47 59.49 8.98
6/8/2022 12:30:00 PM 18.59 65.462 0.065 7.48 58.9 9
6/8/2022 12:45:00 PM 18.8 65.84 0.063 7.49 53.22 9.01
6/8/2022 1:00:00 PM 19.06 66.308 0.059 7.49 78.2 9.02
6/8/2022 1:15:00 PM 19.26 66.668 0.063 7.5 93.37 9.03
6/8/2022 1:30:00 PM 19.47 67.046 0.064 7.51 72.78 9.03
6/8/2022 1:45:00 PM 19.64 67.352 0.06 7.52 61.25 9.04
6/8/2022 2:00:00 PM 19.8 67.64 0.064 7.52 62.24 9.03
6/8/2022 2:15:00 PM 19.94 67.892 0.064 7.53 49.78 9.04
6/8/2022 2:30:00 PM 20.03 68.054 0.065 7.53 50 9.03
6/8/2022 2:45:00 PM 20.12 68.216 0.063 7.54 45.63 9.03
6/8/2022 3:00:00 PM 20.2 68.36 0.064 7.54 48.71 9.02
6/8/2022 3:15:00 PM 20.28 68.504 0.064 7.54 87.47 9.02
6/8/2022 3:30:00 PM 20.36 68.648 0.063 7.54 53.87 9.01
6/8/2022 3:45:00 PM 20.43 68.774 0.063 7.54 57.42 8.99
6/8/2022 4:00:00 PM 20.48 68.864 0.067 7.53 44.68 8.97
6/8/2022 4:15:00 PM 20.54 68.972 0.063 7.53 44.84 8.96
6/8/2022 4:30:00 PM 20.57 69.026 0.063 7.52 47.52 8.92
6/8/2022 4:45:00 PM 20.59 69.062 0.064 7.52 49.09 8.9
6/8/2022 5:00:00 PM 20.61 69.098 0.064 7.52 47.04 8.86
6/8/2022 5:15:00 PM 20.56 69.008 0.062 7.51 39.2 8.82
6/8/2022 5:30:00 PM 20.49 68.882 0.065 7.5 53.35 8.76
6/8/2022 5:45:00 PM 20.42 68.756 0.06 7.49 34.91 8.72
6/8/2022 6:00:00 PM 20.26 68.468 0.06 7.47 37.95 8.67
6/8/2022 6:15:00 PM 20.13 68.234 0.059 7.46 81.09 8.61
6/8/2022 6:30:00 PM 19.96 67.92799 0.059 7.45 94.83 8.56
6/8/2022 6:45:00 PM 19.83 67.694 0.06 7.43 88.46 8.52
6/8/2022 7:00:00 PM 19.66 67.388 0.058 7.42 84.16 8.44
6/8/2022 7:15:00 PM 19.53 67.154 0.062 7.4 78.9 8.4
6/8/2022 7:30:00 PM 19.43 66.974 0.06 7.39 88.19 8.36
6/8/2022 7:45:00 PM 19.32 66.776 0.059 7.37 65.03 8.29
6/8/2022 8:00:00 PM 19.21 66.578 0.061 7.35 40.4 8.24
6/8/2022 8:15:00 PM 19.1 66.38 0.062 7.33 45.36 8.17
6/8/2022 8:30:00 PM 18.99 66.182 0.059 7.31 38.83 8.12
6/8/2022 8:45:00 PM 18.89 66.002 0.058 7.29 58.71 8.06
6/8/2022 9:00:00 PM 18.8 65.84 0.059 7.28 46.76 8.01
6/8/2022 9:15:00 PM 18.71 65.67799 0.058 7.25 57.98 7.97
6/8/2022 9:30:00 PM 18.62 65.516 0.06 7.23 43.7 7.94
6/8/2022 9:45:00 PM 18.54 65.372 0.059 7.21 83.04 7.9
6/8/2022 10:00:00 PM 18.45 65.21 0.059 7.19 112.28 7.88
6/8/2022 10:15:00 PM 18.39 65.102 0.059 7.18 51.46 7.87
6/8/2022 10:30:00 PM 18.3 64.94 0.062 7.18 65.47 7.88
6/8/2022 10:45:00 PM 18.25 64.85 0.058 7.19 70.92 7.91
6/8/2022 11:00:00 PM 18.69 65.642 0.061 7.22 121.43 7.96
6/8/2022 11:15:00 PM 18.68 65.624 0.058 7.25 76.52 7.98
6/8/2022 11:30:00 PM 18.23 64.814 0.058 7.22 96.4 7.98
6/8/2022 11:45:00 PM 18.33 64.994 0.059 7.2 74.98 7.98
6/9/2022 12:00:00 AM 18.3 64.94 0.057 7.19 103.35 7.96
6/9/2022 12:15:00 AM 18.18 64.724 0.056 7.18 124.54 7.95
6/9/2022 12:30:00 AM 18.12 64.616 0.058 7.17 86.51 7.92
6/9/2022 12:45:00 AM 18 64.4 0.058 7.14 132.36 7.9
6/9/2022 1:00:00 AM 17.84 64.112 0.058 7.13 115.33 7.9
6/9/2022 1:15:00 AM 17.72 63.896 0.058 7.11 92.47 7.91
6/9/2022 1:30:00 AM 17.61 63.698 0.058 7.11 73.69 7.91
6/9/2022 1:45:00 AM 17.46 63.428 0.059 7.11 83.8 7.94
6/9/2022 2:00:00 AM 17.32 63.176 0.059 7.11 101.05 7.94
6/9/2022 2:15:00 AM 17.25 63.05 0.059 7.11 84.12 7.98
6/9/2022 2:30:00 AM 17.22 62.996 0.057 7.12 72.11 7.98
6/9/2022 2:45:00 AM 17.19 62.942 0.057 7.13 89.71 7.98
6/9/2022 3:00:00 AM 17.13 62.834 0.059 7.14 245.78 7.99
6/9/2022 3:15:00 AM 16.94 62.492 0.059 7.14 156.56 8.08
6/9/2022 3:30:00 AM 16.92 62.456 0.061 7.14 104.29 8.08
6/9/2022 3:45:00 AM 16.95 62.51 0.058 7.16 165.26 8.08
6/9/2022 4:00:00 AM 17 62.6 0.061 7.17 172.28 8.05
6/9/2022 4:15:00 AM 17.04 62.672 0.06 7.19 139.41 8.02
6/9/2022 4:30:00 AM 17.07 62.726 0.06 7.2 167.34 7.97
6/9/2022 4:45:00 AM 17.11 62.798 0.062 7.22 91.3 7.93
6/9/2022 5:00:00 AM 17.17 62.906 0.063 7.23 132.66 7.89
6/9/2022 5:15:00 AM 17.23 63.014 0.064 7.24 121.81 7.86
6/9/2022 5:30:00 AM 17.29 63.122 0.063 7.25 97.4 7.85
6/9/2022 5:45:00 AM 17.34 63.212 0.062 7.26 89.56 7.83
6/9/2022 6:00:00 AM 17.38 63.284 0.062 7.27 196.12 7.85
6/9/2022 6:15:00 AM 17.42 63.356 0.061 7.28 141.23 7.84
6/9/2022 6:30:00 AM 17.43 63.374 0.065 7.29 82.02 7.85
6/9/2022 6:45:00 AM 17.43 63.374 0.062 7.3 100.08 7.88
6/9/2022 7:00:00 AM 17.44 63.392 0.064 7.3 80.4 7.89
6/9/2022 7:15:00 AM 17.44 63.392 0.063 7.3 76.16 7.9
6/9/2022 7:30:00 AM 17.43 63.374 0.063 7.3 119.03 7.91
6/9/2022 7:45:00 AM 17.42 63.356 0.061 7.3 78.49 7.94
6/9/2022 8:00:00 AM 17.39 63.302 0.073 7.31 146.53 7.95
6/9/2022 8:15:00 AM 17.38 63.284 0.069 7.3 164.08 7.95
6/9/2022 8:30:00 AM 17.4 63.32 0.069 7.31 131.63 8
6/9/2022 8:45:00 AM 17.41 63.338 0.068 7.31 76.19 8.02
6/9/2022 9:00:00 AM 17.4 63.32 0.068 7.31 143.46 8.03
6/9/2022 9:15:00 AM 17.38 63.284 0.069 7.31 92.79 8.03
6/9/2022 9:30:00 AM 17.37 63.266 0.069 7.3 69.42 8.03
6/9/2022 9:45:00 AM 17.35 63.23 0.067 7.3 52.85 8.05
6/9/2022 10:00:00 AM 17.4 63.32 0.065 7.31 108.32 8.09
6/9/2022 10:15:00 AM 17.48 63.464 0.065 7.32 62.6 8.13
6/9/2022 10:30:00 AM 17.45 63.41 0.064 7.32 101.85 8.14
6/9/2022 10:45:00 AM 17.43 63.374 0.064 7.32 341.66 8.16
6/9/2022 11:00:00 AM 17.41 63.338 0.065 7.32 137.75 8.18
6/9/2022 11:15:00 AM 17.39 63.302 0.064 7.32 141.65 8.2
6/9/2022 11:30:00 AM 17.45 63.41 0.065 7.31 184.52 8.25
6/9/2022 11:45:00 AM 17.44 63.392 0.064 7.31 111.77 8.26
6/9/2022 12:00:00 PM 17.39 63.302 0.064 7.31 137.96 8.26
6/9/2022 12:15:00 PM 17.28 63.104 0.064 7.3 137.13 8.24
6/9/2022 12:30:00 PM 17.35 63.23 0.064 7.29 94.71 8.27
6/9/2022 12:45:00 PM 17.37 63.266 0.063 7.3 373.45 8.27
6/9/2022 1:00:00 PM 17.29 63.122 0.066 7.29 228.08 8.24
6/9/2022 1:15:00 PM 17.26 63.068 0.063 7.29 228.31 8.24
6/9/2022 1:30:00 PM 17.2 62.96 0.063 7.29 131.07 8.22
6/9/2022 1:45:00 PM 17.3 63.14 0.061 7.29 272.08 8.24
6/9/2022 2:00:00 PM 17.35 63.23 0.065 7.3 246.94 8.25
6/9/2022 2:15:00 PM 17.43 63.374 0.062 7.3 228.66 8.26
6/9/2022 2:30:00 PM 17.35 63.23 0.065 7.31 149.3 8.24
6/9/2022 2:45:00 PM 17.39 63.302 0.064 7.31 138.98 8.27
6/9/2022 3:00:00 PM 17.49 63.482 0.063 7.31 116.82 8.3
6/9/2022 3:15:00 PM 17.66 63.788 0.064 7.33 95.74 8.35
6/9/2022 3:30:00 PM 17.75 63.95 0.063 7.34 98.31 8.36
6/9/2022 3:45:00 PM 17.83 64.094 0.064 7.35 133.64 8.39
6/9/2022 4:00:00 PM 17.85 64.13 0.062 7.36 126.69 8.41
6/9/2022 4:15:00 PM 17.79 64.022 0.063 7.36 112.83 8.39
6/9/2022 4:30:00 PM 17.68 63.824 0.06 7.36 134.16 8.36
6/9/2022 4:45:00 PM 17.62 63.716 0.063 7.35 473.13 8.36
6/9/2022 5:00:00 PM 17.59 63.662 0.061 7.34 106.28 8.34
6/9/2022 5:15:00 PM 17.56 63.608 0.058 7.34 175.14 8.38
6/9/2022 5:30:00 PM 17.52 63.536 0.061 7.33 136.19 8.38
6/9/2022 5:45:00 PM 17.46 63.428 0.061 7.33 92.24 8.36
6/9/2022 6:00:00 PM 17.44 63.392 0.058 7.32 399.69 8.37
6/9/2022 6:15:00 PM 17.37 63.266 0.057 7.31 528.58 8.35
6/9/2022 6:30:00 PM 17.32 63.176 0.058 7.3 122.07 8.37
6/9/2022 6:45:00 PM 17.26 63.068 0.055 7.29 81.01 8.37
6/9/2022 7:00:00 PM 17.19 62.942 0.059 7.28 137.95 8.36
6/9/2022 7:15:00 PM 17.13 62.834 0.056 7.27 120.17 8.37
6/9/2022 7:30:00 PM 17.04 62.672 0.058 7.26 113.87 8.35
6/9/2022 7:45:00 PM 16.95 62.51 0.057 7.24 123.26 8.35
6/9/2022 8:00:00 PM 16.85 62.33 0.054 7.23 58.42 8.34
6/9/2022 8:15:00 PM 16.77 62.186 0.057 7.22 129.49 8.33
6/9/2022 8:30:00 PM 16.69 62.042 0.057 7.21 89.09 8.31
6/9/2022 8:45:00 PM 16.6 61.88 0.056 7.2 71.15 8.3
6/9/2022 9:00:00 PM 16.51 61.718 0.055 7.19 90.06 8.29
6/9/2022 9:15:00 PM 16.42 61.556 0.056 7.18 87.89 8.29
6/9/2022 9:30:00 PM 16.35 61.43 0.053 7.17 111.76 8.27
6/9/2022 9:45:00 PM 16.26 61.268 0.054 7.17 64.27 8.27
6/9/2022 10:00:00 PM 16.19 61.142 0.054 7.16 117.32 8.28
6/9/2022 10:15:00 PM 16.12 61.016 0.053 7.16 106.62 8.28
6/9/2022 10:30:00 PM 16.06 60.908 0.053 7.16 63.1 8.29
6/9/2022 10:45:00 PM 15.99 60.782 0.053 7.16 116.3 8.3
6/9/2022 11:00:00 PM 15.92 60.656 0.051 7.16 259.3 8.3
6/9/2022 11:15:00 PM 15.86 60.548 0.052 7.16 166.44 8.3
6/9/2022 11:30:00 PM 15.79 60.422 0.052 7.16 157.34 8.31
6/9/2022 11:45:00 PM 15.73 60.314 0.063 7.16 76.11 8.31
6/10/2022 12:00:00 AM 15.67 60.206 0.059 7.15 99.45 8.31
6/10/2022 12:15:00 AM 15.61 60.098 0.056 7.15 536.78 8.32
6/10/2022 12:30:00 AM 15.55 59.99 0.055 7.15 93.21 8.32
6/10/2022 12:45:00 AM 15.49 59.882 0.055 7.15 64.28 8.34
6/10/2022 1:00:00 AM 15.43 59.774 0.055 7.15 110.05 8.35
6/10/2022 1:15:00 AM 15.37 59.666 0.054 7.15 149.74 8.35
6/10/2022 1:30:00 AM 15.32 59.576 0.056 7.16 257.35 8.36
6/10/2022 1:45:00 AM 15.26 59.468 0.055 7.15 215.51 8.36
6/10/2022 2:00:00 AM 15.2 59.36 0.055 7.16 177.34 8.37
6/10/2022 2:15:00 AM 15.16 59.288 0.052 7.16 74.34 8.38
6/10/2022 2:30:00 AM 15.1 59.18 0.053 7.15 132.87 8.39
6/10/2022 2:45:00 AM 15.05 59.09 0.053 7.15 173.95 8.39
6/10/2022 3:00:00 AM 15.01 59.018 0.053 7.15 148.55 8.4
6/10/2022 3:15:00 AM 14.97 58.946 0.053 7.15 58.8 8.41
6/10/2022 3:30:00 AM 14.93 58.874 0.071 7.15 213.01 8.4
6/10/2022 3:45:00 AM 14.89 58.802 0.07 7.16 281.98 8.42
6/10/2022 4:00:00 AM 14.86 58.748 0.065 7.16 132.26 8.42
6/10/2022 4:15:00 AM 14.83 58.694 0.065 7.15 108.99 8.43
6/10/2022 4:30:00 AM 14.79 58.622 0.067 7.14 59.56 8.44
6/10/2022 4:45:00 AM 14.75 58.55 0.066 7.15 58.88 8.44
6/10/2022 5:00:00 AM 14.7 58.46 0.064 7.14 119.58 8.45
6/10/2022 5:15:00 AM 14.66 58.388 0.069 7.14 157.9 8.45
6/10/2022 5:30:00 AM 14.62 58.316 0.065 7.14 66.36 8.46
6/10/2022 5:45:00 AM 14.58 58.244 0.064 7.14 268.63 8.46
6/10/2022 6:00:00 AM 14.54 58.172 0.066 7.15 485.17 8.48
6/10/2022 6:15:00 AM 14.5 58.1 0.067 7.15 439.83 8.49
6/10/2022 6:30:00 AM 14.48 58.064 0.065 7.15 345.69 8.52
6/10/2022 6:45:00 AM 14.46 58.028 0.064 7.15 135.82 8.55
6/10/2022 7:00:00 AM 14.46 58.028 0.064 7.16 99.74 8.59
6/10/2022 7:15:00 AM 14.46 58.028 0.064 7.17 132.96 8.62
6/10/2022 7:30:00 AM 14.48 58.064 0.063 7.18 60.48 8.67
6/10/2022 7:45:00 AM 14.52 58.136 0.064 7.19 105.73 8.71
6/10/2022 8:00:00 AM 14.56 58.208 0.056 7.19 49.03 8.76
6/10/2022 8:15:00 AM 14.66 58.388 0.061 7.21 104.93 8.8
6/10/2022 8:30:00 AM 14.74 58.532 0.062 7.23 185.8 8.85
6/10/2022 8:45:00 AM 14.85 58.73 0.064 7.24 446.22 8.88
6/10/2022 9:00:00 AM 15 59 0.059 7.26 53.5 8.92
6/10/2022 9:15:00 AM 15.13 59.234